<?xml version="1.0" encoding="UTF-8" standalone="no" ?>
<gpx xmlns="http://www.topografix.com/GPX/1/1" xmlns:xsi="http://www.w3.org/2001/XMLSchema-instance" xsi:schemaLocation="http://www.topografix.com/GPX/1/1 http://www.topografix.com/GPX/1/1/gpx.xsd" version="1.1" creator="VisuGPX - https://www.visugpx.com">
  <metadata>
    <name>83-D-Taradeau</name>
    <desc><![CDATA[83-D-Taradeau : de Taradeau aux Arcs
2020-01-19
]]></desc>
  </metadata>
  <trk>
    <name><![CDATA[2020-01-19-D-Taradeau_bon]]></name>
    <trkseg>
      <trkpt lat="43.45391" lon="6.42658">
        <ele>66.5</ele>
        <time>2020-01-19T07:47:04Z</time>
      </trkpt>
      <trkpt lat="43.45391" lon="6.42658">
        <ele>67.4</ele>
        <time>2020-01-19T07:47:05Z</time>
      </trkpt>
      <trkpt lat="43.45391" lon="6.42672">
        <ele>78.6</ele>
        <time>2020-01-19T07:48:15Z</time>
      </trkpt>
      <trkpt lat="43.45383" lon="6.42678">
        <ele>80.5</ele>
        <time>2020-01-19T07:50:07Z</time>
      </trkpt>
      <trkpt lat="43.45383" lon="6.42691">
        <ele>80.7</ele>
        <time>2020-01-19T07:50:17Z</time>
      </trkpt>
      <trkpt lat="43.45379" lon="6.42703">
        <ele>80.6</ele>
        <time>2020-01-19T07:50:28Z</time>
      </trkpt>
      <trkpt lat="43.45375" lon="6.42714">
        <ele>80.4</ele>
        <time>2020-01-19T07:50:38Z</time>
      </trkpt>
      <trkpt lat="43.45372" lon="6.42726">
        <ele>80.2</ele>
        <time>2020-01-19T07:50:49Z</time>
      </trkpt>
      <trkpt lat="43.45373" lon="6.42739">
        <ele>80.2</ele>
        <time>2020-01-19T07:50:56Z</time>
      </trkpt>
      <trkpt lat="43.45375" lon="6.42751">
        <ele>80.4</ele>
        <time>2020-01-19T07:51:03Z</time>
      </trkpt>
      <trkpt lat="43.45377" lon="6.42764">
        <ele>80.9</ele>
        <time>2020-01-19T07:51:13Z</time>
      </trkpt>
      <trkpt lat="43.45378" lon="6.42776">
        <ele>81.6</ele>
        <time>2020-01-19T07:51:22Z</time>
      </trkpt>
      <trkpt lat="43.45383" lon="6.42787">
        <ele>81.9</ele>
        <time>2020-01-19T07:51:28Z</time>
      </trkpt>
      <trkpt lat="43.4539" lon="6.42797">
        <ele>82.4</ele>
        <time>2020-01-19T07:51:36Z</time>
      </trkpt>
      <trkpt lat="43.45398" lon="6.42804">
        <ele>83.3</ele>
        <time>2020-01-19T07:51:46Z</time>
      </trkpt>
      <trkpt lat="43.45403" lon="6.42815">
        <ele>84</ele>
        <time>2020-01-19T07:51:55Z</time>
      </trkpt>
      <trkpt lat="43.45406" lon="6.42827">
        <ele>84.9</ele>
        <time>2020-01-19T07:52:04Z</time>
      </trkpt>
      <trkpt lat="43.45408" lon="6.4284">
        <ele>85.7</ele>
        <time>2020-01-19T07:52:12Z</time>
      </trkpt>
      <trkpt lat="43.45409" lon="6.42853">
        <ele>86.3</ele>
        <time>2020-01-19T07:52:20Z</time>
      </trkpt>
      <trkpt lat="43.45409" lon="6.42866">
        <ele>87.3</ele>
        <time>2020-01-19T07:52:29Z</time>
      </trkpt>
      <trkpt lat="43.4541" lon="6.4288">
        <ele>88.2</ele>
        <time>2020-01-19T07:52:40Z</time>
      </trkpt>
      <trkpt lat="43.45409" lon="6.42894">
        <ele>88.7</ele>
        <time>2020-01-19T07:52:47Z</time>
      </trkpt>
      <trkpt lat="43.4541" lon="6.42907">
        <ele>89.2</ele>
        <time>2020-01-19T07:52:55Z</time>
      </trkpt>
      <trkpt lat="43.45413" lon="6.4292">
        <ele>89.8</ele>
        <time>2020-01-19T07:53:03Z</time>
      </trkpt>
      <trkpt lat="43.45413" lon="6.42933">
        <ele>90.8</ele>
        <time>2020-01-19T07:53:12Z</time>
      </trkpt>
      <trkpt lat="43.45415" lon="6.42946">
        <ele>92</ele>
        <time>2020-01-19T07:53:23Z</time>
      </trkpt>
      <trkpt lat="43.45419" lon="6.42958">
        <ele>93</ele>
        <time>2020-01-19T07:53:32Z</time>
      </trkpt>
      <trkpt lat="43.45421" lon="6.42971">
        <ele>94.2</ele>
        <time>2020-01-19T07:53:41Z</time>
      </trkpt>
      <trkpt lat="43.45424" lon="6.42984">
        <ele>95.3</ele>
        <time>2020-01-19T07:53:49Z</time>
      </trkpt>
      <trkpt lat="43.45427" lon="6.42996">
        <ele>96.8</ele>
        <time>2020-01-19T07:54:00Z</time>
      </trkpt>
      <trkpt lat="43.45428" lon="6.43009">
        <ele>98.6</ele>
        <time>2020-01-19T07:54:19Z</time>
      </trkpt>
      <trkpt lat="43.45431" lon="6.43021">
        <ele>100.6</ele>
        <time>2020-01-19T07:54:34Z</time>
      </trkpt>
      <trkpt lat="43.45435" lon="6.43031">
        <ele>103.4</ele>
        <time>2020-01-19T07:55:03Z</time>
      </trkpt>
      <trkpt lat="43.45434" lon="6.43044">
        <ele>105.8</ele>
        <time>2020-01-19T07:58:15Z</time>
      </trkpt>
      <trkpt lat="43.45442" lon="6.4305">
        <ele>108.4</ele>
        <time>2020-01-19T07:58:52Z</time>
      </trkpt>
      <trkpt lat="43.45452" lon="6.43052">
        <ele>111</ele>
        <time>2020-01-19T07:59:25Z</time>
      </trkpt>
      <trkpt lat="43.4546" lon="6.43057">
        <ele>115.4</ele>
        <time>2020-01-19T08:00:04Z</time>
      </trkpt>
      <trkpt lat="43.4547" lon="6.43058">
        <ele>118.5</ele>
        <time>2020-01-19T08:00:33Z</time>
      </trkpt>
      <trkpt lat="43.45479" lon="6.4306">
        <ele>121.7</ele>
        <time>2020-01-19T08:01:11Z</time>
      </trkpt>
      <trkpt lat="43.45486" lon="6.43068">
        <ele>123.5</ele>
        <time>2020-01-19T08:01:56Z</time>
      </trkpt>
      <trkpt lat="43.45488" lon="6.4308">
        <ele>124.1</ele>
        <time>2020-01-19T08:02:12Z</time>
      </trkpt>
      <trkpt lat="43.45493" lon="6.43091">
        <ele>125.5</ele>
        <time>2020-01-19T08:02:31Z</time>
      </trkpt>
      <trkpt lat="43.45497" lon="6.43103">
        <ele>126.8</ele>
        <time>2020-01-19T08:02:42Z</time>
      </trkpt>
      <trkpt lat="43.455" lon="6.43115">
        <ele>128.3</ele>
        <time>2020-01-19T08:02:54Z</time>
      </trkpt>
      <trkpt lat="43.455" lon="6.43129">
        <ele>130.1</ele>
        <time>2020-01-19T08:03:07Z</time>
      </trkpt>
      <trkpt lat="43.45501" lon="6.43142">
        <ele>132</ele>
        <time>2020-01-19T08:03:22Z</time>
      </trkpt>
      <trkpt lat="43.45502" lon="6.43154">
        <ele>133.3</ele>
        <time>2020-01-19T08:03:33Z</time>
      </trkpt>
      <trkpt lat="43.45498" lon="6.43167">
        <ele>134.4</ele>
        <time>2020-01-19T08:03:46Z</time>
      </trkpt>
      <trkpt lat="43.45497" lon="6.43181">
        <ele>135.4</ele>
        <time>2020-01-19T08:03:57Z</time>
      </trkpt>
      <trkpt lat="43.45496" lon="6.43193">
        <ele>136.7</ele>
        <time>2020-01-19T08:04:11Z</time>
      </trkpt>
      <trkpt lat="43.45491" lon="6.43203">
        <ele>137.7</ele>
        <time>2020-01-19T08:04:23Z</time>
      </trkpt>
      <trkpt lat="43.45486" lon="6.43214">
        <ele>139.2</ele>
        <time>2020-01-19T08:04:34Z</time>
      </trkpt>
      <trkpt lat="43.45482" lon="6.43226">
        <ele>141.2</ele>
        <time>2020-01-19T08:04:49Z</time>
      </trkpt>
      <trkpt lat="43.45475" lon="6.43235">
        <ele>143.3</ele>
        <time>2020-01-19T08:05:09Z</time>
      </trkpt>
      <trkpt lat="43.45466" lon="6.4324">
        <ele>144.4</ele>
        <time>2020-01-19T08:05:19Z</time>
      </trkpt>
      <trkpt lat="43.45458" lon="6.43245">
        <ele>145.8</ele>
        <time>2020-01-19T08:05:30Z</time>
      </trkpt>
      <trkpt lat="43.45449" lon="6.4325">
        <ele>147.2</ele>
        <time>2020-01-19T08:05:40Z</time>
      </trkpt>
      <trkpt lat="43.45442" lon="6.43258">
        <ele>148.9</ele>
        <time>2020-01-19T08:05:52Z</time>
      </trkpt>
      <trkpt lat="43.45436" lon="6.43268">
        <ele>150.9</ele>
        <time>2020-01-19T08:06:07Z</time>
      </trkpt>
      <trkpt lat="43.45431" lon="6.4328">
        <ele>153.1</ele>
        <time>2020-01-19T08:06:22Z</time>
      </trkpt>
      <trkpt lat="43.45425" lon="6.43289">
        <ele>154.1</ele>
        <time>2020-01-19T08:06:32Z</time>
      </trkpt>
      <trkpt lat="43.45417" lon="6.43296">
        <ele>155.1</ele>
        <time>2020-01-19T08:06:41Z</time>
      </trkpt>
      <trkpt lat="43.45409" lon="6.43302">
        <ele>156.1</ele>
        <time>2020-01-19T08:06:50Z</time>
      </trkpt>
      <trkpt lat="43.45405" lon="6.43314">
        <ele>157</ele>
        <time>2020-01-19T08:07:01Z</time>
      </trkpt>
      <trkpt lat="43.45404" lon="6.43327">
        <ele>157.7</ele>
        <time>2020-01-19T08:07:10Z</time>
      </trkpt>
      <trkpt lat="43.45406" lon="6.43339">
        <ele>158.3</ele>
        <time>2020-01-19T08:07:17Z</time>
      </trkpt>
      <trkpt lat="43.45406" lon="6.43352">
        <ele>159.4</ele>
        <time>2020-01-19T08:07:30Z</time>
      </trkpt>
      <trkpt lat="43.45401" lon="6.43362">
        <ele>160.6</ele>
        <time>2020-01-19T08:07:40Z</time>
      </trkpt>
      <trkpt lat="43.45397" lon="6.43374">
        <ele>162.1</ele>
        <time>2020-01-19T08:07:51Z</time>
      </trkpt>
      <trkpt lat="43.45392" lon="6.43384">
        <ele>163.3</ele>
        <time>2020-01-19T08:08:01Z</time>
      </trkpt>
      <trkpt lat="43.45384" lon="6.43393">
        <ele>164.3</ele>
        <time>2020-01-19T08:08:09Z</time>
      </trkpt>
      <trkpt lat="43.45377" lon="6.43402">
        <ele>165.6</ele>
        <time>2020-01-19T08:08:19Z</time>
      </trkpt>
      <trkpt lat="43.4537" lon="6.43409">
        <ele>166.5</ele>
        <time>2020-01-19T08:08:28Z</time>
      </trkpt>
      <trkpt lat="43.45361" lon="6.43414">
        <ele>167.4</ele>
        <time>2020-01-19T08:08:37Z</time>
      </trkpt>
      <trkpt lat="43.45353" lon="6.43421">
        <ele>168</ele>
        <time>2020-01-19T08:08:46Z</time>
      </trkpt>
      <trkpt lat="43.45343" lon="6.43424">
        <ele>168.6</ele>
        <time>2020-01-19T08:08:56Z</time>
      </trkpt>
      <trkpt lat="43.45333" lon="6.43424">
        <ele>169.1</ele>
        <time>2020-01-19T08:09:05Z</time>
      </trkpt>
      <trkpt lat="43.45324" lon="6.43425">
        <ele>170.1</ele>
        <time>2020-01-19T08:09:25Z</time>
      </trkpt>
      <trkpt lat="43.45321" lon="6.43437">
        <ele>170.5</ele>
        <time>2020-01-19T08:09:34Z</time>
      </trkpt>
      <trkpt lat="43.45318" lon="6.4345">
        <ele>171.1</ele>
        <time>2020-01-19T08:10:20Z</time>
      </trkpt>
      <trkpt lat="43.45325" lon="6.43458">
        <ele>171.2</ele>
        <time>2020-01-19T08:14:53Z</time>
      </trkpt>
      <trkpt lat="43.45334" lon="6.43453">
        <ele>171.5</ele>
        <time>2020-01-19T08:15:36Z</time>
      </trkpt>
      <trkpt lat="43.45339" lon="6.43464">
        <ele>176.7</ele>
        <time>2020-01-19T08:17:17Z</time>
      </trkpt>
      <trkpt lat="43.45336" lon="6.43477">
        <ele>177.6</ele>
        <time>2020-01-19T08:17:33Z</time>
      </trkpt>
      <trkpt lat="43.45338" lon="6.43489">
        <ele>179.8</ele>
        <time>2020-01-19T08:17:56Z</time>
      </trkpt>
      <trkpt lat="43.45343" lon="6.435">
        <ele>180.5</ele>
        <time>2020-01-19T08:18:10Z</time>
      </trkpt>
      <trkpt lat="43.4535" lon="6.43509">
        <ele>182.7</ele>
        <time>2020-01-19T08:18:29Z</time>
      </trkpt>
      <trkpt lat="43.45359" lon="6.43505">
        <ele>192.5</ele>
        <time>2020-01-19T08:19:45Z</time>
      </trkpt>
      <trkpt lat="43.45367" lon="6.4351">
        <ele>195.1</ele>
        <time>2020-01-19T08:20:02Z</time>
      </trkpt>
      <trkpt lat="43.45376" lon="6.43506">
        <ele>196.5</ele>
        <time>2020-01-19T08:20:15Z</time>
      </trkpt>
      <trkpt lat="43.45385" lon="6.43501">
        <ele>198.1</ele>
        <time>2020-01-19T08:20:37Z</time>
      </trkpt>
      <trkpt lat="43.45394" lon="6.43504">
        <ele>199.7</ele>
        <time>2020-01-19T08:20:55Z</time>
      </trkpt>
      <trkpt lat="43.45403" lon="6.43506">
        <ele>200.6</ele>
        <time>2020-01-19T08:21:07Z</time>
      </trkpt>
      <trkpt lat="43.45412" lon="6.43506">
        <ele>201.8</ele>
        <time>2020-01-19T08:21:16Z</time>
      </trkpt>
      <trkpt lat="43.45421" lon="6.43504">
        <ele>202.9</ele>
        <time>2020-01-19T08:21:27Z</time>
      </trkpt>
      <trkpt lat="43.45416" lon="6.43515">
        <ele>207.5</ele>
        <time>2020-01-19T08:22:30Z</time>
      </trkpt>
      <trkpt lat="43.45412" lon="6.43526">
        <ele>208.7</ele>
        <time>2020-01-19T08:22:47Z</time>
      </trkpt>
      <trkpt lat="43.45412" lon="6.43539">
        <ele>210.2</ele>
        <time>2020-01-19T08:23:00Z</time>
      </trkpt>
      <trkpt lat="43.45415" lon="6.43551">
        <ele>212.3</ele>
        <time>2020-01-19T08:23:24Z</time>
      </trkpt>
      <trkpt lat="43.45425" lon="6.43547">
        <ele>214.2</ele>
        <time>2020-01-19T08:23:37Z</time>
      </trkpt>
      <trkpt lat="43.45432" lon="6.43539">
        <ele>215.2</ele>
        <time>2020-01-19T08:23:47Z</time>
      </trkpt>
      <trkpt lat="43.45441" lon="6.43535">
        <ele>216.5</ele>
        <time>2020-01-19T08:24:09Z</time>
      </trkpt>
      <trkpt lat="43.45449" lon="6.43529">
        <ele>219.7</ele>
        <time>2020-01-19T08:24:37Z</time>
      </trkpt>
      <trkpt lat="43.45453" lon="6.43541">
        <ele>225.4</ele>
        <time>2020-01-19T08:25:19Z</time>
      </trkpt>
      <trkpt lat="43.45445" lon="6.43548">
        <ele>228.3</ele>
        <time>2020-01-19T08:26:14Z</time>
      </trkpt>
      <trkpt lat="43.45445" lon="6.43561">
        <ele>229</ele>
        <time>2020-01-19T08:26:43Z</time>
      </trkpt>
      <trkpt lat="43.45445" lon="6.43574">
        <ele>230.6</ele>
        <time>2020-01-19T08:26:58Z</time>
      </trkpt>
      <trkpt lat="43.4545" lon="6.43585">
        <ele>233.7</ele>
        <time>2020-01-19T08:27:20Z</time>
      </trkpt>
      <trkpt lat="43.4545" lon="6.43598">
        <ele>237.9</ele>
        <time>2020-01-19T08:28:20Z</time>
      </trkpt>
      <trkpt lat="43.45451" lon="6.4361">
        <ele>239.9</ele>
        <time>2020-01-19T08:28:42Z</time>
      </trkpt>
      <trkpt lat="43.45456" lon="6.43621">
        <ele>244.5</ele>
        <time>2020-01-19T08:29:21Z</time>
      </trkpt>
      <trkpt lat="43.45464" lon="6.43627">
        <ele>247.5</ele>
        <time>2020-01-19T08:29:57Z</time>
      </trkpt>
      <trkpt lat="43.45467" lon="6.43639">
        <ele>249.1</ele>
        <time>2020-01-19T08:30:14Z</time>
      </trkpt>
      <trkpt lat="43.45467" lon="6.43651">
        <ele>250.8</ele>
        <time>2020-01-19T08:30:33Z</time>
      </trkpt>
      <trkpt lat="43.45473" lon="6.43661">
        <ele>255.4</ele>
        <time>2020-01-19T08:32:10Z</time>
      </trkpt>
      <trkpt lat="43.45479" lon="6.4367">
        <ele>254</ele>
        <time>2020-01-19T08:34:12Z</time>
      </trkpt>
      <trkpt lat="43.45487" lon="6.43676">
        <ele>254.7</ele>
        <time>2020-01-19T08:34:31Z</time>
      </trkpt>
      <trkpt lat="43.45496" lon="6.43677">
        <ele>255.5</ele>
        <time>2020-01-19T08:34:47Z</time>
      </trkpt>
      <trkpt lat="43.45505" lon="6.43677">
        <ele>256.3</ele>
        <time>2020-01-19T08:35:03Z</time>
      </trkpt>
      <trkpt lat="43.45515" lon="6.43678">
        <ele>257</ele>
        <time>2020-01-19T08:35:17Z</time>
      </trkpt>
      <trkpt lat="43.45524" lon="6.4368">
        <ele>257.8</ele>
        <time>2020-01-19T08:35:30Z</time>
      </trkpt>
      <trkpt lat="43.45533" lon="6.43677">
        <ele>259.2</ele>
        <time>2020-01-19T08:36:02Z</time>
      </trkpt>
      <trkpt lat="43.45541" lon="6.4367">
        <ele>259</ele>
        <time>2020-01-19T08:36:11Z</time>
      </trkpt>
      <trkpt lat="43.4555" lon="6.43669">
        <ele>258.9</ele>
        <time>2020-01-19T08:36:21Z</time>
      </trkpt>
      <trkpt lat="43.45558" lon="6.43674">
        <ele>258.8</ele>
        <time>2020-01-19T08:36:39Z</time>
      </trkpt>
      <trkpt lat="43.45566" lon="6.43682">
        <ele>258.2</ele>
        <time>2020-01-19T08:38:02Z</time>
      </trkpt>
      <trkpt lat="43.45575" lon="6.43677">
        <ele>257.9</ele>
        <time>2020-01-19T08:38:11Z</time>
      </trkpt>
      <trkpt lat="43.45572" lon="6.43665">
        <ele>257</ele>
        <time>2020-01-19T08:41:01Z</time>
      </trkpt>
      <trkpt lat="43.4557" lon="6.43653">
        <ele>256.4</ele>
        <time>2020-01-19T08:41:35Z</time>
      </trkpt>
      <trkpt lat="43.45571" lon="6.4364">
        <ele>255.6</ele>
        <time>2020-01-19T08:41:49Z</time>
      </trkpt>
      <trkpt lat="43.45575" lon="6.43628">
        <ele>254.6</ele>
        <time>2020-01-19T08:42:04Z</time>
      </trkpt>
      <trkpt lat="43.45581" lon="6.43619">
        <ele>252.8</ele>
        <time>2020-01-19T08:42:23Z</time>
      </trkpt>
      <trkpt lat="43.45574" lon="6.43611">
        <ele>250.8</ele>
        <time>2020-01-19T08:44:27Z</time>
      </trkpt>
      <trkpt lat="43.45566" lon="6.43617">
        <ele>250.8</ele>
        <time>2020-01-19T08:46:55Z</time>
      </trkpt>
      <trkpt lat="43.45575" lon="6.43614">
        <ele>251</ele>
        <time>2020-01-19T08:47:59Z</time>
      </trkpt>
      <trkpt lat="43.45565" lon="6.43611">
        <ele>250.5</ele>
        <time>2020-01-19T08:49:13Z</time>
      </trkpt>
      <trkpt lat="43.45574" lon="6.4361">
        <ele>250.5</ele>
        <time>2020-01-19T08:49:31Z</time>
      </trkpt>
      <trkpt lat="43.45568" lon="6.43601">
        <ele>250.3</ele>
        <time>2020-01-19T08:49:58Z</time>
      </trkpt>
      <trkpt lat="43.4556" lon="6.43596">
        <ele>250.1</ele>
        <time>2020-01-19T08:50:15Z</time>
      </trkpt>
      <trkpt lat="43.45553" lon="6.43588">
        <ele>249.8</ele>
        <time>2020-01-19T08:50:46Z</time>
      </trkpt>
      <trkpt lat="43.45546" lon="6.43579">
        <ele>249.1</ele>
        <time>2020-01-19T08:51:03Z</time>
      </trkpt>
      <trkpt lat="43.4554" lon="6.43568">
        <ele>248</ele>
        <time>2020-01-19T08:51:28Z</time>
      </trkpt>
      <trkpt lat="43.45531" lon="6.43568">
        <ele>246.2</ele>
        <time>2020-01-19T08:53:11Z</time>
      </trkpt>
      <trkpt lat="43.45522" lon="6.43565">
        <ele>246.3</ele>
        <time>2020-01-19T08:53:23Z</time>
      </trkpt>
      <trkpt lat="43.45513" lon="6.43564">
        <ele>246.3</ele>
        <time>2020-01-19T08:53:38Z</time>
      </trkpt>
      <trkpt lat="43.45506" lon="6.43572">
        <ele>246.2</ele>
        <time>2020-01-19T08:53:47Z</time>
      </trkpt>
      <trkpt lat="43.45497" lon="6.43575">
        <ele>246</ele>
        <time>2020-01-19T08:54:02Z</time>
      </trkpt>
      <trkpt lat="43.45489" lon="6.43568">
        <ele>245.9</ele>
        <time>2020-01-19T08:54:33Z</time>
      </trkpt>
      <trkpt lat="43.45482" lon="6.4356">
        <ele>245.9</ele>
        <time>2020-01-19T08:55:12Z</time>
      </trkpt>
      <trkpt lat="43.45486" lon="6.43572">
        <ele>246</ele>
        <time>2020-01-19T08:55:25Z</time>
      </trkpt>
      <trkpt lat="43.45492" lon="6.43581">
        <ele>246</ele>
        <time>2020-01-19T08:55:44Z</time>
      </trkpt>
      <trkpt lat="43.45493" lon="6.43593">
        <ele>246</ele>
        <time>2020-01-19T08:55:59Z</time>
      </trkpt>
      <trkpt lat="43.4549" lon="6.43605">
        <ele>246.2</ele>
        <time>2020-01-19T08:56:11Z</time>
      </trkpt>
      <trkpt lat="43.45491" lon="6.43619">
        <ele>246.5</ele>
        <time>2020-01-19T08:56:23Z</time>
      </trkpt>
      <trkpt lat="43.45487" lon="6.43631">
        <ele>247.1</ele>
        <time>2020-01-19T08:56:34Z</time>
      </trkpt>
      <trkpt lat="43.45488" lon="6.43643">
        <ele>247.8</ele>
        <time>2020-01-19T08:56:46Z</time>
      </trkpt>
      <trkpt lat="43.45494" lon="6.43652">
        <ele>249.1</ele>
        <time>2020-01-19T08:57:06Z</time>
      </trkpt>
      <trkpt lat="43.45503" lon="6.43655">
        <ele>250.3</ele>
        <time>2020-01-19T08:57:20Z</time>
      </trkpt>
      <trkpt lat="43.45512" lon="6.43654">
        <ele>252.2</ele>
        <time>2020-01-19T08:58:57Z</time>
      </trkpt>
      <trkpt lat="43.45521" lon="6.43661">
        <ele>253.7</ele>
        <time>2020-01-19T09:02:23Z</time>
      </trkpt>
      <trkpt lat="43.4553" lon="6.43664">
        <ele>254.3</ele>
        <time>2020-01-19T09:02:37Z</time>
      </trkpt>
      <trkpt lat="43.45533" lon="6.43676">
        <ele>255.5</ele>
        <time>2020-01-19T09:03:14Z</time>
      </trkpt>
      <trkpt lat="43.45523" lon="6.43677">
        <ele>256.5</ele>
        <time>2020-01-19T09:03:52Z</time>
      </trkpt>
      <trkpt lat="43.45514" lon="6.43673">
        <ele>256.2</ele>
        <time>2020-01-19T09:04:03Z</time>
      </trkpt>
      <trkpt lat="43.45505" lon="6.43671">
        <ele>255.6</ele>
        <time>2020-01-19T09:04:14Z</time>
      </trkpt>
      <trkpt lat="43.45496" lon="6.4367">
        <ele>254.8</ele>
        <time>2020-01-19T09:04:27Z</time>
      </trkpt>
      <trkpt lat="43.45486" lon="6.43673">
        <ele>254.1</ele>
        <time>2020-01-19T09:04:38Z</time>
      </trkpt>
      <trkpt lat="43.45488" lon="6.43686">
        <ele>253.4</ele>
        <time>2020-01-19T09:04:48Z</time>
      </trkpt>
      <trkpt lat="43.45489" lon="6.43699">
        <ele>253.3</ele>
        <time>2020-01-19T09:05:00Z</time>
      </trkpt>
      <trkpt lat="43.45492" lon="6.43711">
        <ele>254.2</ele>
        <time>2020-01-19T09:05:13Z</time>
      </trkpt>
      <trkpt lat="43.45495" lon="6.43724">
        <ele>255.1</ele>
        <time>2020-01-19T09:05:23Z</time>
      </trkpt>
      <trkpt lat="43.45499" lon="6.43735">
        <ele>256.5</ele>
        <time>2020-01-19T09:05:39Z</time>
      </trkpt>
      <trkpt lat="43.45504" lon="6.43747">
        <ele>257.5</ele>
        <time>2020-01-19T09:05:50Z</time>
      </trkpt>
      <trkpt lat="43.45504" lon="6.43759">
        <ele>259.7</ele>
        <time>2020-01-19T09:06:11Z</time>
      </trkpt>
      <trkpt lat="43.45499" lon="6.4377">
        <ele>260.2</ele>
        <time>2020-01-19T09:06:23Z</time>
      </trkpt>
      <trkpt lat="43.45499" lon="6.43783">
        <ele>260.5</ele>
        <time>2020-01-19T09:06:35Z</time>
      </trkpt>
      <trkpt lat="43.45494" lon="6.43794">
        <ele>260.6</ele>
        <time>2020-01-19T09:06:43Z</time>
      </trkpt>
      <trkpt lat="43.4549" lon="6.43805">
        <ele>260.7</ele>
        <time>2020-01-19T09:07:17Z</time>
      </trkpt>
      <trkpt lat="43.45487" lon="6.43818">
        <ele>260.8</ele>
        <time>2020-01-19T09:07:28Z</time>
      </trkpt>
      <trkpt lat="43.45486" lon="6.43831">
        <ele>260.4</ele>
        <time>2020-01-19T09:07:47Z</time>
      </trkpt>
      <trkpt lat="43.45477" lon="6.43834">
        <ele>260.1</ele>
        <time>2020-01-19T09:08:19Z</time>
      </trkpt>
      <trkpt lat="43.45486" lon="6.43832">
        <ele>260.4</ele>
        <time>2020-01-19T09:11:05Z</time>
      </trkpt>
      <trkpt lat="43.45492" lon="6.43821">
        <ele>259.4</ele>
        <time>2020-01-19T09:11:37Z</time>
      </trkpt>
      <trkpt lat="43.45497" lon="6.43811">
        <ele>259.3</ele>
        <time>2020-01-19T09:11:48Z</time>
      </trkpt>
      <trkpt lat="43.45497" lon="6.43798">
        <ele>259.6</ele>
        <time>2020-01-19T09:12:06Z</time>
      </trkpt>
      <trkpt lat="43.45501" lon="6.43787">
        <ele>259.7</ele>
        <time>2020-01-19T09:12:24Z</time>
      </trkpt>
      <trkpt lat="43.45508" lon="6.4378">
        <ele>259.8</ele>
        <time>2020-01-19T09:12:32Z</time>
      </trkpt>
      <trkpt lat="43.45517" lon="6.43772">
        <ele>259.8</ele>
        <time>2020-01-19T09:12:38Z</time>
      </trkpt>
      <trkpt lat="43.45524" lon="6.43763">
        <ele>259.4</ele>
        <time>2020-01-19T09:12:49Z</time>
      </trkpt>
      <trkpt lat="43.45532" lon="6.43754">
        <ele>258.8</ele>
        <time>2020-01-19T09:12:59Z</time>
      </trkpt>
      <trkpt lat="43.4554" lon="6.43745">
        <ele>257.9</ele>
        <time>2020-01-19T09:13:09Z</time>
      </trkpt>
      <trkpt lat="43.45547" lon="6.43737">
        <ele>257.4</ele>
        <time>2020-01-19T09:13:18Z</time>
      </trkpt>
      <trkpt lat="43.45553" lon="6.43727">
        <ele>256.8</ele>
        <time>2020-01-19T09:13:27Z</time>
      </trkpt>
      <trkpt lat="43.4556" lon="6.43717">
        <ele>256.3</ele>
        <time>2020-01-19T09:13:39Z</time>
      </trkpt>
      <trkpt lat="43.45568" lon="6.43711">
        <ele>255.9</ele>
        <time>2020-01-19T09:13:52Z</time>
      </trkpt>
      <trkpt lat="43.45577" lon="6.43706">
        <ele>254.8</ele>
        <time>2020-01-19T09:14:04Z</time>
      </trkpt>
      <trkpt lat="43.45584" lon="6.43698">
        <ele>253.7</ele>
        <time>2020-01-19T09:14:19Z</time>
      </trkpt>
      <trkpt lat="43.45593" lon="6.43694">
        <ele>253.1</ele>
        <time>2020-01-19T09:14:36Z</time>
      </trkpt>
      <trkpt lat="43.45601" lon="6.43688">
        <ele>252.6</ele>
        <time>2020-01-19T09:14:53Z</time>
      </trkpt>
      <trkpt lat="43.4561" lon="6.43684">
        <ele>252.2</ele>
        <time>2020-01-19T09:15:02Z</time>
      </trkpt>
      <trkpt lat="43.45618" lon="6.43678">
        <ele>251.9</ele>
        <time>2020-01-19T09:15:10Z</time>
      </trkpt>
      <trkpt lat="43.45627" lon="6.43674">
        <ele>251.5</ele>
        <time>2020-01-19T09:15:21Z</time>
      </trkpt>
      <trkpt lat="43.45636" lon="6.43667">
        <ele>251.2</ele>
        <time>2020-01-19T09:15:31Z</time>
      </trkpt>
      <trkpt lat="43.45645" lon="6.43662">
        <ele>251.1</ele>
        <time>2020-01-19T09:15:39Z</time>
      </trkpt>
      <trkpt lat="43.45654" lon="6.4366">
        <ele>251.2</ele>
        <time>2020-01-19T09:15:47Z</time>
      </trkpt>
      <trkpt lat="43.45664" lon="6.43658">
        <ele>251.2</ele>
        <time>2020-01-19T09:15:56Z</time>
      </trkpt>
      <trkpt lat="43.45673" lon="6.43656">
        <ele>251.2</ele>
        <time>2020-01-19T09:16:03Z</time>
      </trkpt>
      <trkpt lat="43.45682" lon="6.43655">
        <ele>251.2</ele>
        <time>2020-01-19T09:16:10Z</time>
      </trkpt>
      <trkpt lat="43.45692" lon="6.43655">
        <ele>251.3</ele>
        <time>2020-01-19T09:16:18Z</time>
      </trkpt>
      <trkpt lat="43.45701" lon="6.43655">
        <ele>251.4</ele>
        <time>2020-01-19T09:16:26Z</time>
      </trkpt>
      <trkpt lat="43.4571" lon="6.43654">
        <ele>251.9</ele>
        <time>2020-01-19T09:16:36Z</time>
      </trkpt>
      <trkpt lat="43.45719" lon="6.43661">
        <ele>252.5</ele>
        <time>2020-01-19T09:16:46Z</time>
      </trkpt>
      <trkpt lat="43.45728" lon="6.43664">
        <ele>253.3</ele>
        <time>2020-01-19T09:16:54Z</time>
      </trkpt>
      <trkpt lat="43.45737" lon="6.43666">
        <ele>253.9</ele>
        <time>2020-01-19T09:17:03Z</time>
      </trkpt>
      <trkpt lat="43.45747" lon="6.43669">
        <ele>254.4</ele>
        <time>2020-01-19T09:17:11Z</time>
      </trkpt>
      <trkpt lat="43.45756" lon="6.43674">
        <ele>254.9</ele>
        <time>2020-01-19T09:17:19Z</time>
      </trkpt>
      <trkpt lat="43.45765" lon="6.43674">
        <ele>255.3</ele>
        <time>2020-01-19T09:17:27Z</time>
      </trkpt>
      <trkpt lat="43.45774" lon="6.4367">
        <ele>256.2</ele>
        <time>2020-01-19T09:18:00Z</time>
      </trkpt>
      <trkpt lat="43.45783" lon="6.43664">
        <ele>256.4</ele>
        <time>2020-01-19T09:18:14Z</time>
      </trkpt>
      <trkpt lat="43.45792" lon="6.43663">
        <ele>256.1</ele>
        <time>2020-01-19T09:18:35Z</time>
      </trkpt>
      <trkpt lat="43.45801" lon="6.43667">
        <ele>255</ele>
        <time>2020-01-19T09:18:51Z</time>
      </trkpt>
      <trkpt lat="43.4581" lon="6.43669">
        <ele>253.6</ele>
        <time>2020-01-19T09:19:04Z</time>
      </trkpt>
      <trkpt lat="43.4582" lon="6.43667">
        <ele>251.9</ele>
        <time>2020-01-19T09:19:16Z</time>
      </trkpt>
      <trkpt lat="43.45829" lon="6.43663">
        <ele>250.6</ele>
        <time>2020-01-19T09:19:26Z</time>
      </trkpt>
      <trkpt lat="43.45838" lon="6.4366">
        <ele>248.8</ele>
        <time>2020-01-19T09:19:41Z</time>
      </trkpt>
      <trkpt lat="43.45847" lon="6.43656">
        <ele>247.7</ele>
        <time>2020-01-19T09:19:51Z</time>
      </trkpt>
      <trkpt lat="43.45856" lon="6.43653">
        <ele>247</ele>
        <time>2020-01-19T09:20:01Z</time>
      </trkpt>
      <trkpt lat="43.45865" lon="6.43653">
        <ele>246.5</ele>
        <time>2020-01-19T09:20:11Z</time>
      </trkpt>
      <trkpt lat="43.45873" lon="6.43648">
        <ele>245.8</ele>
        <time>2020-01-19T09:20:22Z</time>
      </trkpt>
      <trkpt lat="43.45883" lon="6.43647">
        <ele>245.2</ele>
        <time>2020-01-19T09:20:30Z</time>
      </trkpt>
      <trkpt lat="43.45892" lon="6.43642">
        <ele>244.4</ele>
        <time>2020-01-19T09:20:40Z</time>
      </trkpt>
      <trkpt lat="43.45901" lon="6.43638">
        <ele>243.5</ele>
        <time>2020-01-19T09:20:50Z</time>
      </trkpt>
      <trkpt lat="43.4591" lon="6.43638">
        <ele>242.6</ele>
        <time>2020-01-19T09:21:02Z</time>
      </trkpt>
      <trkpt lat="43.45919" lon="6.43642">
        <ele>241.1</ele>
        <time>2020-01-19T09:21:16Z</time>
      </trkpt>
      <trkpt lat="43.45928" lon="6.43644">
        <ele>238.5</ele>
        <time>2020-01-19T09:22:20Z</time>
      </trkpt>
      <trkpt lat="43.45935" lon="6.43637">
        <ele>237.7</ele>
        <time>2020-01-19T09:23:10Z</time>
      </trkpt>
      <trkpt lat="43.45942" lon="6.43628">
        <ele>237.6</ele>
        <time>2020-01-19T09:23:22Z</time>
      </trkpt>
      <trkpt lat="43.45948" lon="6.43618">
        <ele>238</ele>
        <time>2020-01-19T09:23:35Z</time>
      </trkpt>
      <trkpt lat="43.45956" lon="6.43611">
        <ele>237.8</ele>
        <time>2020-01-19T09:23:46Z</time>
      </trkpt>
      <trkpt lat="43.45956" lon="6.43598">
        <ele>238.6</ele>
        <time>2020-01-19T09:23:56Z</time>
      </trkpt>
      <trkpt lat="43.4595" lon="6.43587">
        <ele>240</ele>
        <time>2020-01-19T09:24:09Z</time>
      </trkpt>
      <trkpt lat="43.45947" lon="6.43575">
        <ele>241.1</ele>
        <time>2020-01-19T09:24:20Z</time>
      </trkpt>
      <trkpt lat="43.45943" lon="6.43563">
        <ele>241.8</ele>
        <time>2020-01-19T09:24:30Z</time>
      </trkpt>
      <trkpt lat="43.45937" lon="6.43553">
        <ele>242.5</ele>
        <time>2020-01-19T09:24:39Z</time>
      </trkpt>
      <trkpt lat="43.45929" lon="6.43547">
        <ele>243</ele>
        <time>2020-01-19T09:24:49Z</time>
      </trkpt>
      <trkpt lat="43.45927" lon="6.43534">
        <ele>243.2</ele>
        <time>2020-01-19T09:24:59Z</time>
      </trkpt>
      <trkpt lat="43.45933" lon="6.43524">
        <ele>243.3</ele>
        <time>2020-01-19T09:25:11Z</time>
      </trkpt>
      <trkpt lat="43.45941" lon="6.43516">
        <ele>243.3</ele>
        <time>2020-01-19T09:25:21Z</time>
      </trkpt>
      <trkpt lat="43.45949" lon="6.43508">
        <ele>243.9</ele>
        <time>2020-01-19T09:25:31Z</time>
      </trkpt>
      <trkpt lat="43.45956" lon="6.435">
        <ele>244.5</ele>
        <time>2020-01-19T09:25:41Z</time>
      </trkpt>
      <trkpt lat="43.45964" lon="6.43492">
        <ele>244.8</ele>
        <time>2020-01-19T09:25:51Z</time>
      </trkpt>
      <trkpt lat="43.45972" lon="6.43485">
        <ele>245</ele>
        <time>2020-01-19T09:25:58Z</time>
      </trkpt>
      <trkpt lat="43.45977" lon="6.43475">
        <ele>245.3</ele>
        <time>2020-01-19T09:26:38Z</time>
      </trkpt>
      <trkpt lat="43.45984" lon="6.43467">
        <ele>245.2</ele>
        <time>2020-01-19T09:26:53Z</time>
      </trkpt>
      <trkpt lat="43.45992" lon="6.4346">
        <ele>245.3</ele>
        <time>2020-01-19T09:27:08Z</time>
      </trkpt>
      <trkpt lat="43.46001" lon="6.43455">
        <ele>245.3</ele>
        <time>2020-01-19T09:27:16Z</time>
      </trkpt>
      <trkpt lat="43.46008" lon="6.43446">
        <ele>245</ele>
        <time>2020-01-19T09:27:34Z</time>
      </trkpt>
      <trkpt lat="43.46015" lon="6.43437">
        <ele>244.9</ele>
        <time>2020-01-19T09:27:45Z</time>
      </trkpt>
      <trkpt lat="43.46022" lon="6.43429">
        <ele>244.8</ele>
        <time>2020-01-19T09:27:56Z</time>
      </trkpt>
      <trkpt lat="43.4603" lon="6.43424">
        <ele>244.3</ele>
        <time>2020-01-19T09:28:07Z</time>
      </trkpt>
      <trkpt lat="43.46038" lon="6.43417">
        <ele>244.1</ele>
        <time>2020-01-19T09:28:14Z</time>
      </trkpt>
      <trkpt lat="43.46046" lon="6.43412">
        <ele>243.3</ele>
        <time>2020-01-19T09:28:28Z</time>
      </trkpt>
      <trkpt lat="43.46056" lon="6.4341">
        <ele>242.6</ele>
        <time>2020-01-19T09:28:40Z</time>
      </trkpt>
      <trkpt lat="43.46065" lon="6.43408">
        <ele>242.1</ele>
        <time>2020-01-19T09:28:49Z</time>
      </trkpt>
      <trkpt lat="43.46074" lon="6.43403">
        <ele>241.8</ele>
        <time>2020-01-19T09:28:55Z</time>
      </trkpt>
      <trkpt lat="43.46081" lon="6.43395">
        <ele>240.4</ele>
        <time>2020-01-19T09:29:06Z</time>
      </trkpt>
      <trkpt lat="43.46089" lon="6.43389">
        <ele>239.5</ele>
        <time>2020-01-19T09:29:14Z</time>
      </trkpt>
      <trkpt lat="43.46098" lon="6.43385">
        <ele>238.4</ele>
        <time>2020-01-19T09:29:25Z</time>
      </trkpt>
      <trkpt lat="43.46106" lon="6.4338">
        <ele>236.8</ele>
        <time>2020-01-19T09:29:43Z</time>
      </trkpt>
      <trkpt lat="43.46115" lon="6.43377">
        <ele>235.3</ele>
        <time>2020-01-19T09:30:11Z</time>
      </trkpt>
      <trkpt lat="43.46125" lon="6.43377">
        <ele>234.9</ele>
        <time>2020-01-19T09:30:23Z</time>
      </trkpt>
      <trkpt lat="43.46134" lon="6.43375">
        <ele>234.6</ele>
        <time>2020-01-19T09:30:39Z</time>
      </trkpt>
      <trkpt lat="43.46144" lon="6.43375">
        <ele>234.4</ele>
        <time>2020-01-19T09:30:47Z</time>
      </trkpt>
      <trkpt lat="43.46153" lon="6.43371">
        <ele>234.1</ele>
        <time>2020-01-19T09:30:58Z</time>
      </trkpt>
      <trkpt lat="43.46161" lon="6.43366">
        <ele>233.6</ele>
        <time>2020-01-19T09:31:09Z</time>
      </trkpt>
      <trkpt lat="43.4617" lon="6.43361">
        <ele>233.1</ele>
        <time>2020-01-19T09:31:20Z</time>
      </trkpt>
      <trkpt lat="43.46178" lon="6.43351">
        <ele>232.3</ele>
        <time>2020-01-19T09:31:32Z</time>
      </trkpt>
      <trkpt lat="43.46186" lon="6.43344">
        <ele>231.8</ele>
        <time>2020-01-19T09:31:39Z</time>
      </trkpt>
      <trkpt lat="43.46194" lon="6.43338">
        <ele>231.2</ele>
        <time>2020-01-19T09:31:48Z</time>
      </trkpt>
      <trkpt lat="43.46199" lon="6.43327">
        <ele>230.5</ele>
        <time>2020-01-19T09:31:55Z</time>
      </trkpt>
      <trkpt lat="43.46202" lon="6.43314">
        <ele>229.9</ele>
        <time>2020-01-19T09:32:05Z</time>
      </trkpt>
      <trkpt lat="43.46199" lon="6.43302">
        <ele>229.6</ele>
        <time>2020-01-19T09:32:14Z</time>
      </trkpt>
      <trkpt lat="43.46198" lon="6.43315">
        <ele>228.9</ele>
        <time>2020-01-19T09:32:46Z</time>
      </trkpt>
      <trkpt lat="43.46202" lon="6.43303">
        <ele>228.7</ele>
        <time>2020-01-19T09:33:03Z</time>
      </trkpt>
      <trkpt lat="43.46208" lon="6.43294">
        <ele>228.6</ele>
        <time>2020-01-19T09:33:18Z</time>
      </trkpt>
      <trkpt lat="43.46212" lon="6.43282">
        <ele>228.7</ele>
        <time>2020-01-19T09:33:30Z</time>
      </trkpt>
      <trkpt lat="43.46214" lon="6.43269">
        <ele>228.7</ele>
        <time>2020-01-19T09:33:41Z</time>
      </trkpt>
      <trkpt lat="43.46215" lon="6.43256">
        <ele>228.5</ele>
        <time>2020-01-19T09:33:52Z</time>
      </trkpt>
      <trkpt lat="43.46219" lon="6.43244">
        <ele>228.4</ele>
        <time>2020-01-19T09:34:04Z</time>
      </trkpt>
      <trkpt lat="43.46222" lon="6.43233">
        <ele>228.1</ele>
        <time>2020-01-19T09:34:14Z</time>
      </trkpt>
      <trkpt lat="43.46232" lon="6.43234">
        <ele>227.6</ele>
        <time>2020-01-19T09:34:31Z</time>
      </trkpt>
      <trkpt lat="43.46241" lon="6.43235">
        <ele>227.5</ele>
        <time>2020-01-19T09:34:36Z</time>
      </trkpt>
      <trkpt lat="43.46251" lon="6.43234">
        <ele>227.3</ele>
        <time>2020-01-19T09:34:44Z</time>
      </trkpt>
      <trkpt lat="43.4626" lon="6.43229">
        <ele>227.1</ele>
        <time>2020-01-19T09:34:55Z</time>
      </trkpt>
      <trkpt lat="43.46267" lon="6.43219">
        <ele>226.7</ele>
        <time>2020-01-19T09:35:06Z</time>
      </trkpt>
      <trkpt lat="43.46271" lon="6.43208">
        <ele>226.5</ele>
        <time>2020-01-19T09:35:15Z</time>
      </trkpt>
      <trkpt lat="43.4628" lon="6.43201">
        <ele>226.4</ele>
        <time>2020-01-19T09:35:24Z</time>
      </trkpt>
      <trkpt lat="43.46286" lon="6.43192">
        <ele>226.4</ele>
        <time>2020-01-19T09:35:31Z</time>
      </trkpt>
      <trkpt lat="43.46284" lon="6.4318">
        <ele>226.2</ele>
        <time>2020-01-19T09:35:46Z</time>
      </trkpt>
      <trkpt lat="43.46291" lon="6.43171">
        <ele>225.8</ele>
        <time>2020-01-19T09:35:58Z</time>
      </trkpt>
      <trkpt lat="43.46297" lon="6.43162">
        <ele>225.3</ele>
        <time>2020-01-19T09:36:10Z</time>
      </trkpt>
      <trkpt lat="43.46303" lon="6.43151">
        <ele>225</ele>
        <time>2020-01-19T09:36:19Z</time>
      </trkpt>
      <trkpt lat="43.46309" lon="6.43141">
        <ele>224.9</ele>
        <time>2020-01-19T09:36:27Z</time>
      </trkpt>
      <trkpt lat="43.46313" lon="6.43129">
        <ele>224.6</ele>
        <time>2020-01-19T09:36:59Z</time>
      </trkpt>
      <trkpt lat="43.46322" lon="6.43124">
        <ele>224.2</ele>
        <time>2020-01-19T09:37:08Z</time>
      </trkpt>
      <trkpt lat="43.4633" lon="6.43117">
        <ele>223.5</ele>
        <time>2020-01-19T09:37:17Z</time>
      </trkpt>
      <trkpt lat="43.46338" lon="6.43111">
        <ele>222.9</ele>
        <time>2020-01-19T09:37:27Z</time>
      </trkpt>
      <trkpt lat="43.46348" lon="6.43105">
        <ele>222.6</ele>
        <time>2020-01-19T09:37:44Z</time>
      </trkpt>
      <trkpt lat="43.46358" lon="6.43102">
        <ele>222.7</ele>
        <time>2020-01-19T09:37:51Z</time>
      </trkpt>
      <trkpt lat="43.46367" lon="6.43097">
        <ele>222.9</ele>
        <time>2020-01-19T09:37:58Z</time>
      </trkpt>
      <trkpt lat="43.46376" lon="6.43093">
        <ele>223.3</ele>
        <time>2020-01-19T09:38:07Z</time>
      </trkpt>
      <trkpt lat="43.46385" lon="6.43087">
        <ele>223.7</ele>
        <time>2020-01-19T09:38:15Z</time>
      </trkpt>
      <trkpt lat="43.46394" lon="6.43081">
        <ele>223.9</ele>
        <time>2020-01-19T09:38:23Z</time>
      </trkpt>
      <trkpt lat="43.46402" lon="6.43074">
        <ele>224.2</ele>
        <time>2020-01-19T09:38:32Z</time>
      </trkpt>
      <trkpt lat="43.46409" lon="6.43065">
        <ele>224.2</ele>
        <time>2020-01-19T09:38:44Z</time>
      </trkpt>
      <trkpt lat="43.46417" lon="6.43058">
        <ele>224.4</ele>
        <time>2020-01-19T09:38:55Z</time>
      </trkpt>
      <trkpt lat="43.46425" lon="6.43055">
        <ele>224.5</ele>
        <time>2020-01-19T09:39:02Z</time>
      </trkpt>
      <trkpt lat="43.46433" lon="6.43048">
        <ele>224.3</ele>
        <time>2020-01-19T09:39:28Z</time>
      </trkpt>
      <trkpt lat="43.46442" lon="6.43047">
        <ele>223.9</ele>
        <time>2020-01-19T09:39:40Z</time>
      </trkpt>
      <trkpt lat="43.46452" lon="6.43048">
        <ele>223.3</ele>
        <time>2020-01-19T09:39:54Z</time>
      </trkpt>
      <trkpt lat="43.46462" lon="6.43053">
        <ele>223</ele>
        <time>2020-01-19T09:40:04Z</time>
      </trkpt>
      <trkpt lat="43.46471" lon="6.43057">
        <ele>222.8</ele>
        <time>2020-01-19T09:40:13Z</time>
      </trkpt>
      <trkpt lat="43.4648" lon="6.4306">
        <ele>222.6</ele>
        <time>2020-01-19T09:40:25Z</time>
      </trkpt>
      <trkpt lat="43.46487" lon="6.43051">
        <ele>222.3</ele>
        <time>2020-01-19T09:41:19Z</time>
      </trkpt>
      <trkpt lat="43.46497" lon="6.43057">
        <ele>222.2</ele>
        <time>2020-01-19T09:41:41Z</time>
      </trkpt>
      <trkpt lat="43.46507" lon="6.43056">
        <ele>222.2</ele>
        <time>2020-01-19T09:41:50Z</time>
      </trkpt>
      <trkpt lat="43.46517" lon="6.43057">
        <ele>222.2</ele>
        <time>2020-01-19T09:42:05Z</time>
      </trkpt>
      <trkpt lat="43.46526" lon="6.43056">
        <ele>222.3</ele>
        <time>2020-01-19T09:42:13Z</time>
      </trkpt>
      <trkpt lat="43.46535" lon="6.43052">
        <ele>222.3</ele>
        <time>2020-01-19T09:42:27Z</time>
      </trkpt>
      <trkpt lat="43.46545" lon="6.43053">
        <ele>222.4</ele>
        <time>2020-01-19T09:42:36Z</time>
      </trkpt>
      <trkpt lat="43.46554" lon="6.43053">
        <ele>222.7</ele>
        <time>2020-01-19T09:42:46Z</time>
      </trkpt>
      <trkpt lat="43.46564" lon="6.43052">
        <ele>222.9</ele>
        <time>2020-01-19T09:42:55Z</time>
      </trkpt>
      <trkpt lat="43.46574" lon="6.43052">
        <ele>223.3</ele>
        <time>2020-01-19T09:43:04Z</time>
      </trkpt>
      <trkpt lat="43.46583" lon="6.4305">
        <ele>223.5</ele>
        <time>2020-01-19T09:43:13Z</time>
      </trkpt>
      <trkpt lat="43.46592" lon="6.43054">
        <ele>223.9</ele>
        <time>2020-01-19T09:43:23Z</time>
      </trkpt>
      <trkpt lat="43.46601" lon="6.43054">
        <ele>224.2</ele>
        <time>2020-01-19T09:43:33Z</time>
      </trkpt>
      <trkpt lat="43.46611" lon="6.43055">
        <ele>224.5</ele>
        <time>2020-01-19T09:43:43Z</time>
      </trkpt>
      <trkpt lat="43.46621" lon="6.43053">
        <ele>224.6</ele>
        <time>2020-01-19T09:43:50Z</time>
      </trkpt>
      <trkpt lat="43.4663" lon="6.4305">
        <ele>224.5</ele>
        <time>2020-01-19T09:43:59Z</time>
      </trkpt>
      <trkpt lat="43.46639" lon="6.43048">
        <ele>224.3</ele>
        <time>2020-01-19T09:44:05Z</time>
      </trkpt>
      <trkpt lat="43.46649" lon="6.4305">
        <ele>224.3</ele>
        <time>2020-01-19T09:44:10Z</time>
      </trkpt>
      <trkpt lat="43.46659" lon="6.4305">
        <ele>224.2</ele>
        <time>2020-01-19T09:44:15Z</time>
      </trkpt>
      <trkpt lat="43.46665" lon="6.43059">
        <ele>223.6</ele>
        <time>2020-01-19T09:44:35Z</time>
      </trkpt>
      <trkpt lat="43.46669" lon="6.43046">
        <ele>222.7</ele>
        <time>2020-01-19T09:52:16Z</time>
      </trkpt>
      <trkpt lat="43.46673" lon="6.43034">
        <ele>222.5</ele>
        <time>2020-01-19T09:52:25Z</time>
      </trkpt>
      <trkpt lat="43.46679" lon="6.43025">
        <ele>222.4</ele>
        <time>2020-01-19T09:52:35Z</time>
      </trkpt>
      <trkpt lat="43.46688" lon="6.43026">
        <ele>222.3</ele>
        <time>2020-01-19T09:52:46Z</time>
      </trkpt>
      <trkpt lat="43.46698" lon="6.43028">
        <ele>222.1</ele>
        <time>2020-01-19T09:52:55Z</time>
      </trkpt>
      <trkpt lat="43.46707" lon="6.43027">
        <ele>222</ele>
        <time>2020-01-19T09:53:04Z</time>
      </trkpt>
      <trkpt lat="43.46716" lon="6.43026">
        <ele>221.9</ele>
        <time>2020-01-19T09:53:12Z</time>
      </trkpt>
      <trkpt lat="43.46726" lon="6.43025">
        <ele>221.8</ele>
        <time>2020-01-19T09:53:18Z</time>
      </trkpt>
      <trkpt lat="43.46735" lon="6.43026">
        <ele>221.7</ele>
        <time>2020-01-19T09:53:30Z</time>
      </trkpt>
      <trkpt lat="43.46745" lon="6.43026">
        <ele>221.7</ele>
        <time>2020-01-19T09:53:36Z</time>
      </trkpt>
      <trkpt lat="43.46755" lon="6.43027">
        <ele>221.8</ele>
        <time>2020-01-19T09:53:45Z</time>
      </trkpt>
      <trkpt lat="43.46764" lon="6.43028">
        <ele>221.9</ele>
        <time>2020-01-19T09:53:50Z</time>
      </trkpt>
      <trkpt lat="43.46773" lon="6.43029">
        <ele>222.1</ele>
        <time>2020-01-19T09:53:56Z</time>
      </trkpt>
      <trkpt lat="43.46781" lon="6.43033">
        <ele>222.4</ele>
        <time>2020-01-19T09:54:04Z</time>
      </trkpt>
      <trkpt lat="43.46788" lon="6.43041">
        <ele>223.2</ele>
        <time>2020-01-19T09:54:17Z</time>
      </trkpt>
      <trkpt lat="43.46796" lon="6.43048">
        <ele>223.6</ele>
        <time>2020-01-19T09:54:27Z</time>
      </trkpt>
      <trkpt lat="43.46805" lon="6.43048">
        <ele>224.2</ele>
        <time>2020-01-19T09:55:05Z</time>
      </trkpt>
      <trkpt lat="43.46814" lon="6.43053">
        <ele>224.5</ele>
        <time>2020-01-19T09:55:13Z</time>
      </trkpt>
      <trkpt lat="43.46823" lon="6.43054">
        <ele>225</ele>
        <time>2020-01-19T09:55:22Z</time>
      </trkpt>
      <trkpt lat="43.46832" lon="6.43055">
        <ele>225.6</ele>
        <time>2020-01-19T09:55:32Z</time>
      </trkpt>
      <trkpt lat="43.46842" lon="6.43055">
        <ele>226.3</ele>
        <time>2020-01-19T09:55:41Z</time>
      </trkpt>
      <trkpt lat="43.46852" lon="6.43054">
        <ele>227.3</ele>
        <time>2020-01-19T09:55:55Z</time>
      </trkpt>
      <trkpt lat="43.46861" lon="6.43056">
        <ele>227.6</ele>
        <time>2020-01-19T09:56:02Z</time>
      </trkpt>
      <trkpt lat="43.46871" lon="6.43057">
        <ele>227.9</ele>
        <time>2020-01-19T09:56:11Z</time>
      </trkpt>
      <trkpt lat="43.4688" lon="6.43057">
        <ele>228.1</ele>
        <time>2020-01-19T09:56:19Z</time>
      </trkpt>
      <trkpt lat="43.4689" lon="6.43058">
        <ele>228.5</ele>
        <time>2020-01-19T09:56:29Z</time>
      </trkpt>
      <trkpt lat="43.469" lon="6.4306">
        <ele>228.9</ele>
        <time>2020-01-19T09:56:42Z</time>
      </trkpt>
      <trkpt lat="43.46909" lon="6.43063">
        <ele>229.3</ele>
        <time>2020-01-19T09:56:50Z</time>
      </trkpt>
      <trkpt lat="43.46918" lon="6.43066">
        <ele>229.5</ele>
        <time>2020-01-19T09:56:57Z</time>
      </trkpt>
      <trkpt lat="43.46928" lon="6.4307">
        <ele>229.7</ele>
        <time>2020-01-19T09:57:04Z</time>
      </trkpt>
      <trkpt lat="43.46938" lon="6.43072">
        <ele>230.3</ele>
        <time>2020-01-19T09:57:13Z</time>
      </trkpt>
      <trkpt lat="43.46947" lon="6.43073">
        <ele>231</ele>
        <time>2020-01-19T09:57:24Z</time>
      </trkpt>
      <trkpt lat="43.46957" lon="6.43076">
        <ele>231.7</ele>
        <time>2020-01-19T09:57:36Z</time>
      </trkpt>
      <trkpt lat="43.46967" lon="6.43075">
        <ele>232.2</ele>
        <time>2020-01-19T09:57:43Z</time>
      </trkpt>
      <trkpt lat="43.46978" lon="6.43076">
        <ele>232.7</ele>
        <time>2020-01-19T09:57:52Z</time>
      </trkpt>
      <trkpt lat="43.46987" lon="6.43076">
        <ele>233.1</ele>
        <time>2020-01-19T09:57:59Z</time>
      </trkpt>
      <trkpt lat="43.46996" lon="6.43076">
        <ele>233.7</ele>
        <time>2020-01-19T09:58:08Z</time>
      </trkpt>
      <trkpt lat="43.47006" lon="6.43075">
        <ele>234.5</ele>
        <time>2020-01-19T09:58:17Z</time>
      </trkpt>
      <trkpt lat="43.47015" lon="6.43076">
        <ele>235.5</ele>
        <time>2020-01-19T09:58:24Z</time>
      </trkpt>
      <trkpt lat="43.47024" lon="6.43077">
        <ele>236.1</ele>
        <time>2020-01-19T09:58:33Z</time>
      </trkpt>
      <trkpt lat="43.47034" lon="6.43078">
        <ele>236.5</ele>
        <time>2020-01-19T09:58:42Z</time>
      </trkpt>
      <trkpt lat="43.47044" lon="6.43078">
        <ele>236.8</ele>
        <time>2020-01-19T09:58:50Z</time>
      </trkpt>
      <trkpt lat="43.47053" lon="6.43076">
        <ele>237.3</ele>
        <time>2020-01-19T09:58:58Z</time>
      </trkpt>
      <trkpt lat="43.47063" lon="6.43074">
        <ele>237.8</ele>
        <time>2020-01-19T09:59:07Z</time>
      </trkpt>
      <trkpt lat="43.47072" lon="6.43069">
        <ele>238.7</ele>
        <time>2020-01-19T09:59:26Z</time>
      </trkpt>
      <trkpt lat="43.47082" lon="6.43066">
        <ele>239.3</ele>
        <time>2020-01-19T09:59:39Z</time>
      </trkpt>
      <trkpt lat="43.47091" lon="6.43062">
        <ele>239.5</ele>
        <time>2020-01-19T09:59:50Z</time>
      </trkpt>
      <trkpt lat="43.471" lon="6.43059">
        <ele>239.9</ele>
        <time>2020-01-19T09:59:58Z</time>
      </trkpt>
      <trkpt lat="43.47108" lon="6.43054">
        <ele>240.4</ele>
        <time>2020-01-19T10:00:06Z</time>
      </trkpt>
      <trkpt lat="43.47117" lon="6.43051">
        <ele>240.7</ele>
        <time>2020-01-19T10:00:17Z</time>
      </trkpt>
      <trkpt lat="43.47126" lon="6.43051">
        <ele>240.9</ele>
        <time>2020-01-19T10:00:25Z</time>
      </trkpt>
      <trkpt lat="43.47135" lon="6.43053">
        <ele>241.2</ele>
        <time>2020-01-19T10:00:32Z</time>
      </trkpt>
      <trkpt lat="43.47145" lon="6.43052">
        <ele>241.5</ele>
        <time>2020-01-19T10:00:38Z</time>
      </trkpt>
      <trkpt lat="43.47154" lon="6.43047">
        <ele>242.1</ele>
        <time>2020-01-19T10:00:47Z</time>
      </trkpt>
      <trkpt lat="43.47163" lon="6.4304">
        <ele>243.2</ele>
        <time>2020-01-19T10:00:57Z</time>
      </trkpt>
      <trkpt lat="43.47169" lon="6.43031">
        <ele>244.3</ele>
        <time>2020-01-19T10:01:10Z</time>
      </trkpt>
      <trkpt lat="43.47171" lon="6.43018">
        <ele>245.8</ele>
        <time>2020-01-19T10:01:21Z</time>
      </trkpt>
      <trkpt lat="43.47173" lon="6.43006">
        <ele>247</ele>
        <time>2020-01-19T10:01:33Z</time>
      </trkpt>
      <trkpt lat="43.47182" lon="6.43003">
        <ele>250.2</ele>
        <time>2020-01-19T10:02:35Z</time>
      </trkpt>
      <trkpt lat="43.47191" lon="6.43005">
        <ele>250.7</ele>
        <time>2020-01-19T10:03:37Z</time>
      </trkpt>
      <trkpt lat="43.47197" lon="6.42995">
        <ele>251.3</ele>
        <time>2020-01-19T10:03:49Z</time>
      </trkpt>
      <trkpt lat="43.47206" lon="6.42989">
        <ele>253</ele>
        <time>2020-01-19T10:04:06Z</time>
      </trkpt>
      <trkpt lat="43.47215" lon="6.42984">
        <ele>254</ele>
        <time>2020-01-19T10:04:17Z</time>
      </trkpt>
      <trkpt lat="43.47224" lon="6.42981">
        <ele>254.8</ele>
        <time>2020-01-19T10:04:27Z</time>
      </trkpt>
      <trkpt lat="43.47233" lon="6.42984">
        <ele>255.9</ele>
        <time>2020-01-19T10:04:43Z</time>
      </trkpt>
      <trkpt lat="43.47242" lon="6.42985">
        <ele>256.3</ele>
        <time>2020-01-19T10:04:50Z</time>
      </trkpt>
      <trkpt lat="43.47252" lon="6.42987">
        <ele>256.8</ele>
        <time>2020-01-19T10:05:00Z</time>
      </trkpt>
      <trkpt lat="43.47262" lon="6.42986">
        <ele>257.4</ele>
        <time>2020-01-19T10:05:13Z</time>
      </trkpt>
      <trkpt lat="43.47272" lon="6.42988">
        <ele>257.6</ele>
        <time>2020-01-19T10:05:24Z</time>
      </trkpt>
      <trkpt lat="43.47281" lon="6.42988">
        <ele>257.7</ele>
        <time>2020-01-19T10:05:31Z</time>
      </trkpt>
      <trkpt lat="43.47291" lon="6.42991">
        <ele>257.8</ele>
        <time>2020-01-19T10:05:39Z</time>
      </trkpt>
      <trkpt lat="43.473" lon="6.42995">
        <ele>258.3</ele>
        <time>2020-01-19T10:05:52Z</time>
      </trkpt>
      <trkpt lat="43.47309" lon="6.42994">
        <ele>258.8</ele>
        <time>2020-01-19T10:06:00Z</time>
      </trkpt>
      <trkpt lat="43.47318" lon="6.42995">
        <ele>259.2</ele>
        <time>2020-01-19T10:06:07Z</time>
      </trkpt>
      <trkpt lat="43.47328" lon="6.42997">
        <ele>259.8</ele>
        <time>2020-01-19T10:06:25Z</time>
      </trkpt>
      <trkpt lat="43.47335" lon="6.43005">
        <ele>260</ele>
        <time>2020-01-19T10:06:40Z</time>
      </trkpt>
      <trkpt lat="43.47339" lon="6.43016">
        <ele>259.6</ele>
        <time>2020-01-19T10:06:59Z</time>
      </trkpt>
      <trkpt lat="43.47336" lon="6.43029">
        <ele>258.4</ele>
        <time>2020-01-19T10:07:13Z</time>
      </trkpt>
      <trkpt lat="43.4733" lon="6.43039">
        <ele>257.5</ele>
        <time>2020-01-19T10:07:25Z</time>
      </trkpt>
      <trkpt lat="43.47339" lon="6.43042">
        <ele>255.3</ele>
        <time>2020-01-19T10:07:56Z</time>
      </trkpt>
      <trkpt lat="43.47334" lon="6.43054">
        <ele>254.4</ele>
        <time>2020-01-19T10:08:14Z</time>
      </trkpt>
      <trkpt lat="43.4733" lon="6.43065">
        <ele>253.8</ele>
        <time>2020-01-19T10:08:21Z</time>
      </trkpt>
      <trkpt lat="43.47327" lon="6.43078">
        <ele>253</ele>
        <time>2020-01-19T10:08:31Z</time>
      </trkpt>
      <trkpt lat="43.47329" lon="6.4309">
        <ele>251.2</ele>
        <time>2020-01-19T10:08:45Z</time>
      </trkpt>
      <trkpt lat="43.47327" lon="6.43103">
        <ele>249.9</ele>
        <time>2020-01-19T10:08:57Z</time>
      </trkpt>
      <trkpt lat="43.47318" lon="6.43109">
        <ele>248.9</ele>
        <time>2020-01-19T10:09:08Z</time>
      </trkpt>
      <trkpt lat="43.47308" lon="6.43109">
        <ele>247.2</ele>
        <time>2020-01-19T10:10:19Z</time>
      </trkpt>
      <trkpt lat="43.47299" lon="6.43108">
        <ele>246.5</ele>
        <time>2020-01-19T10:10:28Z</time>
      </trkpt>
      <trkpt lat="43.4729" lon="6.43109">
        <ele>245.7</ele>
        <time>2020-01-19T10:10:36Z</time>
      </trkpt>
      <trkpt lat="43.47281" lon="6.43108">
        <ele>244.4</ele>
        <time>2020-01-19T10:10:45Z</time>
      </trkpt>
      <trkpt lat="43.47276" lon="6.43119">
        <ele>243.1</ele>
        <time>2020-01-19T10:10:53Z</time>
      </trkpt>
      <trkpt lat="43.47275" lon="6.43132">
        <ele>242</ele>
        <time>2020-01-19T10:10:59Z</time>
      </trkpt>
      <trkpt lat="43.47276" lon="6.43145">
        <ele>240.5</ele>
        <time>2020-01-19T10:11:08Z</time>
      </trkpt>
      <trkpt lat="43.47276" lon="6.43158">
        <ele>239.2</ele>
        <time>2020-01-19T10:11:17Z</time>
      </trkpt>
      <trkpt lat="43.47277" lon="6.43171">
        <ele>238.3</ele>
        <time>2020-01-19T10:11:24Z</time>
      </trkpt>
      <trkpt lat="43.47287" lon="6.43172">
        <ele>237.9</ele>
        <time>2020-01-19T10:11:30Z</time>
      </trkpt>
      <trkpt lat="43.47297" lon="6.43174">
        <ele>237.6</ele>
        <time>2020-01-19T10:11:38Z</time>
      </trkpt>
      <trkpt lat="43.47303" lon="6.43184">
        <ele>237.6</ele>
        <time>2020-01-19T10:11:45Z</time>
      </trkpt>
      <trkpt lat="43.47307" lon="6.43196">
        <ele>237.1</ele>
        <time>2020-01-19T10:12:18Z</time>
      </trkpt>
      <trkpt lat="43.47316" lon="6.43203">
        <ele>236.7</ele>
        <time>2020-01-19T10:12:28Z</time>
      </trkpt>
      <trkpt lat="43.47325" lon="6.43204">
        <ele>236.5</ele>
        <time>2020-01-19T10:12:38Z</time>
      </trkpt>
      <trkpt lat="43.47335" lon="6.43202">
        <ele>236.5</ele>
        <time>2020-01-19T10:12:46Z</time>
      </trkpt>
      <trkpt lat="43.47345" lon="6.43201">
        <ele>236.9</ele>
        <time>2020-01-19T10:12:53Z</time>
      </trkpt>
      <trkpt lat="43.47355" lon="6.432">
        <ele>237</ele>
        <time>2020-01-19T10:13:02Z</time>
      </trkpt>
      <trkpt lat="43.47364" lon="6.43195">
        <ele>237.1</ele>
        <time>2020-01-19T10:13:10Z</time>
      </trkpt>
      <trkpt lat="43.47373" lon="6.4319">
        <ele>237.1</ele>
        <time>2020-01-19T10:13:19Z</time>
      </trkpt>
      <trkpt lat="43.47383" lon="6.43189">
        <ele>236.3</ele>
        <time>2020-01-19T10:13:28Z</time>
      </trkpt>
      <trkpt lat="43.47393" lon="6.43188">
        <ele>235.3</ele>
        <time>2020-01-19T10:13:38Z</time>
      </trkpt>
      <trkpt lat="43.47402" lon="6.4319">
        <ele>234.2</ele>
        <time>2020-01-19T10:13:47Z</time>
      </trkpt>
      <trkpt lat="43.47412" lon="6.43194">
        <ele>233.4</ele>
        <time>2020-01-19T10:13:55Z</time>
      </trkpt>
      <trkpt lat="43.47421" lon="6.43197">
        <ele>233</ele>
        <time>2020-01-19T10:14:03Z</time>
      </trkpt>
      <trkpt lat="43.4743" lon="6.43201">
        <ele>232.8</ele>
        <time>2020-01-19T10:14:11Z</time>
      </trkpt>
      <trkpt lat="43.47437" lon="6.43208">
        <ele>232.2</ele>
        <time>2020-01-19T10:14:22Z</time>
      </trkpt>
      <trkpt lat="43.47445" lon="6.43215">
        <ele>231.3</ele>
        <time>2020-01-19T10:14:34Z</time>
      </trkpt>
      <trkpt lat="43.47453" lon="6.43221">
        <ele>230.9</ele>
        <time>2020-01-19T10:14:44Z</time>
      </trkpt>
      <trkpt lat="43.47462" lon="6.43222">
        <ele>230.7</ele>
        <time>2020-01-19T10:14:49Z</time>
      </trkpt>
      <trkpt lat="43.47472" lon="6.43224">
        <ele>230.2</ele>
        <time>2020-01-19T10:14:59Z</time>
      </trkpt>
      <trkpt lat="43.47481" lon="6.43223">
        <ele>230</ele>
        <time>2020-01-19T10:15:06Z</time>
      </trkpt>
      <trkpt lat="43.47492" lon="6.43226">
        <ele>229.7</ele>
        <time>2020-01-19T10:15:15Z</time>
      </trkpt>
      <trkpt lat="43.475" lon="6.4323">
        <ele>229.1</ele>
        <time>2020-01-19T10:15:28Z</time>
      </trkpt>
      <trkpt lat="43.4751" lon="6.43232">
        <ele>228.7</ele>
        <time>2020-01-19T10:15:37Z</time>
      </trkpt>
      <trkpt lat="43.4752" lon="6.43232">
        <ele>228.4</ele>
        <time>2020-01-19T10:15:47Z</time>
      </trkpt>
      <trkpt lat="43.47528" lon="6.4324">
        <ele>227.9</ele>
        <time>2020-01-19T10:16:06Z</time>
      </trkpt>
      <trkpt lat="43.47537" lon="6.43247">
        <ele>227.5</ele>
        <time>2020-01-19T10:16:13Z</time>
      </trkpt>
      <trkpt lat="43.47541" lon="6.43258">
        <ele>227.1</ele>
        <time>2020-01-19T10:16:23Z</time>
      </trkpt>
      <trkpt lat="43.47545" lon="6.43271">
        <ele>226.6</ele>
        <time>2020-01-19T10:16:36Z</time>
      </trkpt>
      <trkpt lat="43.47544" lon="6.43284">
        <ele>226.1</ele>
        <time>2020-01-19T10:16:45Z</time>
      </trkpt>
      <trkpt lat="43.47545" lon="6.43297">
        <ele>225.5</ele>
        <time>2020-01-19T10:16:56Z</time>
      </trkpt>
      <trkpt lat="43.47548" lon="6.4331">
        <ele>225.2</ele>
        <time>2020-01-19T10:17:05Z</time>
      </trkpt>
      <trkpt lat="43.47549" lon="6.43325">
        <ele>225</ele>
        <time>2020-01-19T10:17:13Z</time>
      </trkpt>
      <trkpt lat="43.47552" lon="6.43337">
        <ele>224.5</ele>
        <time>2020-01-19T10:17:22Z</time>
      </trkpt>
      <trkpt lat="43.47554" lon="6.4335">
        <ele>224.3</ele>
        <time>2020-01-19T10:17:30Z</time>
      </trkpt>
      <trkpt lat="43.47555" lon="6.43363">
        <ele>224</ele>
        <time>2020-01-19T10:17:39Z</time>
      </trkpt>
      <trkpt lat="43.47549" lon="6.43372">
        <ele>223.5</ele>
        <time>2020-01-19T10:17:53Z</time>
      </trkpt>
      <trkpt lat="43.47539" lon="6.4337">
        <ele>223.4</ele>
        <time>2020-01-19T10:18:01Z</time>
      </trkpt>
      <trkpt lat="43.4753" lon="6.43368">
        <ele>223.3</ele>
        <time>2020-01-19T10:18:07Z</time>
      </trkpt>
      <trkpt lat="43.47519" lon="6.43366">
        <ele>223.3</ele>
        <time>2020-01-19T10:18:15Z</time>
      </trkpt>
      <trkpt lat="43.4751" lon="6.43368">
        <ele>223.3</ele>
        <time>2020-01-19T10:18:23Z</time>
      </trkpt>
      <trkpt lat="43.47502" lon="6.43376">
        <ele>223.4</ele>
        <time>2020-01-19T10:18:32Z</time>
      </trkpt>
      <trkpt lat="43.47493" lon="6.43374">
        <ele>223.5</ele>
        <time>2020-01-19T10:18:40Z</time>
      </trkpt>
      <trkpt lat="43.47484" lon="6.43376">
        <ele>223.2</ele>
        <time>2020-01-19T10:18:47Z</time>
      </trkpt>
      <trkpt lat="43.47473" lon="6.43378">
        <ele>222.9</ele>
        <time>2020-01-19T10:18:59Z</time>
      </trkpt>
      <trkpt lat="43.47464" lon="6.43381">
        <ele>222.8</ele>
        <time>2020-01-19T10:19:05Z</time>
      </trkpt>
      <trkpt lat="43.47455" lon="6.43383">
        <ele>222.7</ele>
        <time>2020-01-19T10:19:13Z</time>
      </trkpt>
      <trkpt lat="43.47445" lon="6.43383">
        <ele>221.8</ele>
        <time>2020-01-19T10:19:24Z</time>
      </trkpt>
      <trkpt lat="43.47437" lon="6.43388">
        <ele>221.6</ele>
        <time>2020-01-19T10:19:29Z</time>
      </trkpt>
      <trkpt lat="43.47427" lon="6.43394">
        <ele>221.2</ele>
        <time>2020-01-19T10:19:38Z</time>
      </trkpt>
      <trkpt lat="43.47416" lon="6.43395">
        <ele>220.4</ele>
        <time>2020-01-19T10:19:50Z</time>
      </trkpt>
      <trkpt lat="43.47406" lon="6.43396">
        <ele>219.6</ele>
        <time>2020-01-19T10:19:56Z</time>
      </trkpt>
      <trkpt lat="43.47398" lon="6.434">
        <ele>218.6</ele>
        <time>2020-01-19T10:20:03Z</time>
      </trkpt>
      <trkpt lat="43.47391" lon="6.43409">
        <ele>217.5</ele>
        <time>2020-01-19T10:20:13Z</time>
      </trkpt>
      <trkpt lat="43.47384" lon="6.43417">
        <ele>217</ele>
        <time>2020-01-19T10:20:23Z</time>
      </trkpt>
      <trkpt lat="43.47375" lon="6.43423">
        <ele>216.3</ele>
        <time>2020-01-19T10:20:32Z</time>
      </trkpt>
      <trkpt lat="43.47366" lon="6.43426">
        <ele>215.6</ele>
        <time>2020-01-19T10:20:40Z</time>
      </trkpt>
      <trkpt lat="43.47357" lon="6.43427">
        <ele>214.9</ele>
        <time>2020-01-19T10:20:48Z</time>
      </trkpt>
      <trkpt lat="43.47348" lon="6.43431">
        <ele>214.1</ele>
        <time>2020-01-19T10:20:58Z</time>
      </trkpt>
      <trkpt lat="43.47339" lon="6.43437">
        <ele>213.1</ele>
        <time>2020-01-19T10:21:08Z</time>
      </trkpt>
      <trkpt lat="43.4733" lon="6.43442">
        <ele>212.6</ele>
        <time>2020-01-19T10:21:15Z</time>
      </trkpt>
      <trkpt lat="43.47321" lon="6.43447">
        <ele>212.3</ele>
        <time>2020-01-19T10:21:22Z</time>
      </trkpt>
      <trkpt lat="43.47313" lon="6.43453">
        <ele>212.1</ele>
        <time>2020-01-19T10:21:29Z</time>
      </trkpt>
      <trkpt lat="43.47305" lon="6.4346">
        <ele>211.7</ele>
        <time>2020-01-19T10:21:38Z</time>
      </trkpt>
      <trkpt lat="43.47296" lon="6.43462">
        <ele>211.1</ele>
        <time>2020-01-19T10:21:47Z</time>
      </trkpt>
      <trkpt lat="43.47287" lon="6.43464">
        <ele>210.7</ele>
        <time>2020-01-19T10:21:54Z</time>
      </trkpt>
      <trkpt lat="43.47277" lon="6.43466">
        <ele>210.3</ele>
        <time>2020-01-19T10:22:01Z</time>
      </trkpt>
      <trkpt lat="43.4727" lon="6.43475">
        <ele>209.5</ele>
        <time>2020-01-19T10:22:11Z</time>
      </trkpt>
      <trkpt lat="43.47264" lon="6.43485">
        <ele>209.1</ele>
        <time>2020-01-19T10:22:19Z</time>
      </trkpt>
      <trkpt lat="43.47258" lon="6.43495">
        <ele>209</ele>
        <time>2020-01-19T10:22:26Z</time>
      </trkpt>
      <trkpt lat="43.47253" lon="6.43506">
        <ele>208.7</ele>
        <time>2020-01-19T10:22:36Z</time>
      </trkpt>
      <trkpt lat="43.47248" lon="6.43517">
        <ele>208.7</ele>
        <time>2020-01-19T10:22:44Z</time>
      </trkpt>
      <trkpt lat="43.47246" lon="6.43529">
        <ele>209.1</ele>
        <time>2020-01-19T10:22:53Z</time>
      </trkpt>
      <trkpt lat="43.47244" lon="6.43542">
        <ele>209.3</ele>
        <time>2020-01-19T10:23:01Z</time>
      </trkpt>
      <trkpt lat="43.4724" lon="6.43556">
        <ele>209.5</ele>
        <time>2020-01-19T10:23:09Z</time>
      </trkpt>
      <trkpt lat="43.47241" lon="6.43568">
        <ele>209.9</ele>
        <time>2020-01-19T10:23:17Z</time>
      </trkpt>
      <trkpt lat="43.47241" lon="6.43581">
        <ele>210.5</ele>
        <time>2020-01-19T10:23:26Z</time>
      </trkpt>
      <trkpt lat="43.47241" lon="6.43594">
        <ele>211.2</ele>
        <time>2020-01-19T10:23:36Z</time>
      </trkpt>
      <trkpt lat="43.47242" lon="6.43607">
        <ele>212</ele>
        <time>2020-01-19T10:23:46Z</time>
      </trkpt>
      <trkpt lat="43.47243" lon="6.4362">
        <ele>212.5</ele>
        <time>2020-01-19T10:23:55Z</time>
      </trkpt>
      <trkpt lat="43.47239" lon="6.43632">
        <ele>213.2</ele>
        <time>2020-01-19T10:24:05Z</time>
      </trkpt>
      <trkpt lat="43.47239" lon="6.43645">
        <ele>213.7</ele>
        <time>2020-01-19T10:24:14Z</time>
      </trkpt>
      <trkpt lat="43.47239" lon="6.43658">
        <ele>213.9</ele>
        <time>2020-01-19T10:24:23Z</time>
      </trkpt>
      <trkpt lat="43.4724" lon="6.43672">
        <ele>214.1</ele>
        <time>2020-01-19T10:24:31Z</time>
      </trkpt>
      <trkpt lat="43.47237" lon="6.43684">
        <ele>214.1</ele>
        <time>2020-01-19T10:24:40Z</time>
      </trkpt>
      <trkpt lat="43.47235" lon="6.43698">
        <ele>213.5</ele>
        <time>2020-01-19T10:24:48Z</time>
      </trkpt>
      <trkpt lat="43.47235" lon="6.43712">
        <ele>212.9</ele>
        <time>2020-01-19T10:24:58Z</time>
      </trkpt>
      <trkpt lat="43.47235" lon="6.43725">
        <ele>212.7</ele>
        <time>2020-01-19T10:25:07Z</time>
      </trkpt>
      <trkpt lat="43.47235" lon="6.43737">
        <ele>212.1</ele>
        <time>2020-01-19T10:25:16Z</time>
      </trkpt>
      <trkpt lat="43.47233" lon="6.4375">
        <ele>211.5</ele>
        <time>2020-01-19T10:25:25Z</time>
      </trkpt>
      <trkpt lat="43.47235" lon="6.43762">
        <ele>210.9</ele>
        <time>2020-01-19T10:25:32Z</time>
      </trkpt>
      <trkpt lat="43.47236" lon="6.43776">
        <ele>209.9</ele>
        <time>2020-01-19T10:25:40Z</time>
      </trkpt>
      <trkpt lat="43.47235" lon="6.43789">
        <ele>209.4</ele>
        <time>2020-01-19T10:25:45Z</time>
      </trkpt>
      <trkpt lat="43.47236" lon="6.43801">
        <ele>208.6</ele>
        <time>2020-01-19T10:25:53Z</time>
      </trkpt>
      <trkpt lat="43.47234" lon="6.43813">
        <ele>208.2</ele>
        <time>2020-01-19T10:26:00Z</time>
      </trkpt>
      <trkpt lat="43.47233" lon="6.43827">
        <ele>207.8</ele>
        <time>2020-01-19T10:26:09Z</time>
      </trkpt>
      <trkpt lat="43.47237" lon="6.43839">
        <ele>207.4</ele>
        <time>2020-01-19T10:26:36Z</time>
      </trkpt>
      <trkpt lat="43.4723" lon="6.43847">
        <ele>207.6</ele>
        <time>2020-01-19T10:26:46Z</time>
      </trkpt>
      <trkpt lat="43.47221" lon="6.43848">
        <ele>207.1</ele>
        <time>2020-01-19T10:27:05Z</time>
      </trkpt>
      <trkpt lat="43.47212" lon="6.43844">
        <ele>206.4</ele>
        <time>2020-01-19T10:27:33Z</time>
      </trkpt>
      <trkpt lat="43.47203" lon="6.43849">
        <ele>204.1</ele>
        <time>2020-01-19T10:27:54Z</time>
      </trkpt>
      <trkpt lat="43.47194" lon="6.43848">
        <ele>203</ele>
        <time>2020-01-19T10:28:02Z</time>
      </trkpt>
      <trkpt lat="43.47184" lon="6.43847">
        <ele>201.8</ele>
        <time>2020-01-19T10:28:10Z</time>
      </trkpt>
      <trkpt lat="43.47175" lon="6.43845">
        <ele>200.6</ele>
        <time>2020-01-19T10:28:18Z</time>
      </trkpt>
      <trkpt lat="43.47165" lon="6.43845">
        <ele>199.5</ele>
        <time>2020-01-19T10:28:27Z</time>
      </trkpt>
      <trkpt lat="43.47156" lon="6.43845">
        <ele>198.4</ele>
        <time>2020-01-19T10:28:36Z</time>
      </trkpt>
      <trkpt lat="43.47146" lon="6.43844">
        <ele>197.4</ele>
        <time>2020-01-19T10:28:45Z</time>
      </trkpt>
      <trkpt lat="43.47137" lon="6.43843">
        <ele>196.4</ele>
        <time>2020-01-19T10:28:54Z</time>
      </trkpt>
      <trkpt lat="43.47127" lon="6.43843">
        <ele>195.8</ele>
        <time>2020-01-19T10:29:03Z</time>
      </trkpt>
      <trkpt lat="43.47118" lon="6.43841">
        <ele>195.2</ele>
        <time>2020-01-19T10:29:10Z</time>
      </trkpt>
      <trkpt lat="43.47108" lon="6.43841">
        <ele>194.7</ele>
        <time>2020-01-19T10:29:17Z</time>
      </trkpt>
      <trkpt lat="43.47099" lon="6.43839">
        <ele>194.1</ele>
        <time>2020-01-19T10:29:25Z</time>
      </trkpt>
      <trkpt lat="43.4709" lon="6.43842">
        <ele>193.3</ele>
        <time>2020-01-19T10:29:33Z</time>
      </trkpt>
      <trkpt lat="43.47084" lon="6.43852">
        <ele>192.4</ele>
        <time>2020-01-19T10:29:41Z</time>
      </trkpt>
      <trkpt lat="43.47082" lon="6.43866">
        <ele>191.6</ele>
        <time>2020-01-19T10:29:50Z</time>
      </trkpt>
      <trkpt lat="43.4708" lon="6.43879">
        <ele>190.8</ele>
        <time>2020-01-19T10:30:00Z</time>
      </trkpt>
      <trkpt lat="43.47073" lon="6.43887">
        <ele>190</ele>
        <time>2020-01-19T10:30:11Z</time>
      </trkpt>
      <trkpt lat="43.47063" lon="6.43885">
        <ele>188.9</ele>
        <time>2020-01-19T10:30:22Z</time>
      </trkpt>
      <trkpt lat="43.47054" lon="6.43889">
        <ele>188.1</ele>
        <time>2020-01-19T10:30:31Z</time>
      </trkpt>
      <trkpt lat="43.47049" lon="6.43902">
        <ele>187.7</ele>
        <time>2020-01-19T10:30:38Z</time>
      </trkpt>
      <trkpt lat="43.47048" lon="6.43915">
        <ele>187.4</ele>
        <time>2020-01-19T10:30:46Z</time>
      </trkpt>
      <trkpt lat="43.47048" lon="6.43927">
        <ele>187.2</ele>
        <time>2020-01-19T10:30:54Z</time>
      </trkpt>
      <trkpt lat="43.47048" lon="6.4394">
        <ele>186.9</ele>
        <time>2020-01-19T10:31:04Z</time>
      </trkpt>
      <trkpt lat="43.47047" lon="6.43953">
        <ele>186.9</ele>
        <time>2020-01-19T10:31:12Z</time>
      </trkpt>
      <trkpt lat="43.47046" lon="6.43965">
        <ele>187</ele>
        <time>2020-01-19T10:31:20Z</time>
      </trkpt>
      <trkpt lat="43.47043" lon="6.43978">
        <ele>186.7</ele>
        <time>2020-01-19T10:31:47Z</time>
      </trkpt>
      <trkpt lat="43.47044" lon="6.43992">
        <ele>186.6</ele>
        <time>2020-01-19T10:31:55Z</time>
      </trkpt>
      <trkpt lat="43.47045" lon="6.44006">
        <ele>186.6</ele>
        <time>2020-01-19T10:32:02Z</time>
      </trkpt>
      <trkpt lat="43.47043" lon="6.44018">
        <ele>186.9</ele>
        <time>2020-01-19T10:32:09Z</time>
      </trkpt>
      <trkpt lat="43.4704" lon="6.4403">
        <ele>186.7</ele>
        <time>2020-01-19T10:32:15Z</time>
      </trkpt>
      <trkpt lat="43.47036" lon="6.44041">
        <ele>186.4</ele>
        <time>2020-01-19T10:32:24Z</time>
      </trkpt>
      <trkpt lat="43.47034" lon="6.44054">
        <ele>186.4</ele>
        <time>2020-01-19T10:32:31Z</time>
      </trkpt>
      <trkpt lat="43.4703" lon="6.44065">
        <ele>186.3</ele>
        <time>2020-01-19T10:32:42Z</time>
      </trkpt>
      <trkpt lat="43.47025" lon="6.44076">
        <ele>185.9</ele>
        <time>2020-01-19T10:33:16Z</time>
      </trkpt>
      <trkpt lat="43.47017" lon="6.44084">
        <ele>185.8</ele>
        <time>2020-01-19T10:33:25Z</time>
      </trkpt>
      <trkpt lat="43.47009" lon="6.44093">
        <ele>185.7</ele>
        <time>2020-01-19T10:33:35Z</time>
      </trkpt>
      <trkpt lat="43.47" lon="6.44098">
        <ele>185.3</ele>
        <time>2020-01-19T10:33:41Z</time>
      </trkpt>
      <trkpt lat="43.46993" lon="6.44109">
        <ele>185</ele>
        <time>2020-01-19T10:33:51Z</time>
      </trkpt>
      <trkpt lat="43.46985" lon="6.44116">
        <ele>185</ele>
        <time>2020-01-19T10:33:58Z</time>
      </trkpt>
      <trkpt lat="43.46977" lon="6.44122">
        <ele>185.1</ele>
        <time>2020-01-19T10:34:06Z</time>
      </trkpt>
      <trkpt lat="43.46967" lon="6.44125">
        <ele>185</ele>
        <time>2020-01-19T10:34:12Z</time>
      </trkpt>
      <trkpt lat="43.46956" lon="6.44124">
        <ele>185</ele>
        <time>2020-01-19T10:34:22Z</time>
      </trkpt>
      <trkpt lat="43.46947" lon="6.44121">
        <ele>184.9</ele>
        <time>2020-01-19T10:34:27Z</time>
      </trkpt>
      <trkpt lat="43.46938" lon="6.44117">
        <ele>184.6</ele>
        <time>2020-01-19T10:34:37Z</time>
      </trkpt>
      <trkpt lat="43.46929" lon="6.44113">
        <ele>184.3</ele>
        <time>2020-01-19T10:34:45Z</time>
      </trkpt>
      <trkpt lat="43.46921" lon="6.44107">
        <ele>184</ele>
        <time>2020-01-19T10:34:53Z</time>
      </trkpt>
      <trkpt lat="43.46911" lon="6.44102">
        <ele>183.7</ele>
        <time>2020-01-19T10:35:01Z</time>
      </trkpt>
      <trkpt lat="43.46903" lon="6.44098">
        <ele>183.6</ele>
        <time>2020-01-19T10:35:06Z</time>
      </trkpt>
      <trkpt lat="43.46894" lon="6.44093">
        <ele>183.2</ele>
        <time>2020-01-19T10:35:14Z</time>
      </trkpt>
      <trkpt lat="43.46884" lon="6.4409">
        <ele>182.9</ele>
        <time>2020-01-19T10:35:21Z</time>
      </trkpt>
      <trkpt lat="43.46874" lon="6.44087">
        <ele>182.3</ele>
        <time>2020-01-19T10:35:27Z</time>
      </trkpt>
      <trkpt lat="43.46864" lon="6.44085">
        <ele>181.8</ele>
        <time>2020-01-19T10:35:35Z</time>
      </trkpt>
      <trkpt lat="43.46853" lon="6.44085">
        <ele>181.2</ele>
        <time>2020-01-19T10:35:44Z</time>
      </trkpt>
      <trkpt lat="43.46844" lon="6.44086">
        <ele>180.8</ele>
        <time>2020-01-19T10:35:51Z</time>
      </trkpt>
      <trkpt lat="43.46833" lon="6.44085">
        <ele>180.4</ele>
        <time>2020-01-19T10:36:01Z</time>
      </trkpt>
      <trkpt lat="43.46823" lon="6.44086">
        <ele>180.2</ele>
        <time>2020-01-19T10:36:07Z</time>
      </trkpt>
      <trkpt lat="43.46813" lon="6.44085">
        <ele>179.7</ele>
        <time>2020-01-19T10:36:18Z</time>
      </trkpt>
      <trkpt lat="43.46803" lon="6.44087">
        <ele>179.3</ele>
        <time>2020-01-19T10:36:24Z</time>
      </trkpt>
      <trkpt lat="43.46794" lon="6.4409">
        <ele>179</ele>
        <time>2020-01-19T10:36:32Z</time>
      </trkpt>
      <trkpt lat="43.46785" lon="6.44095">
        <ele>178.7</ele>
        <time>2020-01-19T10:36:43Z</time>
      </trkpt>
      <trkpt lat="43.46778" lon="6.44102">
        <ele>178.5</ele>
        <time>2020-01-19T10:36:54Z</time>
      </trkpt>
      <trkpt lat="43.46773" lon="6.44113">
        <ele>178.4</ele>
        <time>2020-01-19T10:37:02Z</time>
      </trkpt>
      <trkpt lat="43.4677" lon="6.44125">
        <ele>178.1</ele>
        <time>2020-01-19T10:37:22Z</time>
      </trkpt>
      <trkpt lat="43.46764" lon="6.44134">
        <ele>178.2</ele>
        <time>2020-01-19T10:40:37Z</time>
      </trkpt>
      <trkpt lat="43.46759" lon="6.44145">
        <ele>178.1</ele>
        <time>2020-01-19T10:40:46Z</time>
      </trkpt>
      <trkpt lat="43.46751" lon="6.44148">
        <ele>177.7</ele>
        <time>2020-01-19T10:40:59Z</time>
      </trkpt>
      <trkpt lat="43.46741" lon="6.44155">
        <ele>177.3</ele>
        <time>2020-01-19T10:41:15Z</time>
      </trkpt>
      <trkpt lat="43.46732" lon="6.4416">
        <ele>177.4</ele>
        <time>2020-01-19T10:41:27Z</time>
      </trkpt>
      <trkpt lat="43.46723" lon="6.44162">
        <ele>177.9</ele>
        <time>2020-01-19T10:41:37Z</time>
      </trkpt>
      <trkpt lat="43.46714" lon="6.44167">
        <ele>178.6</ele>
        <time>2020-01-19T10:41:51Z</time>
      </trkpt>
      <trkpt lat="43.46705" lon="6.44174">
        <ele>179.4</ele>
        <time>2020-01-19T10:42:02Z</time>
      </trkpt>
      <trkpt lat="43.46701" lon="6.44185">
        <ele>180.7</ele>
        <time>2020-01-19T10:42:16Z</time>
      </trkpt>
      <trkpt lat="43.46692" lon="6.44189">
        <ele>182.1</ele>
        <time>2020-01-19T10:42:32Z</time>
      </trkpt>
      <trkpt lat="43.46684" lon="6.44195">
        <ele>182.5</ele>
        <time>2020-01-19T10:42:43Z</time>
      </trkpt>
      <trkpt lat="43.46676" lon="6.44204">
        <ele>183.1</ele>
        <time>2020-01-19T10:42:59Z</time>
      </trkpt>
      <trkpt lat="43.46669" lon="6.44211">
        <ele>184.9</ele>
        <time>2020-01-19T10:43:40Z</time>
      </trkpt>
      <trkpt lat="43.46664" lon="6.44222">
        <ele>185.9</ele>
        <time>2020-01-19T10:44:04Z</time>
      </trkpt>
      <trkpt lat="43.46654" lon="6.44225">
        <ele>187</ele>
        <time>2020-01-19T10:44:43Z</time>
      </trkpt>
      <trkpt lat="43.46645" lon="6.44229">
        <ele>187.2</ele>
        <time>2020-01-19T10:44:57Z</time>
      </trkpt>
      <trkpt lat="43.46643" lon="6.44216">
        <ele>187.3</ele>
        <time>2020-01-19T10:45:13Z</time>
      </trkpt>
      <trkpt lat="43.46643" lon="6.44203">
        <ele>187.2</ele>
        <time>2020-01-19T10:45:27Z</time>
      </trkpt>
      <trkpt lat="43.46643" lon="6.44189">
        <ele>186.4</ele>
        <time>2020-01-19T10:45:37Z</time>
      </trkpt>
      <trkpt lat="43.46644" lon="6.44177">
        <ele>185.5</ele>
        <time>2020-01-19T10:45:46Z</time>
      </trkpt>
      <trkpt lat="43.46642" lon="6.44164">
        <ele>184.5</ele>
        <time>2020-01-19T10:45:55Z</time>
      </trkpt>
      <trkpt lat="43.4664" lon="6.44151">
        <ele>183.6</ele>
        <time>2020-01-19T10:46:03Z</time>
      </trkpt>
      <trkpt lat="43.46641" lon="6.44138">
        <ele>182.8</ele>
        <time>2020-01-19T10:46:11Z</time>
      </trkpt>
      <trkpt lat="43.46643" lon="6.44124">
        <ele>182</ele>
        <time>2020-01-19T10:46:20Z</time>
      </trkpt>
      <trkpt lat="43.46641" lon="6.44111">
        <ele>181.6</ele>
        <time>2020-01-19T10:46:28Z</time>
      </trkpt>
      <trkpt lat="43.46634" lon="6.44101">
        <ele>180.9</ele>
        <time>2020-01-19T10:46:39Z</time>
      </trkpt>
      <trkpt lat="43.46625" lon="6.44099">
        <ele>180.8</ele>
        <time>2020-01-19T10:46:47Z</time>
      </trkpt>
      <trkpt lat="43.46616" lon="6.44096">
        <ele>180.9</ele>
        <time>2020-01-19T10:46:53Z</time>
      </trkpt>
      <trkpt lat="43.46607" lon="6.44093">
        <ele>181.4</ele>
        <time>2020-01-19T10:47:02Z</time>
      </trkpt>
      <trkpt lat="43.46598" lon="6.44089">
        <ele>182.2</ele>
        <time>2020-01-19T10:47:11Z</time>
      </trkpt>
      <trkpt lat="43.46589" lon="6.44086">
        <ele>184.1</ele>
        <time>2020-01-19T10:47:27Z</time>
      </trkpt>
      <trkpt lat="43.4658" lon="6.44083">
        <ele>185.2</ele>
        <time>2020-01-19T10:47:38Z</time>
      </trkpt>
      <trkpt lat="43.46571" lon="6.44086">
        <ele>186.4</ele>
        <time>2020-01-19T10:47:48Z</time>
      </trkpt>
      <trkpt lat="43.46561" lon="6.44083">
        <ele>187.9</ele>
        <time>2020-01-19T10:48:03Z</time>
      </trkpt>
      <trkpt lat="43.46553" lon="6.44079">
        <ele>188.9</ele>
        <time>2020-01-19T10:48:13Z</time>
      </trkpt>
      <trkpt lat="43.46544" lon="6.44075">
        <ele>190.2</ele>
        <time>2020-01-19T10:48:25Z</time>
      </trkpt>
      <trkpt lat="43.46535" lon="6.4407">
        <ele>192.4</ele>
        <time>2020-01-19T10:48:43Z</time>
      </trkpt>
      <trkpt lat="43.46526" lon="6.44069">
        <ele>194.1</ele>
        <time>2020-01-19T10:48:59Z</time>
      </trkpt>
      <trkpt lat="43.46517" lon="6.44069">
        <ele>194.8</ele>
        <time>2020-01-19T10:49:06Z</time>
      </trkpt>
      <trkpt lat="43.46507" lon="6.44069">
        <ele>195.4</ele>
        <time>2020-01-19T10:49:14Z</time>
      </trkpt>
      <trkpt lat="43.46497" lon="6.44068">
        <ele>196.1</ele>
        <time>2020-01-19T10:49:24Z</time>
      </trkpt>
      <trkpt lat="43.46488" lon="6.44068">
        <ele>196.5</ele>
        <time>2020-01-19T10:49:32Z</time>
      </trkpt>
      <trkpt lat="43.46479" lon="6.44071">
        <ele>196.5</ele>
        <time>2020-01-19T10:49:40Z</time>
      </trkpt>
      <trkpt lat="43.4647" lon="6.44072">
        <ele>196.6</ele>
        <time>2020-01-19T10:49:47Z</time>
      </trkpt>
      <trkpt lat="43.4646" lon="6.44074">
        <ele>196.6</ele>
        <time>2020-01-19T10:49:55Z</time>
      </trkpt>
      <trkpt lat="43.46451" lon="6.44076">
        <ele>196.3</ele>
        <time>2020-01-19T10:50:03Z</time>
      </trkpt>
      <trkpt lat="43.46442" lon="6.44077">
        <ele>196.1</ele>
        <time>2020-01-19T10:50:10Z</time>
      </trkpt>
      <trkpt lat="43.46433" lon="6.44078">
        <ele>195.9</ele>
        <time>2020-01-19T10:50:19Z</time>
      </trkpt>
      <trkpt lat="43.46425" lon="6.44085">
        <ele>195.2</ele>
        <time>2020-01-19T10:50:44Z</time>
      </trkpt>
      <trkpt lat="43.46416" lon="6.44082">
        <ele>195.2</ele>
        <time>2020-01-19T10:50:53Z</time>
      </trkpt>
      <trkpt lat="43.46406" lon="6.44085">
        <ele>195.1</ele>
        <time>2020-01-19T10:51:02Z</time>
      </trkpt>
      <trkpt lat="43.46397" lon="6.44086">
        <ele>195.2</ele>
        <time>2020-01-19T10:51:09Z</time>
      </trkpt>
      <trkpt lat="43.46387" lon="6.44085">
        <ele>195.4</ele>
        <time>2020-01-19T10:51:16Z</time>
      </trkpt>
      <trkpt lat="43.46378" lon="6.44089">
        <ele>195.5</ele>
        <time>2020-01-19T10:51:24Z</time>
      </trkpt>
      <trkpt lat="43.46369" lon="6.44092">
        <ele>195.6</ele>
        <time>2020-01-19T10:51:34Z</time>
      </trkpt>
      <trkpt lat="43.46359" lon="6.44094">
        <ele>195.7</ele>
        <time>2020-01-19T10:51:43Z</time>
      </trkpt>
      <trkpt lat="43.4635" lon="6.44096">
        <ele>195.9</ele>
        <time>2020-01-19T10:51:52Z</time>
      </trkpt>
      <trkpt lat="43.4634" lon="6.44096">
        <ele>196.2</ele>
        <time>2020-01-19T10:52:00Z</time>
      </trkpt>
      <trkpt lat="43.4633" lon="6.44098">
        <ele>196.2</ele>
        <time>2020-01-19T10:52:09Z</time>
      </trkpt>
      <trkpt lat="43.4632" lon="6.44097">
        <ele>196.4</ele>
        <time>2020-01-19T10:52:16Z</time>
      </trkpt>
      <trkpt lat="43.4631" lon="6.44098">
        <ele>196.7</ele>
        <time>2020-01-19T10:52:24Z</time>
      </trkpt>
      <trkpt lat="43.46301" lon="6.44101">
        <ele>197.5</ele>
        <time>2020-01-19T10:52:34Z</time>
      </trkpt>
      <trkpt lat="43.46291" lon="6.44101">
        <ele>198.2</ele>
        <time>2020-01-19T10:52:47Z</time>
      </trkpt>
      <trkpt lat="43.46287" lon="6.4409">
        <ele>198.7</ele>
        <time>2020-01-19T10:53:00Z</time>
      </trkpt>
      <trkpt lat="43.46279" lon="6.44085">
        <ele>198.9</ele>
        <time>2020-01-19T10:53:08Z</time>
      </trkpt>
      <trkpt lat="43.4628" lon="6.44098">
        <ele>199.5</ele>
        <time>2020-01-19T10:53:26Z</time>
      </trkpt>
      <trkpt lat="43.46272" lon="6.44106">
        <ele>200.1</ele>
        <time>2020-01-19T10:54:28Z</time>
      </trkpt>
      <trkpt lat="43.46263" lon="6.44107">
        <ele>201.1</ele>
        <time>2020-01-19T10:54:42Z</time>
      </trkpt>
      <trkpt lat="43.46257" lon="6.44116">
        <ele>202.1</ele>
        <time>2020-01-19T10:55:09Z</time>
      </trkpt>
      <trkpt lat="43.46249" lon="6.44123">
        <ele>202.7</ele>
        <time>2020-01-19T10:55:24Z</time>
      </trkpt>
      <trkpt lat="43.4625" lon="6.44136">
        <ele>203</ele>
        <time>2020-01-19T10:55:35Z</time>
      </trkpt>
      <trkpt lat="43.46251" lon="6.44149">
        <ele>203.1</ele>
        <time>2020-01-19T10:55:45Z</time>
      </trkpt>
      <trkpt lat="43.46251" lon="6.44162">
        <ele>203</ele>
        <time>2020-01-19T10:55:54Z</time>
      </trkpt>
      <trkpt lat="43.46255" lon="6.44173">
        <ele>203</ele>
        <time>2020-01-19T10:56:01Z</time>
      </trkpt>
      <trkpt lat="43.46254" lon="6.44187">
        <ele>202.7</ele>
        <time>2020-01-19T10:56:12Z</time>
      </trkpt>
      <trkpt lat="43.46247" lon="6.44198">
        <ele>202.7</ele>
        <time>2020-01-19T10:56:22Z</time>
      </trkpt>
      <trkpt lat="43.46238" lon="6.44198">
        <ele>203.5</ele>
        <time>2020-01-19T10:56:36Z</time>
      </trkpt>
      <trkpt lat="43.46229" lon="6.44201">
        <ele>204.8</ele>
        <time>2020-01-19T10:56:49Z</time>
      </trkpt>
      <trkpt lat="43.4622" lon="6.44201">
        <ele>206.7</ele>
        <time>2020-01-19T10:57:03Z</time>
      </trkpt>
      <trkpt lat="43.46211" lon="6.44203">
        <ele>208.3</ele>
        <time>2020-01-19T10:57:15Z</time>
      </trkpt>
      <trkpt lat="43.46202" lon="6.44207">
        <ele>210.9</ele>
        <time>2020-01-19T10:57:30Z</time>
      </trkpt>
      <trkpt lat="43.46192" lon="6.44208">
        <ele>212.8</ele>
        <time>2020-01-19T10:57:48Z</time>
      </trkpt>
      <trkpt lat="43.46183" lon="6.44206">
        <ele>214.5</ele>
        <time>2020-01-19T10:58:02Z</time>
      </trkpt>
      <trkpt lat="43.46174" lon="6.4421">
        <ele>216.5</ele>
        <time>2020-01-19T10:58:18Z</time>
      </trkpt>
      <trkpt lat="43.46164" lon="6.44209">
        <ele>218.1</ele>
        <time>2020-01-19T10:58:34Z</time>
      </trkpt>
      <trkpt lat="43.46155" lon="6.44212">
        <ele>220.7</ele>
        <time>2020-01-19T10:58:57Z</time>
      </trkpt>
      <trkpt lat="43.46159" lon="6.44199">
        <ele>223.2</ele>
        <time>2020-01-19T10:59:52Z</time>
      </trkpt>
      <trkpt lat="43.46157" lon="6.44187">
        <ele>223.5</ele>
        <time>2020-01-19T11:00:00Z</time>
      </trkpt>
      <trkpt lat="43.46154" lon="6.44175">
        <ele>223.6</ele>
        <time>2020-01-19T11:00:08Z</time>
      </trkpt>
      <trkpt lat="43.4615" lon="6.44162">
        <ele>223.6</ele>
        <time>2020-01-19T11:00:14Z</time>
      </trkpt>
      <trkpt lat="43.46144" lon="6.44149">
        <ele>223.6</ele>
        <time>2020-01-19T11:00:20Z</time>
      </trkpt>
      <trkpt lat="43.46139" lon="6.44139">
        <ele>223.4</ele>
        <time>2020-01-19T11:00:28Z</time>
      </trkpt>
      <trkpt lat="43.4613" lon="6.44135">
        <ele>223.3</ele>
        <time>2020-01-19T11:00:34Z</time>
      </trkpt>
      <trkpt lat="43.4612" lon="6.44136">
        <ele>223.2</ele>
        <time>2020-01-19T11:00:40Z</time>
      </trkpt>
      <trkpt lat="43.46114" lon="6.44145">
        <ele>223</ele>
        <time>2020-01-19T11:00:57Z</time>
      </trkpt>
      <trkpt lat="43.46107" lon="6.44154">
        <ele>223.2</ele>
        <time>2020-01-19T11:01:12Z</time>
      </trkpt>
      <trkpt lat="43.46101" lon="6.44163">
        <ele>223.2</ele>
        <time>2020-01-19T11:01:22Z</time>
      </trkpt>
      <trkpt lat="43.46096" lon="6.44173">
        <ele>222.7</ele>
        <time>2020-01-19T11:01:33Z</time>
      </trkpt>
      <trkpt lat="43.4609" lon="6.44184">
        <ele>222.6</ele>
        <time>2020-01-19T11:01:42Z</time>
      </trkpt>
      <trkpt lat="43.46087" lon="6.44196">
        <ele>222.7</ele>
        <time>2020-01-19T11:01:53Z</time>
      </trkpt>
      <trkpt lat="43.46085" lon="6.4421">
        <ele>223.1</ele>
        <time>2020-01-19T11:02:05Z</time>
      </trkpt>
      <trkpt lat="43.46082" lon="6.44222">
        <ele>223.8</ele>
        <time>2020-01-19T11:02:15Z</time>
      </trkpt>
      <trkpt lat="43.4608" lon="6.44235">
        <ele>224.7</ele>
        <time>2020-01-19T11:02:26Z</time>
      </trkpt>
      <trkpt lat="43.46078" lon="6.44247">
        <ele>225.5</ele>
        <time>2020-01-19T11:02:35Z</time>
      </trkpt>
      <trkpt lat="43.46076" lon="6.4426">
        <ele>226.4</ele>
        <time>2020-01-19T11:02:45Z</time>
      </trkpt>
      <trkpt lat="43.46073" lon="6.44272">
        <ele>226.9</ele>
        <time>2020-01-19T11:02:55Z</time>
      </trkpt>
      <trkpt lat="43.46067" lon="6.44281">
        <ele>227.6</ele>
        <time>2020-01-19T11:03:03Z</time>
      </trkpt>
      <trkpt lat="43.46062" lon="6.44293">
        <ele>228.2</ele>
        <time>2020-01-19T11:03:13Z</time>
      </trkpt>
      <trkpt lat="43.46058" lon="6.44305">
        <ele>228.6</ele>
        <time>2020-01-19T11:03:22Z</time>
      </trkpt>
      <trkpt lat="43.46055" lon="6.44318">
        <ele>228.9</ele>
        <time>2020-01-19T11:03:31Z</time>
      </trkpt>
      <trkpt lat="43.46053" lon="6.44331">
        <ele>229.2</ele>
        <time>2020-01-19T11:03:42Z</time>
      </trkpt>
      <trkpt lat="43.46049" lon="6.44342">
        <ele>229.6</ele>
        <time>2020-01-19T11:03:51Z</time>
      </trkpt>
      <trkpt lat="43.46048" lon="6.44355">
        <ele>230.9</ele>
        <time>2020-01-19T11:04:03Z</time>
      </trkpt>
      <trkpt lat="43.46044" lon="6.44366">
        <ele>231.7</ele>
        <time>2020-01-19T11:04:14Z</time>
      </trkpt>
      <trkpt lat="43.46044" lon="6.4438">
        <ele>232.4</ele>
        <time>2020-01-19T11:04:25Z</time>
      </trkpt>
      <trkpt lat="43.4604" lon="6.44393">
        <ele>233.1</ele>
        <time>2020-01-19T11:04:35Z</time>
      </trkpt>
      <trkpt lat="43.46037" lon="6.44405">
        <ele>233.9</ele>
        <time>2020-01-19T11:04:46Z</time>
      </trkpt>
      <trkpt lat="43.46034" lon="6.44419">
        <ele>234.8</ele>
        <time>2020-01-19T11:04:57Z</time>
      </trkpt>
      <trkpt lat="43.46029" lon="6.44429">
        <ele>235.2</ele>
        <time>2020-01-19T11:05:07Z</time>
      </trkpt>
      <trkpt lat="43.46023" lon="6.44438">
        <ele>235.6</ele>
        <time>2020-01-19T11:05:17Z</time>
      </trkpt>
      <trkpt lat="43.46021" lon="6.44451">
        <ele>235.9</ele>
        <time>2020-01-19T11:05:25Z</time>
      </trkpt>
      <trkpt lat="43.46017" lon="6.44463">
        <ele>236</ele>
        <time>2020-01-19T11:05:36Z</time>
      </trkpt>
      <trkpt lat="43.46017" lon="6.44476">
        <ele>236</ele>
        <time>2020-01-19T11:05:44Z</time>
      </trkpt>
      <trkpt lat="43.46018" lon="6.44488">
        <ele>235.9</ele>
        <time>2020-01-19T11:05:49Z</time>
      </trkpt>
      <trkpt lat="43.46016" lon="6.445">
        <ele>235.6</ele>
        <time>2020-01-19T11:05:57Z</time>
      </trkpt>
      <trkpt lat="43.46017" lon="6.44513">
        <ele>235.2</ele>
        <time>2020-01-19T11:06:06Z</time>
      </trkpt>
      <trkpt lat="43.46021" lon="6.44526">
        <ele>234.7</ele>
        <time>2020-01-19T11:06:15Z</time>
      </trkpt>
      <trkpt lat="43.46025" lon="6.44538">
        <ele>234.1</ele>
        <time>2020-01-19T11:06:24Z</time>
      </trkpt>
      <trkpt lat="43.46032" lon="6.44547">
        <ele>233.6</ele>
        <time>2020-01-19T11:06:31Z</time>
      </trkpt>
      <trkpt lat="43.46039" lon="6.44557">
        <ele>232.8</ele>
        <time>2020-01-19T11:06:39Z</time>
      </trkpt>
      <trkpt lat="43.46044" lon="6.44568">
        <ele>232.1</ele>
        <time>2020-01-19T11:06:45Z</time>
      </trkpt>
      <trkpt lat="43.46047" lon="6.44581">
        <ele>231.2</ele>
        <time>2020-01-19T11:06:53Z</time>
      </trkpt>
      <trkpt lat="43.46043" lon="6.44593">
        <ele>229.9</ele>
        <time>2020-01-19T11:07:08Z</time>
      </trkpt>
      <trkpt lat="43.46042" lon="6.44606">
        <ele>229.3</ele>
        <time>2020-01-19T11:07:17Z</time>
      </trkpt>
      <trkpt lat="43.46043" lon="6.4462">
        <ele>228.6</ele>
        <time>2020-01-19T11:07:26Z</time>
      </trkpt>
      <trkpt lat="43.46045" lon="6.44632">
        <ele>228.1</ele>
        <time>2020-01-19T11:07:35Z</time>
      </trkpt>
      <trkpt lat="43.4605" lon="6.44643">
        <ele>227.6</ele>
        <time>2020-01-19T11:07:43Z</time>
      </trkpt>
      <trkpt lat="43.46051" lon="6.44656">
        <ele>227.2</ele>
        <time>2020-01-19T11:07:51Z</time>
      </trkpt>
      <trkpt lat="43.46054" lon="6.44668">
        <ele>226.8</ele>
        <time>2020-01-19T11:07:57Z</time>
      </trkpt>
      <trkpt lat="43.46056" lon="6.44681">
        <ele>226.1</ele>
        <time>2020-01-19T11:08:06Z</time>
      </trkpt>
      <trkpt lat="43.46059" lon="6.44694">
        <ele>225.3</ele>
        <time>2020-01-19T11:08:16Z</time>
      </trkpt>
      <trkpt lat="43.46063" lon="6.44705">
        <ele>224.6</ele>
        <time>2020-01-19T11:08:26Z</time>
      </trkpt>
      <trkpt lat="43.46064" lon="6.44718">
        <ele>223.2</ele>
        <time>2020-01-19T11:09:41Z</time>
      </trkpt>
      <trkpt lat="43.46067" lon="6.44732">
        <ele>223.2</ele>
        <time>2020-01-19T11:09:47Z</time>
      </trkpt>
      <trkpt lat="43.46069" lon="6.44745">
        <ele>222.8</ele>
        <time>2020-01-19T11:09:59Z</time>
      </trkpt>
      <trkpt lat="43.46072" lon="6.44757">
        <ele>222.2</ele>
        <time>2020-01-19T11:10:07Z</time>
      </trkpt>
      <trkpt lat="43.46075" lon="6.4477">
        <ele>221.8</ele>
        <time>2020-01-19T11:10:15Z</time>
      </trkpt>
      <trkpt lat="43.46078" lon="6.44783">
        <ele>221.6</ele>
        <time>2020-01-19T11:10:20Z</time>
      </trkpt>
      <trkpt lat="43.4608" lon="6.44796">
        <ele>221.3</ele>
        <time>2020-01-19T11:10:28Z</time>
      </trkpt>
      <trkpt lat="43.46086" lon="6.44805">
        <ele>220.6</ele>
        <time>2020-01-19T11:10:37Z</time>
      </trkpt>
      <trkpt lat="43.46092" lon="6.44815">
        <ele>220.1</ele>
        <time>2020-01-19T11:10:47Z</time>
      </trkpt>
      <trkpt lat="43.46093" lon="6.44829">
        <ele>219.7</ele>
        <time>2020-01-19T11:10:55Z</time>
      </trkpt>
      <trkpt lat="43.46097" lon="6.4484">
        <ele>219.6</ele>
        <time>2020-01-19T11:11:02Z</time>
      </trkpt>
      <trkpt lat="43.461" lon="6.44853">
        <ele>219.4</ele>
        <time>2020-01-19T11:11:10Z</time>
      </trkpt>
      <trkpt lat="43.46102" lon="6.44867">
        <ele>219.2</ele>
        <time>2020-01-19T11:11:18Z</time>
      </trkpt>
      <trkpt lat="43.46105" lon="6.44879">
        <ele>218.7</ele>
        <time>2020-01-19T11:11:26Z</time>
      </trkpt>
      <trkpt lat="43.4611" lon="6.4489">
        <ele>218.2</ele>
        <time>2020-01-19T11:11:33Z</time>
      </trkpt>
      <trkpt lat="43.46113" lon="6.44903">
        <ele>217.7</ele>
        <time>2020-01-19T11:11:41Z</time>
      </trkpt>
      <trkpt lat="43.46113" lon="6.44917">
        <ele>217.2</ele>
        <time>2020-01-19T11:11:50Z</time>
      </trkpt>
      <trkpt lat="43.46115" lon="6.44931">
        <ele>216.7</ele>
        <time>2020-01-19T11:11:59Z</time>
      </trkpt>
      <trkpt lat="43.46118" lon="6.44943">
        <ele>216.6</ele>
        <time>2020-01-19T11:12:06Z</time>
      </trkpt>
      <trkpt lat="43.46122" lon="6.44955">
        <ele>216.4</ele>
        <time>2020-01-19T11:12:14Z</time>
      </trkpt>
      <trkpt lat="43.46123" lon="6.44968">
        <ele>216.3</ele>
        <time>2020-01-19T11:12:24Z</time>
      </trkpt>
      <trkpt lat="43.46124" lon="6.44981">
        <ele>216.3</ele>
        <time>2020-01-19T11:12:30Z</time>
      </trkpt>
      <trkpt lat="43.46127" lon="6.44993">
        <ele>216.2</ele>
        <time>2020-01-19T11:12:39Z</time>
      </trkpt>
      <trkpt lat="43.46129" lon="6.45006">
        <ele>216.2</ele>
        <time>2020-01-19T11:12:48Z</time>
      </trkpt>
      <trkpt lat="43.46132" lon="6.45021">
        <ele>216.2</ele>
        <time>2020-01-19T11:12:57Z</time>
      </trkpt>
      <trkpt lat="43.46129" lon="6.45034">
        <ele>216.3</ele>
        <time>2020-01-19T11:13:06Z</time>
      </trkpt>
      <trkpt lat="43.46124" lon="6.45046">
        <ele>216.9</ele>
        <time>2020-01-19T11:13:17Z</time>
      </trkpt>
      <trkpt lat="43.46123" lon="6.4506">
        <ele>217</ele>
        <time>2020-01-19T11:13:25Z</time>
      </trkpt>
      <trkpt lat="43.46119" lon="6.45072">
        <ele>217.1</ele>
        <time>2020-01-19T11:13:34Z</time>
      </trkpt>
      <trkpt lat="43.46116" lon="6.45085">
        <ele>217.6</ele>
        <time>2020-01-19T11:13:44Z</time>
      </trkpt>
      <trkpt lat="43.4611" lon="6.45096">
        <ele>218.1</ele>
        <time>2020-01-19T11:13:54Z</time>
      </trkpt>
      <trkpt lat="43.46107" lon="6.45107">
        <ele>219.1</ele>
        <time>2020-01-19T11:14:04Z</time>
      </trkpt>
      <trkpt lat="43.46105" lon="6.4512">
        <ele>220</ele>
        <time>2020-01-19T11:14:15Z</time>
      </trkpt>
      <trkpt lat="43.46102" lon="6.45133">
        <ele>220.9</ele>
        <time>2020-01-19T11:14:27Z</time>
      </trkpt>
      <trkpt lat="43.46098" lon="6.45144">
        <ele>222</ele>
        <time>2020-01-19T11:14:38Z</time>
      </trkpt>
      <trkpt lat="43.46094" lon="6.45157">
        <ele>223.6</ele>
        <time>2020-01-19T11:14:51Z</time>
      </trkpt>
      <trkpt lat="43.46089" lon="6.45167">
        <ele>224.4</ele>
        <time>2020-01-19T11:15:02Z</time>
      </trkpt>
      <trkpt lat="43.46086" lon="6.45179">
        <ele>225.1</ele>
        <time>2020-01-19T11:15:11Z</time>
      </trkpt>
      <trkpt lat="43.46081" lon="6.45191">
        <ele>225.6</ele>
        <time>2020-01-19T11:15:19Z</time>
      </trkpt>
      <trkpt lat="43.46074" lon="6.452">
        <ele>226.3</ele>
        <time>2020-01-19T11:15:30Z</time>
      </trkpt>
      <trkpt lat="43.46069" lon="6.4521">
        <ele>226.6</ele>
        <time>2020-01-19T11:15:38Z</time>
      </trkpt>
      <trkpt lat="43.46064" lon="6.45222">
        <ele>227</ele>
        <time>2020-01-19T11:15:48Z</time>
      </trkpt>
      <trkpt lat="43.46063" lon="6.45234">
        <ele>227.3</ele>
        <time>2020-01-19T11:15:57Z</time>
      </trkpt>
      <trkpt lat="43.4606" lon="6.45247">
        <ele>227.3</ele>
        <time>2020-01-19T11:16:10Z</time>
      </trkpt>
      <trkpt lat="43.46057" lon="6.45261">
        <ele>227.3</ele>
        <time>2020-01-19T11:16:18Z</time>
      </trkpt>
      <trkpt lat="43.46051" lon="6.45271">
        <ele>227.1</ele>
        <time>2020-01-19T11:16:29Z</time>
      </trkpt>
      <trkpt lat="43.46042" lon="6.45273">
        <ele>226.6</ele>
        <time>2020-01-19T11:16:37Z</time>
      </trkpt>
      <trkpt lat="43.46033" lon="6.45279">
        <ele>225.9</ele>
        <time>2020-01-19T11:16:45Z</time>
      </trkpt>
      <trkpt lat="43.46032" lon="6.45292">
        <ele>225.1</ele>
        <time>2020-01-19T11:16:53Z</time>
      </trkpt>
      <trkpt lat="43.46029" lon="6.45304">
        <ele>224.3</ele>
        <time>2020-01-19T11:17:04Z</time>
      </trkpt>
      <trkpt lat="43.4602" lon="6.45312">
        <ele>223.5</ele>
        <time>2020-01-19T11:17:14Z</time>
      </trkpt>
      <trkpt lat="43.46013" lon="6.4532">
        <ele>222.3</ele>
        <time>2020-01-19T11:17:25Z</time>
      </trkpt>
      <trkpt lat="43.46012" lon="6.45333">
        <ele>222</ele>
        <time>2020-01-19T11:17:33Z</time>
      </trkpt>
      <trkpt lat="43.46012" lon="6.45346">
        <ele>222.3</ele>
        <time>2020-01-19T11:17:42Z</time>
      </trkpt>
      <trkpt lat="43.4601" lon="6.45358">
        <ele>223.1</ele>
        <time>2020-01-19T11:17:53Z</time>
      </trkpt>
      <trkpt lat="43.46003" lon="6.45368">
        <ele>223.6</ele>
        <time>2020-01-19T11:18:05Z</time>
      </trkpt>
      <trkpt lat="43.46001" lon="6.45381">
        <ele>224</ele>
        <time>2020-01-19T11:18:15Z</time>
      </trkpt>
      <trkpt lat="43.45998" lon="6.45393">
        <ele>224</ele>
        <time>2020-01-19T11:18:24Z</time>
      </trkpt>
      <trkpt lat="43.45997" lon="6.45408">
        <ele>223.9</ele>
        <time>2020-01-19T11:18:31Z</time>
      </trkpt>
      <trkpt lat="43.46001" lon="6.4542">
        <ele>224.2</ele>
        <time>2020-01-19T11:18:41Z</time>
      </trkpt>
      <trkpt lat="43.46004" lon="6.45432">
        <ele>225.1</ele>
        <time>2020-01-19T11:18:53Z</time>
      </trkpt>
      <trkpt lat="43.46005" lon="6.45445">
        <ele>225.9</ele>
        <time>2020-01-19T11:19:06Z</time>
      </trkpt>
      <trkpt lat="43.46006" lon="6.45458">
        <ele>226.5</ele>
        <time>2020-01-19T11:19:16Z</time>
      </trkpt>
      <trkpt lat="43.46004" lon="6.4547">
        <ele>227</ele>
        <time>2020-01-19T11:19:26Z</time>
      </trkpt>
      <trkpt lat="43.46007" lon="6.45482">
        <ele>227.2</ele>
        <time>2020-01-19T11:19:35Z</time>
      </trkpt>
      <trkpt lat="43.46011" lon="6.45493">
        <ele>227.1</ele>
        <time>2020-01-19T11:19:43Z</time>
      </trkpt>
      <trkpt lat="43.4601" lon="6.45506">
        <ele>226.9</ele>
        <time>2020-01-19T11:19:52Z</time>
      </trkpt>
      <trkpt lat="43.46011" lon="6.45519">
        <ele>226.8</ele>
        <time>2020-01-19T11:20:01Z</time>
      </trkpt>
      <trkpt lat="43.46017" lon="6.45528">
        <ele>226.7</ele>
        <time>2020-01-19T11:20:15Z</time>
      </trkpt>
      <trkpt lat="43.46022" lon="6.45539">
        <ele>226.6</ele>
        <time>2020-01-19T11:20:36Z</time>
      </trkpt>
      <trkpt lat="43.46024" lon="6.45551">
        <ele>226.8</ele>
        <time>2020-01-19T11:20:45Z</time>
      </trkpt>
      <trkpt lat="43.46031" lon="6.45562">
        <ele>226.8</ele>
        <time>2020-01-19T11:21:01Z</time>
      </trkpt>
      <trkpt lat="43.46036" lon="6.45572">
        <ele>226.8</ele>
        <time>2020-01-19T11:21:12Z</time>
      </trkpt>
      <trkpt lat="43.46037" lon="6.45585">
        <ele>226.7</ele>
        <time>2020-01-19T11:21:20Z</time>
      </trkpt>
      <trkpt lat="43.46037" lon="6.45598">
        <ele>226.9</ele>
        <time>2020-01-19T11:21:32Z</time>
      </trkpt>
      <trkpt lat="43.46037" lon="6.45611">
        <ele>227.2</ele>
        <time>2020-01-19T11:21:42Z</time>
      </trkpt>
      <trkpt lat="43.46039" lon="6.45624">
        <ele>227.6</ele>
        <time>2020-01-19T11:21:52Z</time>
      </trkpt>
      <trkpt lat="43.4604" lon="6.45637">
        <ele>227.8</ele>
        <time>2020-01-19T11:22:02Z</time>
      </trkpt>
      <trkpt lat="43.46043" lon="6.4565">
        <ele>227.7</ele>
        <time>2020-01-19T11:22:10Z</time>
      </trkpt>
      <trkpt lat="43.4604" lon="6.45662">
        <ele>228</ele>
        <time>2020-01-19T11:22:20Z</time>
      </trkpt>
      <trkpt lat="43.46043" lon="6.45675">
        <ele>228</ele>
        <time>2020-01-19T11:22:28Z</time>
      </trkpt>
      <trkpt lat="43.46045" lon="6.45688">
        <ele>228.1</ele>
        <time>2020-01-19T11:22:37Z</time>
      </trkpt>
      <trkpt lat="43.46046" lon="6.45701">
        <ele>228.2</ele>
        <time>2020-01-19T11:22:45Z</time>
      </trkpt>
      <trkpt lat="43.46046" lon="6.45713">
        <ele>228.3</ele>
        <time>2020-01-19T11:22:52Z</time>
      </trkpt>
      <trkpt lat="43.46041" lon="6.45724">
        <ele>228.8</ele>
        <time>2020-01-19T11:23:00Z</time>
      </trkpt>
      <trkpt lat="43.46037" lon="6.45737">
        <ele>229</ele>
        <time>2020-01-19T11:23:11Z</time>
      </trkpt>
      <trkpt lat="43.46037" lon="6.45749">
        <ele>229.1</ele>
        <time>2020-01-19T11:23:21Z</time>
      </trkpt>
      <trkpt lat="43.46034" lon="6.45761">
        <ele>229.2</ele>
        <time>2020-01-19T11:23:31Z</time>
      </trkpt>
      <trkpt lat="43.46034" lon="6.45775">
        <ele>229.3</ele>
        <time>2020-01-19T11:23:41Z</time>
      </trkpt>
      <trkpt lat="43.46035" lon="6.45788">
        <ele>229.5</ele>
        <time>2020-01-19T11:23:51Z</time>
      </trkpt>
      <trkpt lat="43.46034" lon="6.45802">
        <ele>229.5</ele>
        <time>2020-01-19T11:24:00Z</time>
      </trkpt>
      <trkpt lat="43.46035" lon="6.45814">
        <ele>229.5</ele>
        <time>2020-01-19T11:24:07Z</time>
      </trkpt>
      <trkpt lat="43.4603" lon="6.45826">
        <ele>229.6</ele>
        <time>2020-01-19T11:24:17Z</time>
      </trkpt>
      <trkpt lat="43.46026" lon="6.45837">
        <ele>229.6</ele>
        <time>2020-01-19T11:24:26Z</time>
      </trkpt>
      <trkpt lat="43.46023" lon="6.45849">
        <ele>229.7</ele>
        <time>2020-01-19T11:24:35Z</time>
      </trkpt>
      <trkpt lat="43.46018" lon="6.45861">
        <ele>230.1</ele>
        <time>2020-01-19T11:24:44Z</time>
      </trkpt>
      <trkpt lat="43.46014" lon="6.45873">
        <ele>230.5</ele>
        <time>2020-01-19T11:24:52Z</time>
      </trkpt>
      <trkpt lat="43.46008" lon="6.45883">
        <ele>230.9</ele>
        <time>2020-01-19T11:25:01Z</time>
      </trkpt>
      <trkpt lat="43.45999" lon="6.45885">
        <ele>231.5</ele>
        <time>2020-01-19T11:25:12Z</time>
      </trkpt>
      <trkpt lat="43.45999" lon="6.45897">
        <ele>232.2</ele>
        <time>2020-01-19T11:25:36Z</time>
      </trkpt>
      <trkpt lat="43.45994" lon="6.45908">
        <ele>231.1</ele>
        <time>2020-01-19T11:26:00Z</time>
      </trkpt>
      <trkpt lat="43.46003" lon="6.45912">
        <ele>230.1</ele>
        <time>2020-01-19T11:28:45Z</time>
      </trkpt>
      <trkpt lat="43.45993" lon="6.45914">
        <ele>230.3</ele>
        <time>2020-01-19T11:31:02Z</time>
      </trkpt>
      <trkpt lat="43.46" lon="6.45906">
        <ele>229.5</ele>
        <time>2020-01-19T11:32:58Z</time>
      </trkpt>
      <trkpt lat="43.46" lon="6.4592">
        <ele>229.9</ele>
        <time>2020-01-19T11:34:08Z</time>
      </trkpt>
      <trkpt lat="43.45993" lon="6.45914">
        <ele>230.3</ele>
        <time>2020-01-19T11:40:12Z</time>
      </trkpt>
      <trkpt lat="43.45998" lon="6.45903">
        <ele>229.9</ele>
        <time>2020-01-19T11:50:20Z</time>
      </trkpt>
      <trkpt lat="43.45999" lon="6.45915">
        <ele>229.8</ele>
        <time>2020-01-19T11:50:47Z</time>
      </trkpt>
      <trkpt lat="43.45992" lon="6.45908">
        <ele>230</ele>
        <time>2020-01-19T11:52:40Z</time>
      </trkpt>
      <trkpt lat="43.46001" lon="6.4591">
        <ele>231.9</ele>
        <time>2020-01-19T11:58:58Z</time>
      </trkpt>
      <trkpt lat="43.45993" lon="6.45903">
        <ele>231.2</ele>
        <time>2020-01-19T12:00:34Z</time>
      </trkpt>
      <trkpt lat="43.45989" lon="6.45915">
        <ele>231</ele>
        <time>2020-01-19T12:02:56Z</time>
      </trkpt>
      <trkpt lat="43.45998" lon="6.45909">
        <ele>231.4</ele>
        <time>2020-01-19T12:03:46Z</time>
      </trkpt>
      <trkpt lat="43.46007" lon="6.45912">
        <ele>231.5</ele>
        <time>2020-01-19T12:05:36Z</time>
      </trkpt>
      <trkpt lat="43.45998" lon="6.45917">
        <ele>231.4</ele>
        <time>2020-01-19T12:06:43Z</time>
      </trkpt>
      <trkpt lat="43.46003" lon="6.45907">
        <ele>230.3</ele>
        <time>2020-01-19T12:10:27Z</time>
      </trkpt>
      <trkpt lat="43.45998" lon="6.45897">
        <ele>231.2</ele>
        <time>2020-01-19T12:14:10Z</time>
      </trkpt>
      <trkpt lat="43.46003" lon="6.45887">
        <ele>232.2</ele>
        <time>2020-01-19T12:14:29Z</time>
      </trkpt>
      <trkpt lat="43.46012" lon="6.45885">
        <ele>232.8</ele>
        <time>2020-01-19T12:14:39Z</time>
      </trkpt>
      <trkpt lat="43.46018" lon="6.45896">
        <ele>232.8</ele>
        <time>2020-01-19T12:14:53Z</time>
      </trkpt>
      <trkpt lat="43.46022" lon="6.45909">
        <ele>232.7</ele>
        <time>2020-01-19T12:15:02Z</time>
      </trkpt>
      <trkpt lat="43.46024" lon="6.45921">
        <ele>232.2</ele>
        <time>2020-01-19T12:15:11Z</time>
      </trkpt>
      <trkpt lat="43.46028" lon="6.45932">
        <ele>231.7</ele>
        <time>2020-01-19T12:15:20Z</time>
      </trkpt>
      <trkpt lat="43.46033" lon="6.45944">
        <ele>231.2</ele>
        <time>2020-01-19T12:15:28Z</time>
      </trkpt>
      <trkpt lat="43.46035" lon="6.45957">
        <ele>230.4</ele>
        <time>2020-01-19T12:15:39Z</time>
      </trkpt>
      <trkpt lat="43.46034" lon="6.45969">
        <ele>229.8</ele>
        <time>2020-01-19T12:15:49Z</time>
      </trkpt>
      <trkpt lat="43.46031" lon="6.45982">
        <ele>229.1</ele>
        <time>2020-01-19T12:16:01Z</time>
      </trkpt>
      <trkpt lat="43.4603" lon="6.45996">
        <ele>228.8</ele>
        <time>2020-01-19T12:16:11Z</time>
      </trkpt>
      <trkpt lat="43.46027" lon="6.46009">
        <ele>228.6</ele>
        <time>2020-01-19T12:16:19Z</time>
      </trkpt>
      <trkpt lat="43.46023" lon="6.46022">
        <ele>228.3</ele>
        <time>2020-01-19T12:16:30Z</time>
      </trkpt>
      <trkpt lat="43.46022" lon="6.46035">
        <ele>228.2</ele>
        <time>2020-01-19T12:16:38Z</time>
      </trkpt>
      <trkpt lat="43.46024" lon="6.46048">
        <ele>228</ele>
        <time>2020-01-19T12:16:47Z</time>
      </trkpt>
      <trkpt lat="43.46023" lon="6.46061">
        <ele>227.8</ele>
        <time>2020-01-19T12:16:54Z</time>
      </trkpt>
      <trkpt lat="43.46018" lon="6.46072">
        <ele>227.5</ele>
        <time>2020-01-19T12:17:03Z</time>
      </trkpt>
      <trkpt lat="43.46019" lon="6.46086">
        <ele>227.1</ele>
        <time>2020-01-19T12:17:12Z</time>
      </trkpt>
      <trkpt lat="43.46025" lon="6.46098">
        <ele>226.9</ele>
        <time>2020-01-19T12:17:20Z</time>
      </trkpt>
      <trkpt lat="43.4603" lon="6.46108">
        <ele>226.9</ele>
        <time>2020-01-19T12:17:28Z</time>
      </trkpt>
      <trkpt lat="43.46037" lon="6.46115">
        <ele>226.8</ele>
        <time>2020-01-19T12:17:38Z</time>
      </trkpt>
      <trkpt lat="43.46035" lon="6.46133">
        <ele>226.8</ele>
        <time>2020-01-19T12:17:51Z</time>
      </trkpt>
      <trkpt lat="43.46035" lon="6.46146">
        <ele>226.5</ele>
        <time>2020-01-19T12:17:59Z</time>
      </trkpt>
      <trkpt lat="43.46036" lon="6.46159">
        <ele>226.1</ele>
        <time>2020-01-19T12:18:10Z</time>
      </trkpt>
      <trkpt lat="43.46036" lon="6.46172">
        <ele>226.2</ele>
        <time>2020-01-19T12:18:17Z</time>
      </trkpt>
      <trkpt lat="43.46037" lon="6.46185">
        <ele>226.2</ele>
        <time>2020-01-19T12:18:25Z</time>
      </trkpt>
      <trkpt lat="43.46034" lon="6.46198">
        <ele>226.3</ele>
        <time>2020-01-19T12:18:33Z</time>
      </trkpt>
      <trkpt lat="43.46039" lon="6.46209">
        <ele>226.2</ele>
        <time>2020-01-19T12:18:42Z</time>
      </trkpt>
      <trkpt lat="43.4604" lon="6.46223">
        <ele>226.2</ele>
        <time>2020-01-19T12:18:49Z</time>
      </trkpt>
      <trkpt lat="43.46044" lon="6.46236">
        <ele>226</ele>
        <time>2020-01-19T12:18:56Z</time>
      </trkpt>
      <trkpt lat="43.46046" lon="6.46248">
        <ele>225.9</ele>
        <time>2020-01-19T12:19:05Z</time>
      </trkpt>
      <trkpt lat="43.46049" lon="6.46261">
        <ele>225.7</ele>
        <time>2020-01-19T12:19:14Z</time>
      </trkpt>
      <trkpt lat="43.46047" lon="6.46274">
        <ele>225.6</ele>
        <time>2020-01-19T12:19:23Z</time>
      </trkpt>
      <trkpt lat="43.46051" lon="6.46286">
        <ele>225.6</ele>
        <time>2020-01-19T12:19:31Z</time>
      </trkpt>
      <trkpt lat="43.46052" lon="6.463">
        <ele>225.6</ele>
        <time>2020-01-19T12:19:40Z</time>
      </trkpt>
      <trkpt lat="43.46054" lon="6.46315">
        <ele>225.3</ele>
        <time>2020-01-19T12:19:47Z</time>
      </trkpt>
      <trkpt lat="43.46058" lon="6.46327">
        <ele>224.9</ele>
        <time>2020-01-19T12:19:56Z</time>
      </trkpt>
      <trkpt lat="43.4606" lon="6.46341">
        <ele>224.6</ele>
        <time>2020-01-19T12:20:05Z</time>
      </trkpt>
      <trkpt lat="43.4606" lon="6.46353">
        <ele>224.5</ele>
        <time>2020-01-19T12:20:13Z</time>
      </trkpt>
      <trkpt lat="43.46062" lon="6.46367">
        <ele>223.7</ele>
        <time>2020-01-19T12:20:30Z</time>
      </trkpt>
      <trkpt lat="43.46062" lon="6.46381">
        <ele>223</ele>
        <time>2020-01-19T12:20:41Z</time>
      </trkpt>
      <trkpt lat="43.46063" lon="6.46394">
        <ele>223.5</ele>
        <time>2020-01-19T12:20:52Z</time>
      </trkpt>
      <trkpt lat="43.46067" lon="6.46406">
        <ele>223.1</ele>
        <time>2020-01-19T12:20:59Z</time>
      </trkpt>
      <trkpt lat="43.46073" lon="6.46416">
        <ele>222.7</ele>
        <time>2020-01-19T12:21:14Z</time>
      </trkpt>
      <trkpt lat="43.46073" lon="6.46429">
        <ele>222.5</ele>
        <time>2020-01-19T12:21:24Z</time>
      </trkpt>
      <trkpt lat="43.46069" lon="6.46441">
        <ele>222.5</ele>
        <time>2020-01-19T12:21:33Z</time>
      </trkpt>
      <trkpt lat="43.4607" lon="6.46454">
        <ele>222.3</ele>
        <time>2020-01-19T12:21:46Z</time>
      </trkpt>
      <trkpt lat="43.46074" lon="6.46466">
        <ele>222</ele>
        <time>2020-01-19T12:21:51Z</time>
      </trkpt>
      <trkpt lat="43.46079" lon="6.46477">
        <ele>221.2</ele>
        <time>2020-01-19T12:22:01Z</time>
      </trkpt>
      <trkpt lat="43.4608" lon="6.46491">
        <ele>220.7</ele>
        <time>2020-01-19T12:22:08Z</time>
      </trkpt>
      <trkpt lat="43.46084" lon="6.46502">
        <ele>219.5</ele>
        <time>2020-01-19T12:22:32Z</time>
      </trkpt>
      <trkpt lat="43.4609" lon="6.46513">
        <ele>219.7</ele>
        <time>2020-01-19T12:22:44Z</time>
      </trkpt>
      <trkpt lat="43.46093" lon="6.46525">
        <ele>219</ele>
        <time>2020-01-19T12:22:54Z</time>
      </trkpt>
      <trkpt lat="43.46098" lon="6.46536">
        <ele>217.6</ele>
        <time>2020-01-19T12:23:03Z</time>
      </trkpt>
      <trkpt lat="43.46101" lon="6.46549">
        <ele>216.2</ele>
        <time>2020-01-19T12:23:13Z</time>
      </trkpt>
      <trkpt lat="43.46104" lon="6.46561">
        <ele>215</ele>
        <time>2020-01-19T12:23:24Z</time>
      </trkpt>
      <trkpt lat="43.46108" lon="6.46573">
        <ele>213.7</ele>
        <time>2020-01-19T12:23:33Z</time>
      </trkpt>
      <trkpt lat="43.46113" lon="6.46583">
        <ele>212.5</ele>
        <time>2020-01-19T12:23:40Z</time>
      </trkpt>
      <trkpt lat="43.46117" lon="6.46595">
        <ele>210.8</ele>
        <time>2020-01-19T12:23:51Z</time>
      </trkpt>
      <trkpt lat="43.46122" lon="6.46607">
        <ele>209.8</ele>
        <time>2020-01-19T12:23:59Z</time>
      </trkpt>
      <trkpt lat="43.46125" lon="6.46619">
        <ele>209.2</ele>
        <time>2020-01-19T12:24:07Z</time>
      </trkpt>
      <trkpt lat="43.4613" lon="6.46631">
        <ele>208.6</ele>
        <time>2020-01-19T12:24:16Z</time>
      </trkpt>
      <trkpt lat="43.4614" lon="6.46635">
        <ele>207.8</ele>
        <time>2020-01-19T12:24:24Z</time>
      </trkpt>
      <trkpt lat="43.46149" lon="6.4664">
        <ele>207.4</ele>
        <time>2020-01-19T12:24:30Z</time>
      </trkpt>
      <trkpt lat="43.46159" lon="6.46638">
        <ele>206.3</ele>
        <time>2020-01-19T12:24:41Z</time>
      </trkpt>
      <trkpt lat="43.4617" lon="6.46638">
        <ele>205.8</ele>
        <time>2020-01-19T12:24:48Z</time>
      </trkpt>
      <trkpt lat="43.46178" lon="6.46644">
        <ele>205.2</ele>
        <time>2020-01-19T12:24:57Z</time>
      </trkpt>
      <trkpt lat="43.4618" lon="6.46657">
        <ele>203.5</ele>
        <time>2020-01-19T12:25:12Z</time>
      </trkpt>
      <trkpt lat="43.46181" lon="6.46671">
        <ele>202.5</ele>
        <time>2020-01-19T12:25:23Z</time>
      </trkpt>
      <trkpt lat="43.46181" lon="6.46684">
        <ele>201.4</ele>
        <time>2020-01-19T12:25:31Z</time>
      </trkpt>
      <trkpt lat="43.46184" lon="6.46696">
        <ele>199.5</ele>
        <time>2020-01-19T12:25:43Z</time>
      </trkpt>
      <trkpt lat="43.46194" lon="6.46699">
        <ele>197.1</ele>
        <time>2020-01-19T12:25:56Z</time>
      </trkpt>
      <trkpt lat="43.46203" lon="6.46694">
        <ele>196.1</ele>
        <time>2020-01-19T12:26:03Z</time>
      </trkpt>
      <trkpt lat="43.46213" lon="6.46688">
        <ele>194.6</ele>
        <time>2020-01-19T12:26:13Z</time>
      </trkpt>
      <trkpt lat="43.46222" lon="6.46691">
        <ele>193</ele>
        <time>2020-01-19T12:26:29Z</time>
      </trkpt>
      <trkpt lat="43.46226" lon="6.46702">
        <ele>190.3</ele>
        <time>2020-01-19T12:26:51Z</time>
      </trkpt>
      <trkpt lat="43.46234" lon="6.46708">
        <ele>188.4</ele>
        <time>2020-01-19T12:27:06Z</time>
      </trkpt>
      <trkpt lat="43.46242" lon="6.46715">
        <ele>186.6</ele>
        <time>2020-01-19T12:27:23Z</time>
      </trkpt>
      <trkpt lat="43.46251" lon="6.46718">
        <ele>184.8</ele>
        <time>2020-01-19T12:27:42Z</time>
      </trkpt>
      <trkpt lat="43.4626" lon="6.46714">
        <ele>183.6</ele>
        <time>2020-01-19T12:27:53Z</time>
      </trkpt>
      <trkpt lat="43.46269" lon="6.46717">
        <ele>181.7</ele>
        <time>2020-01-19T12:28:07Z</time>
      </trkpt>
      <trkpt lat="43.4627" lon="6.4673">
        <ele>180</ele>
        <time>2020-01-19T12:28:22Z</time>
      </trkpt>
      <trkpt lat="43.46275" lon="6.46741">
        <ele>178.3</ele>
        <time>2020-01-19T12:28:37Z</time>
      </trkpt>
      <trkpt lat="43.46277" lon="6.46753">
        <ele>177.1</ele>
        <time>2020-01-19T12:28:46Z</time>
      </trkpt>
      <trkpt lat="43.46287" lon="6.46751">
        <ele>175.7</ele>
        <time>2020-01-19T12:28:57Z</time>
      </trkpt>
      <trkpt lat="43.46296" lon="6.46749">
        <ele>174.5</ele>
        <time>2020-01-19T12:29:07Z</time>
      </trkpt>
      <trkpt lat="43.46305" lon="6.46754">
        <ele>171.7</ele>
        <time>2020-01-19T12:29:30Z</time>
      </trkpt>
      <trkpt lat="43.46305" lon="6.46768">
        <ele>170.2</ele>
        <time>2020-01-19T12:29:42Z</time>
      </trkpt>
      <trkpt lat="43.46312" lon="6.46774">
        <ele>168.6</ele>
        <time>2020-01-19T12:29:55Z</time>
      </trkpt>
      <trkpt lat="43.46321" lon="6.46776">
        <ele>166.1</ele>
        <time>2020-01-19T12:30:15Z</time>
      </trkpt>
      <trkpt lat="43.46328" lon="6.46767">
        <ele>164.5</ele>
        <time>2020-01-19T12:30:27Z</time>
      </trkpt>
      <trkpt lat="43.4633" lon="6.46755">
        <ele>161.8</ele>
        <time>2020-01-19T12:30:53Z</time>
      </trkpt>
      <trkpt lat="43.46337" lon="6.46747">
        <ele>160.6</ele>
        <time>2020-01-19T12:31:10Z</time>
      </trkpt>
      <trkpt lat="43.46336" lon="6.46759">
        <ele>158.4</ele>
        <time>2020-01-19T12:31:40Z</time>
      </trkpt>
      <trkpt lat="43.46341" lon="6.4677">
        <ele>156.8</ele>
        <time>2020-01-19T12:31:58Z</time>
      </trkpt>
      <trkpt lat="43.46344" lon="6.46783">
        <ele>155.1</ele>
        <time>2020-01-19T12:32:13Z</time>
      </trkpt>
      <trkpt lat="43.46347" lon="6.46794">
        <ele>154</ele>
        <time>2020-01-19T12:32:24Z</time>
      </trkpt>
      <trkpt lat="43.46343" lon="6.46806">
        <ele>152.5</ele>
        <time>2020-01-19T12:32:38Z</time>
      </trkpt>
      <trkpt lat="43.46334" lon="6.46812">
        <ele>151.7</ele>
        <time>2020-01-19T12:32:47Z</time>
      </trkpt>
      <trkpt lat="43.46331" lon="6.46823">
        <ele>150.4</ele>
        <time>2020-01-19T12:32:59Z</time>
      </trkpt>
      <trkpt lat="43.46325" lon="6.46834">
        <ele>149</ele>
        <time>2020-01-19T12:33:15Z</time>
      </trkpt>
      <trkpt lat="43.46318" lon="6.46842">
        <ele>148.1</ele>
        <time>2020-01-19T12:33:26Z</time>
      </trkpt>
      <trkpt lat="43.46314" lon="6.46854">
        <ele>145.9</ele>
        <time>2020-01-19T12:33:45Z</time>
      </trkpt>
      <trkpt lat="43.46322" lon="6.46862">
        <ele>144.9</ele>
        <time>2020-01-19T12:33:56Z</time>
      </trkpt>
      <trkpt lat="43.46331" lon="6.46868">
        <ele>143.8</ele>
        <time>2020-01-19T12:34:08Z</time>
      </trkpt>
      <trkpt lat="43.4634" lon="6.4687">
        <ele>142.4</ele>
        <time>2020-01-19T12:34:24Z</time>
      </trkpt>
      <trkpt lat="43.4634" lon="6.46883">
        <ele>140</ele>
        <time>2020-01-19T12:35:52Z</time>
      </trkpt>
      <trkpt lat="43.46342" lon="6.46896">
        <ele>138.7</ele>
        <time>2020-01-19T12:36:05Z</time>
      </trkpt>
      <trkpt lat="43.46346" lon="6.46907">
        <ele>137.2</ele>
        <time>2020-01-19T12:36:19Z</time>
      </trkpt>
      <trkpt lat="43.4635" lon="6.4692">
        <ele>135.9</ele>
        <time>2020-01-19T12:36:30Z</time>
      </trkpt>
      <trkpt lat="43.46356" lon="6.46931">
        <ele>134.6</ele>
        <time>2020-01-19T12:36:39Z</time>
      </trkpt>
      <trkpt lat="43.46361" lon="6.46942">
        <ele>132.2</ele>
        <time>2020-01-19T12:36:52Z</time>
      </trkpt>
      <trkpt lat="43.46369" lon="6.46949">
        <ele>130.5</ele>
        <time>2020-01-19T12:37:04Z</time>
      </trkpt>
      <trkpt lat="43.46374" lon="6.4696">
        <ele>128.9</ele>
        <time>2020-01-19T12:37:13Z</time>
      </trkpt>
      <trkpt lat="43.4638" lon="6.4697">
        <ele>127.5</ele>
        <time>2020-01-19T12:37:22Z</time>
      </trkpt>
      <trkpt lat="43.46382" lon="6.46983">
        <ele>126.6</ele>
        <time>2020-01-19T12:37:31Z</time>
      </trkpt>
      <trkpt lat="43.46391" lon="6.4699">
        <ele>126</ele>
        <time>2020-01-19T12:37:40Z</time>
      </trkpt>
      <trkpt lat="43.46393" lon="6.47003">
        <ele>125.7</ele>
        <time>2020-01-19T12:37:48Z</time>
      </trkpt>
      <trkpt lat="43.46389" lon="6.47014">
        <ele>124.9</ele>
        <time>2020-01-19T12:38:04Z</time>
      </trkpt>
      <trkpt lat="43.46383" lon="6.47025">
        <ele>124.7</ele>
        <time>2020-01-19T12:38:12Z</time>
      </trkpt>
      <trkpt lat="43.46376" lon="6.47034">
        <ele>124.6</ele>
        <time>2020-01-19T12:38:24Z</time>
      </trkpt>
      <trkpt lat="43.46369" lon="6.47043">
        <ele>124.4</ele>
        <time>2020-01-19T12:38:30Z</time>
      </trkpt>
      <trkpt lat="43.46361" lon="6.47051">
        <ele>124.3</ele>
        <time>2020-01-19T12:38:39Z</time>
      </trkpt>
      <trkpt lat="43.46355" lon="6.47061">
        <ele>124.2</ele>
        <time>2020-01-19T12:38:47Z</time>
      </trkpt>
      <trkpt lat="43.46349" lon="6.4707">
        <ele>124</ele>
        <time>2020-01-19T12:38:55Z</time>
      </trkpt>
      <trkpt lat="43.46344" lon="6.47082">
        <ele>124.1</ele>
        <time>2020-01-19T12:39:05Z</time>
      </trkpt>
      <trkpt lat="43.46335" lon="6.47091">
        <ele>124.2</ele>
        <time>2020-01-19T12:39:14Z</time>
      </trkpt>
      <trkpt lat="43.46327" lon="6.47098">
        <ele>124.1</ele>
        <time>2020-01-19T12:39:20Z</time>
      </trkpt>
      <trkpt lat="43.46322" lon="6.47109">
        <ele>123.6</ele>
        <time>2020-01-19T12:39:31Z</time>
      </trkpt>
      <trkpt lat="43.46317" lon="6.4712">
        <ele>123.5</ele>
        <time>2020-01-19T12:39:37Z</time>
      </trkpt>
      <trkpt lat="43.46315" lon="6.47132">
        <ele>123.4</ele>
        <time>2020-01-19T12:39:46Z</time>
      </trkpt>
      <trkpt lat="43.46311" lon="6.47144">
        <ele>123.2</ele>
        <time>2020-01-19T12:39:53Z</time>
      </trkpt>
      <trkpt lat="43.46309" lon="6.47157">
        <ele>123.1</ele>
        <time>2020-01-19T12:39:59Z</time>
      </trkpt>
      <trkpt lat="43.46306" lon="6.4717">
        <ele>123.1</ele>
        <time>2020-01-19T12:40:07Z</time>
      </trkpt>
      <trkpt lat="43.463" lon="6.47182">
        <ele>122.9</ele>
        <time>2020-01-19T12:40:17Z</time>
      </trkpt>
      <trkpt lat="43.46297" lon="6.47194">
        <ele>123</ele>
        <time>2020-01-19T12:40:24Z</time>
      </trkpt>
      <trkpt lat="43.46293" lon="6.47207">
        <ele>123</ele>
        <time>2020-01-19T12:40:34Z</time>
      </trkpt>
      <trkpt lat="43.46289" lon="6.47219">
        <ele>123.1</ele>
        <time>2020-01-19T12:40:44Z</time>
      </trkpt>
      <trkpt lat="43.46284" lon="6.4723">
        <ele>123.1</ele>
        <time>2020-01-19T12:40:53Z</time>
      </trkpt>
      <trkpt lat="43.46278" lon="6.47242">
        <ele>122.9</ele>
        <time>2020-01-19T12:41:02Z</time>
      </trkpt>
      <trkpt lat="43.46268" lon="6.47241">
        <ele>122.7</ele>
        <time>2020-01-19T12:41:14Z</time>
      </trkpt>
      <trkpt lat="43.4626" lon="6.47232">
        <ele>122.8</ele>
        <time>2020-01-19T12:41:23Z</time>
      </trkpt>
      <trkpt lat="43.46251" lon="6.47226">
        <ele>122.9</ele>
        <time>2020-01-19T12:41:33Z</time>
      </trkpt>
      <trkpt lat="43.46243" lon="6.47219">
        <ele>123</ele>
        <time>2020-01-19T12:41:45Z</time>
      </trkpt>
      <trkpt lat="43.46234" lon="6.47216">
        <ele>123</ele>
        <time>2020-01-19T12:41:56Z</time>
      </trkpt>
      <trkpt lat="43.46225" lon="6.47211">
        <ele>123</ele>
        <time>2020-01-19T12:42:05Z</time>
      </trkpt>
      <trkpt lat="43.46216" lon="6.47207">
        <ele>123</ele>
        <time>2020-01-19T12:42:14Z</time>
      </trkpt>
      <trkpt lat="43.46208" lon="6.47199">
        <ele>123</ele>
        <time>2020-01-19T12:42:22Z</time>
      </trkpt>
      <trkpt lat="43.46199" lon="6.47199">
        <ele>123.3</ele>
        <time>2020-01-19T12:42:42Z</time>
      </trkpt>
      <trkpt lat="43.46192" lon="6.4719">
        <ele>123.3</ele>
        <time>2020-01-19T12:43:06Z</time>
      </trkpt>
      <trkpt lat="43.46184" lon="6.47183">
        <ele>122.8</ele>
        <time>2020-01-19T12:43:20Z</time>
      </trkpt>
      <trkpt lat="43.46175" lon="6.47174">
        <ele>122.4</ele>
        <time>2020-01-19T12:43:29Z</time>
      </trkpt>
      <trkpt lat="43.46165" lon="6.4717">
        <ele>122.3</ele>
        <time>2020-01-19T12:43:37Z</time>
      </trkpt>
      <trkpt lat="43.46157" lon="6.47165">
        <ele>122.1</ele>
        <time>2020-01-19T12:43:42Z</time>
      </trkpt>
      <trkpt lat="43.46148" lon="6.4716">
        <ele>121.9</ele>
        <time>2020-01-19T12:43:51Z</time>
      </trkpt>
      <trkpt lat="43.46139" lon="6.47154">
        <ele>121.8</ele>
        <time>2020-01-19T12:43:57Z</time>
      </trkpt>
      <trkpt lat="43.4613" lon="6.47149">
        <ele>121.7</ele>
        <time>2020-01-19T12:44:07Z</time>
      </trkpt>
      <trkpt lat="43.46121" lon="6.47143">
        <ele>121.7</ele>
        <time>2020-01-19T12:44:12Z</time>
      </trkpt>
      <trkpt lat="43.46113" lon="6.47137">
        <ele>121.7</ele>
        <time>2020-01-19T12:44:22Z</time>
      </trkpt>
      <trkpt lat="43.46106" lon="6.4713">
        <ele>121.8</ele>
        <time>2020-01-19T12:44:29Z</time>
      </trkpt>
      <trkpt lat="43.46097" lon="6.47124">
        <ele>122</ele>
        <time>2020-01-19T12:44:35Z</time>
      </trkpt>
      <trkpt lat="43.46089" lon="6.4712">
        <ele>122</ele>
        <time>2020-01-19T12:44:45Z</time>
      </trkpt>
      <trkpt lat="43.4608" lon="6.47117">
        <ele>122</ele>
        <time>2020-01-19T12:44:51Z</time>
      </trkpt>
      <trkpt lat="43.46072" lon="6.4711">
        <ele>121.9</ele>
        <time>2020-01-19T12:44:57Z</time>
      </trkpt>
      <trkpt lat="43.46068" lon="6.47098">
        <ele>121.7</ele>
        <time>2020-01-19T12:45:05Z</time>
      </trkpt>
      <trkpt lat="43.46064" lon="6.47085">
        <ele>121.7</ele>
        <time>2020-01-19T12:45:13Z</time>
      </trkpt>
      <trkpt lat="43.4606" lon="6.47073">
        <ele>121.4</ele>
        <time>2020-01-19T12:45:21Z</time>
      </trkpt>
      <trkpt lat="43.46057" lon="6.47059">
        <ele>121.1</ele>
        <time>2020-01-19T12:45:30Z</time>
      </trkpt>
      <trkpt lat="43.46052" lon="6.47048">
        <ele>121.4</ele>
        <time>2020-01-19T12:45:37Z</time>
      </trkpt>
      <trkpt lat="43.46047" lon="6.47038">
        <ele>121.5</ele>
        <time>2020-01-19T12:45:46Z</time>
      </trkpt>
      <trkpt lat="43.46045" lon="6.47024">
        <ele>121.6</ele>
        <time>2020-01-19T12:45:56Z</time>
      </trkpt>
      <trkpt lat="43.46045" lon="6.47011">
        <ele>121.7</ele>
        <time>2020-01-19T12:46:02Z</time>
      </trkpt>
      <trkpt lat="43.4604" lon="6.46999">
        <ele>122.2</ele>
        <time>2020-01-19T12:46:13Z</time>
      </trkpt>
      <trkpt lat="43.46033" lon="6.4699">
        <ele>122.4</ele>
        <time>2020-01-19T12:46:19Z</time>
      </trkpt>
      <trkpt lat="43.46023" lon="6.46987">
        <ele>122.6</ele>
        <time>2020-01-19T12:46:27Z</time>
      </trkpt>
      <trkpt lat="43.46014" lon="6.46987">
        <ele>122.9</ele>
        <time>2020-01-19T12:46:38Z</time>
      </trkpt>
      <trkpt lat="43.46016" lon="6.46975">
        <ele>122.8</ele>
        <time>2020-01-19T12:47:20Z</time>
      </trkpt>
      <trkpt lat="43.46018" lon="6.46962">
        <ele>123</ele>
        <time>2020-01-19T12:47:40Z</time>
      </trkpt>
      <trkpt lat="43.46017" lon="6.46949">
        <ele>123.3</ele>
        <time>2020-01-19T12:47:52Z</time>
      </trkpt>
      <trkpt lat="43.46015" lon="6.46937">
        <ele>123.8</ele>
        <time>2020-01-19T12:48:03Z</time>
      </trkpt>
      <trkpt lat="43.46014" lon="6.46924">
        <ele>124.8</ele>
        <time>2020-01-19T12:48:29Z</time>
      </trkpt>
      <trkpt lat="43.46019" lon="6.46912">
        <ele>125</ele>
        <time>2020-01-19T12:48:39Z</time>
      </trkpt>
      <trkpt lat="43.4602" lon="6.46899">
        <ele>125.8</ele>
        <time>2020-01-19T12:48:51Z</time>
      </trkpt>
      <trkpt lat="43.46019" lon="6.46887">
        <ele>126.2</ele>
        <time>2020-01-19T12:49:00Z</time>
      </trkpt>
      <trkpt lat="43.46018" lon="6.46874">
        <ele>126.6</ele>
        <time>2020-01-19T12:49:09Z</time>
      </trkpt>
      <trkpt lat="43.46017" lon="6.4686">
        <ele>127</ele>
        <time>2020-01-19T12:49:19Z</time>
      </trkpt>
      <trkpt lat="43.46019" lon="6.46847">
        <ele>127.8</ele>
        <time>2020-01-19T12:49:29Z</time>
      </trkpt>
      <trkpt lat="43.46019" lon="6.46834">
        <ele>128.6</ele>
        <time>2020-01-19T12:49:39Z</time>
      </trkpt>
      <trkpt lat="43.46018" lon="6.4682">
        <ele>129.3</ele>
        <time>2020-01-19T12:49:49Z</time>
      </trkpt>
      <trkpt lat="43.46014" lon="6.46808">
        <ele>130.3</ele>
        <time>2020-01-19T12:50:00Z</time>
      </trkpt>
      <trkpt lat="43.46011" lon="6.46794">
        <ele>130.6</ele>
        <time>2020-01-19T12:50:08Z</time>
      </trkpt>
      <trkpt lat="43.46008" lon="6.46781">
        <ele>131.1</ele>
        <time>2020-01-19T12:50:16Z</time>
      </trkpt>
      <trkpt lat="43.46002" lon="6.46771">
        <ele>131.4</ele>
        <time>2020-01-19T12:50:23Z</time>
      </trkpt>
      <trkpt lat="43.45995" lon="6.46763">
        <ele>131.6</ele>
        <time>2020-01-19T12:50:30Z</time>
      </trkpt>
      <trkpt lat="43.45985" lon="6.46764">
        <ele>131.8</ele>
        <time>2020-01-19T12:50:38Z</time>
      </trkpt>
      <trkpt lat="43.45976" lon="6.46759">
        <ele>131.5</ele>
        <time>2020-01-19T12:50:47Z</time>
      </trkpt>
      <trkpt lat="43.45969" lon="6.4675">
        <ele>131.3</ele>
        <time>2020-01-19T12:50:55Z</time>
      </trkpt>
      <trkpt lat="43.45962" lon="6.46742">
        <ele>131.1</ele>
        <time>2020-01-19T12:51:05Z</time>
      </trkpt>
      <trkpt lat="43.45956" lon="6.46732">
        <ele>130.9</ele>
        <time>2020-01-19T12:51:16Z</time>
      </trkpt>
      <trkpt lat="43.4595" lon="6.46722">
        <ele>130.5</ele>
        <time>2020-01-19T12:51:24Z</time>
      </trkpt>
      <trkpt lat="43.45942" lon="6.46713">
        <ele>130.1</ele>
        <time>2020-01-19T12:51:32Z</time>
      </trkpt>
      <trkpt lat="43.45934" lon="6.46706">
        <ele>129.4</ele>
        <time>2020-01-19T12:51:41Z</time>
      </trkpt>
      <trkpt lat="43.45926" lon="6.46698">
        <ele>128.7</ele>
        <time>2020-01-19T12:51:53Z</time>
      </trkpt>
      <trkpt lat="43.45919" lon="6.4669">
        <ele>128.2</ele>
        <time>2020-01-19T12:52:00Z</time>
      </trkpt>
      <trkpt lat="43.45912" lon="6.4668">
        <ele>127.7</ele>
        <time>2020-01-19T12:52:10Z</time>
      </trkpt>
      <trkpt lat="43.45906" lon="6.46671">
        <ele>127.2</ele>
        <time>2020-01-19T12:52:18Z</time>
      </trkpt>
      <trkpt lat="43.459" lon="6.4666">
        <ele>126.6</ele>
        <time>2020-01-19T12:52:26Z</time>
      </trkpt>
      <trkpt lat="43.45894" lon="6.4665">
        <ele>125.8</ele>
        <time>2020-01-19T12:52:36Z</time>
      </trkpt>
      <trkpt lat="43.45892" lon="6.46637">
        <ele>125.2</ele>
        <time>2020-01-19T12:52:43Z</time>
      </trkpt>
      <trkpt lat="43.45894" lon="6.46623">
        <ele>124.8</ele>
        <time>2020-01-19T12:52:51Z</time>
      </trkpt>
      <trkpt lat="43.45898" lon="6.4661">
        <ele>124.6</ele>
        <time>2020-01-19T12:52:58Z</time>
      </trkpt>
      <trkpt lat="43.45895" lon="6.46597">
        <ele>124.6</ele>
        <time>2020-01-19T12:53:04Z</time>
      </trkpt>
      <trkpt lat="43.45894" lon="6.46585">
        <ele>124.6</ele>
        <time>2020-01-19T12:53:13Z</time>
      </trkpt>
      <trkpt lat="43.45888" lon="6.46575">
        <ele>124.6</ele>
        <time>2020-01-19T12:53:19Z</time>
      </trkpt>
      <trkpt lat="43.45883" lon="6.46562">
        <ele>124.3</ele>
        <time>2020-01-19T12:53:28Z</time>
      </trkpt>
      <trkpt lat="43.45878" lon="6.46551">
        <ele>124.3</ele>
        <time>2020-01-19T12:53:37Z</time>
      </trkpt>
      <trkpt lat="43.45872" lon="6.4654">
        <ele>124.4</ele>
        <time>2020-01-19T12:53:44Z</time>
      </trkpt>
      <trkpt lat="43.45869" lon="6.46528">
        <ele>124.4</ele>
        <time>2020-01-19T12:53:52Z</time>
      </trkpt>
      <trkpt lat="43.45866" lon="6.46516">
        <ele>124.4</ele>
        <time>2020-01-19T12:53:58Z</time>
      </trkpt>
      <trkpt lat="43.45864" lon="6.46503">
        <ele>124.4</ele>
        <time>2020-01-19T12:54:05Z</time>
      </trkpt>
      <trkpt lat="43.45861" lon="6.46491">
        <ele>123.9</ele>
        <time>2020-01-19T12:54:16Z</time>
      </trkpt>
      <trkpt lat="43.45854" lon="6.46482">
        <ele>123.8</ele>
        <time>2020-01-19T12:54:21Z</time>
      </trkpt>
      <trkpt lat="43.45847" lon="6.46475">
        <ele>123.7</ele>
        <time>2020-01-19T12:54:29Z</time>
      </trkpt>
      <trkpt lat="43.4584" lon="6.46465">
        <ele>123.7</ele>
        <time>2020-01-19T12:54:36Z</time>
      </trkpt>
      <trkpt lat="43.45837" lon="6.46452">
        <ele>124.2</ele>
        <time>2020-01-19T12:54:46Z</time>
      </trkpt>
      <trkpt lat="43.45832" lon="6.4644">
        <ele>124.7</ele>
        <time>2020-01-19T12:54:56Z</time>
      </trkpt>
      <trkpt lat="43.4583" lon="6.46426">
        <ele>125.1</ele>
        <time>2020-01-19T12:55:05Z</time>
      </trkpt>
      <trkpt lat="43.45829" lon="6.46414">
        <ele>125.3</ele>
        <time>2020-01-19T12:55:12Z</time>
      </trkpt>
      <trkpt lat="43.45828" lon="6.464">
        <ele>125.9</ele>
        <time>2020-01-19T12:55:22Z</time>
      </trkpt>
      <trkpt lat="43.45827" lon="6.46387">
        <ele>126.5</ele>
        <time>2020-01-19T12:55:28Z</time>
      </trkpt>
      <trkpt lat="43.45829" lon="6.46375">
        <ele>126.7</ele>
        <time>2020-01-19T12:55:37Z</time>
      </trkpt>
      <trkpt lat="43.45826" lon="6.46362">
        <ele>126.6</ele>
        <time>2020-01-19T12:55:46Z</time>
      </trkpt>
      <trkpt lat="43.45832" lon="6.46352">
        <ele>126.5</ele>
        <time>2020-01-19T12:56:05Z</time>
      </trkpt>
      <trkpt lat="43.45836" lon="6.46339">
        <ele>126.2</ele>
        <time>2020-01-19T12:56:14Z</time>
      </trkpt>
      <trkpt lat="43.45843" lon="6.4633">
        <ele>125.7</ele>
        <time>2020-01-19T12:56:23Z</time>
      </trkpt>
      <trkpt lat="43.45845" lon="6.46316">
        <ele>125.4</ele>
        <time>2020-01-19T12:56:31Z</time>
      </trkpt>
      <trkpt lat="43.45842" lon="6.46303">
        <ele>125.1</ele>
        <time>2020-01-19T12:56:39Z</time>
      </trkpt>
      <trkpt lat="43.45843" lon="6.4629">
        <ele>125.2</ele>
        <time>2020-01-19T12:56:48Z</time>
      </trkpt>
      <trkpt lat="43.45843" lon="6.46277">
        <ele>125.4</ele>
        <time>2020-01-19T12:56:56Z</time>
      </trkpt>
      <trkpt lat="43.45845" lon="6.46264">
        <ele>125.5</ele>
        <time>2020-01-19T12:57:03Z</time>
      </trkpt>
      <trkpt lat="43.45845" lon="6.46252">
        <ele>126.1</ele>
        <time>2020-01-19T12:57:11Z</time>
      </trkpt>
      <trkpt lat="43.45843" lon="6.46239">
        <ele>126.6</ele>
        <time>2020-01-19T12:57:20Z</time>
      </trkpt>
      <trkpt lat="43.45841" lon="6.46226">
        <ele>127.2</ele>
        <time>2020-01-19T12:57:29Z</time>
      </trkpt>
      <trkpt lat="43.45838" lon="6.46214">
        <ele>128.2</ele>
        <time>2020-01-19T12:57:39Z</time>
      </trkpt>
      <trkpt lat="43.45838" lon="6.46202">
        <ele>129.1</ele>
        <time>2020-01-19T12:57:48Z</time>
      </trkpt>
      <trkpt lat="43.45835" lon="6.46189">
        <ele>130.4</ele>
        <time>2020-01-19T12:57:58Z</time>
      </trkpt>
      <trkpt lat="43.45833" lon="6.46176">
        <ele>131.1</ele>
        <time>2020-01-19T12:58:07Z</time>
      </trkpt>
      <trkpt lat="43.45828" lon="6.46164">
        <ele>131.7</ele>
        <time>2020-01-19T12:58:17Z</time>
      </trkpt>
      <trkpt lat="43.45829" lon="6.46151">
        <ele>132.2</ele>
        <time>2020-01-19T12:58:28Z</time>
      </trkpt>
      <trkpt lat="43.45825" lon="6.46139">
        <ele>132.5</ele>
        <time>2020-01-19T12:58:44Z</time>
      </trkpt>
      <trkpt lat="43.45826" lon="6.46126">
        <ele>132.7</ele>
        <time>2020-01-19T12:58:54Z</time>
      </trkpt>
      <trkpt lat="43.45823" lon="6.46112">
        <ele>133.1</ele>
        <time>2020-01-19T12:59:03Z</time>
      </trkpt>
      <trkpt lat="43.4582" lon="6.461">
        <ele>133.1</ele>
        <time>2020-01-19T12:59:12Z</time>
      </trkpt>
      <trkpt lat="43.45818" lon="6.46087">
        <ele>133.1</ele>
        <time>2020-01-19T12:59:24Z</time>
      </trkpt>
      <trkpt lat="43.45817" lon="6.46075">
        <ele>133.1</ele>
        <time>2020-01-19T12:59:31Z</time>
      </trkpt>
      <trkpt lat="43.45815" lon="6.46062">
        <ele>132.9</ele>
        <time>2020-01-19T12:59:38Z</time>
      </trkpt>
      <trkpt lat="43.45814" lon="6.46049">
        <ele>132.9</ele>
        <time>2020-01-19T12:59:46Z</time>
      </trkpt>
      <trkpt lat="43.45816" lon="6.46037">
        <ele>132.8</ele>
        <time>2020-01-19T12:59:53Z</time>
      </trkpt>
      <trkpt lat="43.45812" lon="6.46025">
        <ele>132.5</ele>
        <time>2020-01-19T13:00:00Z</time>
      </trkpt>
      <trkpt lat="43.45808" lon="6.46013">
        <ele>132.2</ele>
        <time>2020-01-19T13:00:08Z</time>
      </trkpt>
      <trkpt lat="43.45809" lon="6.46">
        <ele>131.9</ele>
        <time>2020-01-19T13:00:17Z</time>
      </trkpt>
      <trkpt lat="43.45806" lon="6.45988">
        <ele>131.6</ele>
        <time>2020-01-19T13:00:57Z</time>
      </trkpt>
      <trkpt lat="43.45805" lon="6.45974">
        <ele>132</ele>
        <time>2020-01-19T13:01:11Z</time>
      </trkpt>
      <trkpt lat="43.45801" lon="6.45962">
        <ele>132.1</ele>
        <time>2020-01-19T13:01:20Z</time>
      </trkpt>
      <trkpt lat="43.45793" lon="6.45953">
        <ele>132</ele>
        <time>2020-01-19T13:01:30Z</time>
      </trkpt>
      <trkpt lat="43.45791" lon="6.45941">
        <ele>132.2</ele>
        <time>2020-01-19T13:01:46Z</time>
      </trkpt>
      <trkpt lat="43.4579" lon="6.45928">
        <ele>132.2</ele>
        <time>2020-01-19T13:01:55Z</time>
      </trkpt>
      <trkpt lat="43.45789" lon="6.45916">
        <ele>132.3</ele>
        <time>2020-01-19T13:02:03Z</time>
      </trkpt>
      <trkpt lat="43.45791" lon="6.45903">
        <ele>132.1</ele>
        <time>2020-01-19T13:02:13Z</time>
      </trkpt>
      <trkpt lat="43.45793" lon="6.4589">
        <ele>131.9</ele>
        <time>2020-01-19T13:02:21Z</time>
      </trkpt>
      <trkpt lat="43.4579" lon="6.45877">
        <ele>131.3</ele>
        <time>2020-01-19T13:02:36Z</time>
      </trkpt>
      <trkpt lat="43.45786" lon="6.45865">
        <ele>131.1</ele>
        <time>2020-01-19T13:02:43Z</time>
      </trkpt>
      <trkpt lat="43.45781" lon="6.45852">
        <ele>130.7</ele>
        <time>2020-01-19T13:02:52Z</time>
      </trkpt>
      <trkpt lat="43.45781" lon="6.45839">
        <ele>130.4</ele>
        <time>2020-01-19T13:02:59Z</time>
      </trkpt>
      <trkpt lat="43.45782" lon="6.45825">
        <ele>130.1</ele>
        <time>2020-01-19T13:03:07Z</time>
      </trkpt>
      <trkpt lat="43.45781" lon="6.45812">
        <ele>129.9</ele>
        <time>2020-01-19T13:03:16Z</time>
      </trkpt>
      <trkpt lat="43.45779" lon="6.458">
        <ele>129.9</ele>
        <time>2020-01-19T13:03:25Z</time>
      </trkpt>
      <trkpt lat="43.45779" lon="6.45787">
        <ele>130</ele>
        <time>2020-01-19T13:03:34Z</time>
      </trkpt>
      <trkpt lat="43.45778" lon="6.45774">
        <ele>130.1</ele>
        <time>2020-01-19T13:03:42Z</time>
      </trkpt>
      <trkpt lat="43.45777" lon="6.45761">
        <ele>130.1</ele>
        <time>2020-01-19T13:03:51Z</time>
      </trkpt>
      <trkpt lat="43.45778" lon="6.45748">
        <ele>130.2</ele>
        <time>2020-01-19T13:04:00Z</time>
      </trkpt>
      <trkpt lat="43.45778" lon="6.45735">
        <ele>130.3</ele>
        <time>2020-01-19T13:04:07Z</time>
      </trkpt>
      <trkpt lat="43.45776" lon="6.45722">
        <ele>130.3</ele>
        <time>2020-01-19T13:04:15Z</time>
      </trkpt>
      <trkpt lat="43.45774" lon="6.45709">
        <ele>130.4</ele>
        <time>2020-01-19T13:04:24Z</time>
      </trkpt>
      <trkpt lat="43.45771" lon="6.45697">
        <ele>130.4</ele>
        <time>2020-01-19T13:04:31Z</time>
      </trkpt>
      <trkpt lat="43.45773" lon="6.45684">
        <ele>130.5</ele>
        <time>2020-01-19T13:04:40Z</time>
      </trkpt>
      <trkpt lat="43.45769" lon="6.45671">
        <ele>130.7</ele>
        <time>2020-01-19T13:04:48Z</time>
      </trkpt>
      <trkpt lat="43.45766" lon="6.45658">
        <ele>130.6</ele>
        <time>2020-01-19T13:04:57Z</time>
      </trkpt>
      <trkpt lat="43.45766" lon="6.45645">
        <ele>130.5</ele>
        <time>2020-01-19T13:05:05Z</time>
      </trkpt>
      <trkpt lat="43.45766" lon="6.45631">
        <ele>130.3</ele>
        <time>2020-01-19T13:05:13Z</time>
      </trkpt>
      <trkpt lat="43.45768" lon="6.45618">
        <ele>130.2</ele>
        <time>2020-01-19T13:05:21Z</time>
      </trkpt>
      <trkpt lat="43.45771" lon="6.45605">
        <ele>130</ele>
        <time>2020-01-19T13:05:30Z</time>
      </trkpt>
      <trkpt lat="43.45775" lon="6.45592">
        <ele>129.9</ele>
        <time>2020-01-19T13:05:39Z</time>
      </trkpt>
      <trkpt lat="43.45778" lon="6.45579">
        <ele>129.7</ele>
        <time>2020-01-19T13:05:48Z</time>
      </trkpt>
      <trkpt lat="43.45776" lon="6.45566">
        <ele>129.7</ele>
        <time>2020-01-19T13:05:56Z</time>
      </trkpt>
      <trkpt lat="43.45779" lon="6.45554">
        <ele>129.5</ele>
        <time>2020-01-19T13:06:03Z</time>
      </trkpt>
      <trkpt lat="43.4578" lon="6.45541">
        <ele>129.3</ele>
        <time>2020-01-19T13:06:13Z</time>
      </trkpt>
      <trkpt lat="43.45782" lon="6.45527">
        <ele>129.1</ele>
        <time>2020-01-19T13:06:20Z</time>
      </trkpt>
      <trkpt lat="43.45784" lon="6.45514">
        <ele>129</ele>
        <time>2020-01-19T13:06:29Z</time>
      </trkpt>
      <trkpt lat="43.45787" lon="6.45502">
        <ele>129.1</ele>
        <time>2020-01-19T13:06:35Z</time>
      </trkpt>
      <trkpt lat="43.45791" lon="6.4549">
        <ele>129.1</ele>
        <time>2020-01-19T13:06:43Z</time>
      </trkpt>
      <trkpt lat="43.45792" lon="6.45476">
        <ele>128.9</ele>
        <time>2020-01-19T13:06:52Z</time>
      </trkpt>
      <trkpt lat="43.4579" lon="6.45462">
        <ele>128.8</ele>
        <time>2020-01-19T13:07:00Z</time>
      </trkpt>
      <trkpt lat="43.45786" lon="6.4545">
        <ele>128.7</ele>
        <time>2020-01-19T13:07:07Z</time>
      </trkpt>
      <trkpt lat="43.45786" lon="6.45437">
        <ele>128.7</ele>
        <time>2020-01-19T13:07:15Z</time>
      </trkpt>
      <trkpt lat="43.45786" lon="6.45423">
        <ele>128.7</ele>
        <time>2020-01-19T13:07:23Z</time>
      </trkpt>
      <trkpt lat="43.45785" lon="6.4541">
        <ele>128.8</ele>
        <time>2020-01-19T13:07:32Z</time>
      </trkpt>
      <trkpt lat="43.45787" lon="6.45397">
        <ele>128.7</ele>
        <time>2020-01-19T13:07:41Z</time>
      </trkpt>
      <trkpt lat="43.45787" lon="6.45383">
        <ele>128.7</ele>
        <time>2020-01-19T13:07:49Z</time>
      </trkpt>
      <trkpt lat="43.45788" lon="6.4537">
        <ele>128.4</ele>
        <time>2020-01-19T13:07:56Z</time>
      </trkpt>
      <trkpt lat="43.45788" lon="6.45357">
        <ele>128.1</ele>
        <time>2020-01-19T13:08:05Z</time>
      </trkpt>
      <trkpt lat="43.45788" lon="6.45344">
        <ele>127.9</ele>
        <time>2020-01-19T13:08:13Z</time>
      </trkpt>
      <trkpt lat="43.45789" lon="6.45332">
        <ele>127.7</ele>
        <time>2020-01-19T13:08:21Z</time>
      </trkpt>
      <trkpt lat="43.4579" lon="6.45318">
        <ele>127.4</ele>
        <time>2020-01-19T13:08:30Z</time>
      </trkpt>
      <trkpt lat="43.45791" lon="6.45305">
        <ele>127.2</ele>
        <time>2020-01-19T13:08:38Z</time>
      </trkpt>
      <trkpt lat="43.4579" lon="6.45291">
        <ele>127.1</ele>
        <time>2020-01-19T13:08:46Z</time>
      </trkpt>
      <trkpt lat="43.45789" lon="6.45278">
        <ele>127</ele>
        <time>2020-01-19T13:08:55Z</time>
      </trkpt>
      <trkpt lat="43.45791" lon="6.45265">
        <ele>126.7</ele>
        <time>2020-01-19T13:09:03Z</time>
      </trkpt>
      <trkpt lat="43.45793" lon="6.45252">
        <ele>126.5</ele>
        <time>2020-01-19T13:09:12Z</time>
      </trkpt>
      <trkpt lat="43.45793" lon="6.4524">
        <ele>126.4</ele>
        <time>2020-01-19T13:09:19Z</time>
      </trkpt>
      <trkpt lat="43.45795" lon="6.45227">
        <ele>126.3</ele>
        <time>2020-01-19T13:09:26Z</time>
      </trkpt>
      <trkpt lat="43.45796" lon="6.45214">
        <ele>126.2</ele>
        <time>2020-01-19T13:09:34Z</time>
      </trkpt>
      <trkpt lat="43.45798" lon="6.452">
        <ele>125.4</ele>
        <time>2020-01-19T13:09:44Z</time>
      </trkpt>
      <trkpt lat="43.45799" lon="6.45188">
        <ele>124.7</ele>
        <time>2020-01-19T13:09:53Z</time>
      </trkpt>
      <trkpt lat="43.458" lon="6.45174">
        <ele>124</ele>
        <time>2020-01-19T13:10:01Z</time>
      </trkpt>
      <trkpt lat="43.45799" lon="6.45161">
        <ele>123.3</ele>
        <time>2020-01-19T13:10:10Z</time>
      </trkpt>
      <trkpt lat="43.45801" lon="6.45149">
        <ele>122.8</ele>
        <time>2020-01-19T13:10:18Z</time>
      </trkpt>
      <trkpt lat="43.45803" lon="6.45137">
        <ele>122.6</ele>
        <time>2020-01-19T13:10:26Z</time>
      </trkpt>
      <trkpt lat="43.45803" lon="6.45124">
        <ele>122.4</ele>
        <time>2020-01-19T13:10:35Z</time>
      </trkpt>
      <trkpt lat="43.45804" lon="6.45111">
        <ele>122.2</ele>
        <time>2020-01-19T13:10:42Z</time>
      </trkpt>
      <trkpt lat="43.45807" lon="6.45098">
        <ele>121.9</ele>
        <time>2020-01-19T13:10:50Z</time>
      </trkpt>
      <trkpt lat="43.45808" lon="6.45085">
        <ele>121.2</ele>
        <time>2020-01-19T13:11:01Z</time>
      </trkpt>
      <trkpt lat="43.45805" lon="6.45072">
        <ele>120.6</ele>
        <time>2020-01-19T13:11:11Z</time>
      </trkpt>
      <trkpt lat="43.45804" lon="6.4506">
        <ele>120.5</ele>
        <time>2020-01-19T13:12:01Z</time>
      </trkpt>
      <trkpt lat="43.45803" lon="6.45047">
        <ele>121.1</ele>
        <time>2020-01-19T13:12:14Z</time>
      </trkpt>
      <trkpt lat="43.45802" lon="6.45034">
        <ele>121.7</ele>
        <time>2020-01-19T13:12:25Z</time>
      </trkpt>
      <trkpt lat="43.45804" lon="6.45021">
        <ele>123.1</ele>
        <time>2020-01-19T13:12:51Z</time>
      </trkpt>
      <trkpt lat="43.45803" lon="6.45007">
        <ele>123.5</ele>
        <time>2020-01-19T13:13:01Z</time>
      </trkpt>
      <trkpt lat="43.45803" lon="6.44994">
        <ele>124</ele>
        <time>2020-01-19T13:13:11Z</time>
      </trkpt>
      <trkpt lat="43.45803" lon="6.44981">
        <ele>124.3</ele>
        <time>2020-01-19T13:13:19Z</time>
      </trkpt>
      <trkpt lat="43.45804" lon="6.44967">
        <ele>124.7</ele>
        <time>2020-01-19T13:13:27Z</time>
      </trkpt>
      <trkpt lat="43.45805" lon="6.44954">
        <ele>125</ele>
        <time>2020-01-19T13:13:36Z</time>
      </trkpt>
      <trkpt lat="43.45805" lon="6.44941">
        <ele>125.2</ele>
        <time>2020-01-19T13:13:44Z</time>
      </trkpt>
      <trkpt lat="43.45803" lon="6.44929">
        <ele>125.3</ele>
        <time>2020-01-19T13:13:51Z</time>
      </trkpt>
      <trkpt lat="43.458" lon="6.44916">
        <ele>125.1</ele>
        <time>2020-01-19T13:13:59Z</time>
      </trkpt>
      <trkpt lat="43.45796" lon="6.44904">
        <ele>125</ele>
        <time>2020-01-19T13:14:07Z</time>
      </trkpt>
      <trkpt lat="43.4579" lon="6.44893">
        <ele>124.9</ele>
        <time>2020-01-19T13:14:16Z</time>
      </trkpt>
      <trkpt lat="43.45782" lon="6.44885">
        <ele>124.6</ele>
        <time>2020-01-19T13:14:25Z</time>
      </trkpt>
      <trkpt lat="43.45774" lon="6.4488">
        <ele>124</ele>
        <time>2020-01-19T13:14:34Z</time>
      </trkpt>
      <trkpt lat="43.45765" lon="6.44875">
        <ele>123.6</ele>
        <time>2020-01-19T13:14:41Z</time>
      </trkpt>
      <trkpt lat="43.45758" lon="6.44869">
        <ele>122.4</ele>
        <time>2020-01-19T13:14:52Z</time>
      </trkpt>
      <trkpt lat="43.45752" lon="6.44857">
        <ele>121.8</ele>
        <time>2020-01-19T13:15:02Z</time>
      </trkpt>
      <trkpt lat="43.45748" lon="6.44845">
        <ele>121.3</ele>
        <time>2020-01-19T13:15:12Z</time>
      </trkpt>
      <trkpt lat="43.4575" lon="6.44832">
        <ele>120.9</ele>
        <time>2020-01-19T13:15:20Z</time>
      </trkpt>
      <trkpt lat="43.4575" lon="6.44819">
        <ele>120.7</ele>
        <time>2020-01-19T13:15:34Z</time>
      </trkpt>
      <trkpt lat="43.45749" lon="6.44806">
        <ele>120.7</ele>
        <time>2020-01-19T13:15:42Z</time>
      </trkpt>
      <trkpt lat="43.45749" lon="6.44793">
        <ele>120.7</ele>
        <time>2020-01-19T13:15:52Z</time>
      </trkpt>
      <trkpt lat="43.45749" lon="6.44779">
        <ele>120.9</ele>
        <time>2020-01-19T13:16:02Z</time>
      </trkpt>
      <trkpt lat="43.4575" lon="6.44767">
        <ele>121.4</ele>
        <time>2020-01-19T13:16:14Z</time>
      </trkpt>
      <trkpt lat="43.45757" lon="6.44756">
        <ele>123.2</ele>
        <time>2020-01-19T13:19:48Z</time>
      </trkpt>
      <trkpt lat="43.45761" lon="6.44744">
        <ele>123.6</ele>
        <time>2020-01-19T13:19:58Z</time>
      </trkpt>
      <trkpt lat="43.45764" lon="6.44732">
        <ele>124.7</ele>
        <time>2020-01-19T13:20:11Z</time>
      </trkpt>
      <trkpt lat="43.45768" lon="6.4472">
        <ele>125.7</ele>
        <time>2020-01-19T13:20:22Z</time>
      </trkpt>
      <trkpt lat="43.4577" lon="6.44708">
        <ele>126.3</ele>
        <time>2020-01-19T13:20:34Z</time>
      </trkpt>
      <trkpt lat="43.45773" lon="6.44695">
        <ele>126.7</ele>
        <time>2020-01-19T13:20:45Z</time>
      </trkpt>
      <trkpt lat="43.45775" lon="6.44683">
        <ele>127.6</ele>
        <time>2020-01-19T13:20:56Z</time>
      </trkpt>
      <trkpt lat="43.45776" lon="6.44669">
        <ele>128.4</ele>
        <time>2020-01-19T13:21:08Z</time>
      </trkpt>
      <trkpt lat="43.45775" lon="6.44656">
        <ele>129.1</ele>
        <time>2020-01-19T13:21:17Z</time>
      </trkpt>
      <trkpt lat="43.45776" lon="6.44642">
        <ele>130.2</ele>
        <time>2020-01-19T13:21:28Z</time>
      </trkpt>
      <trkpt lat="43.45775" lon="6.44629">
        <ele>131.3</ele>
        <time>2020-01-19T13:21:38Z</time>
      </trkpt>
      <trkpt lat="43.45776" lon="6.44617">
        <ele>132.2</ele>
        <time>2020-01-19T13:21:48Z</time>
      </trkpt>
      <trkpt lat="43.45776" lon="6.44604">
        <ele>134</ele>
        <time>2020-01-19T13:22:07Z</time>
      </trkpt>
      <trkpt lat="43.45774" lon="6.44591">
        <ele>134.7</ele>
        <time>2020-01-19T13:22:18Z</time>
      </trkpt>
      <trkpt lat="43.45777" lon="6.44579">
        <ele>135.8</ele>
        <time>2020-01-19T13:22:30Z</time>
      </trkpt>
      <trkpt lat="43.45777" lon="6.44566">
        <ele>136.5</ele>
        <time>2020-01-19T13:22:40Z</time>
      </trkpt>
      <trkpt lat="43.45777" lon="6.44553">
        <ele>137</ele>
        <time>2020-01-19T13:22:50Z</time>
      </trkpt>
      <trkpt lat="43.45776" lon="6.4454">
        <ele>138.6</ele>
        <time>2020-01-19T13:23:10Z</time>
      </trkpt>
      <trkpt lat="43.45778" lon="6.44528">
        <ele>139.1</ele>
        <time>2020-01-19T13:24:04Z</time>
      </trkpt>
      <trkpt lat="43.4578" lon="6.44514">
        <ele>139.6</ele>
        <time>2020-01-19T13:24:15Z</time>
      </trkpt>
      <trkpt lat="43.45779" lon="6.44499">
        <ele>139.9</ele>
        <time>2020-01-19T13:24:23Z</time>
      </trkpt>
      <trkpt lat="43.45779" lon="6.44486">
        <ele>140.6</ele>
        <time>2020-01-19T13:24:33Z</time>
      </trkpt>
      <trkpt lat="43.4578" lon="6.44473">
        <ele>140.9</ele>
        <time>2020-01-19T13:24:41Z</time>
      </trkpt>
      <trkpt lat="43.45784" lon="6.44461">
        <ele>141.1</ele>
        <time>2020-01-19T13:24:48Z</time>
      </trkpt>
      <trkpt lat="43.45785" lon="6.44448">
        <ele>141.5</ele>
        <time>2020-01-19T13:24:56Z</time>
      </trkpt>
      <trkpt lat="43.45784" lon="6.44434">
        <ele>141.9</ele>
        <time>2020-01-19T13:25:05Z</time>
      </trkpt>
      <trkpt lat="43.45788" lon="6.44422">
        <ele>142.2</ele>
        <time>2020-01-19T13:25:13Z</time>
      </trkpt>
      <trkpt lat="43.45792" lon="6.4441">
        <ele>142.6</ele>
        <time>2020-01-19T13:25:21Z</time>
      </trkpt>
      <trkpt lat="43.45794" lon="6.44397">
        <ele>143</ele>
        <time>2020-01-19T13:25:31Z</time>
      </trkpt>
      <trkpt lat="43.45798" lon="6.44384">
        <ele>143.5</ele>
        <time>2020-01-19T13:25:42Z</time>
      </trkpt>
      <trkpt lat="43.45803" lon="6.44373">
        <ele>143.8</ele>
        <time>2020-01-19T13:25:50Z</time>
      </trkpt>
      <trkpt lat="43.45808" lon="6.44361">
        <ele>143.9</ele>
        <time>2020-01-19T13:25:59Z</time>
      </trkpt>
      <trkpt lat="43.45813" lon="6.44351">
        <ele>144</ele>
        <time>2020-01-19T13:26:05Z</time>
      </trkpt>
      <trkpt lat="43.45816" lon="6.44338">
        <ele>144.2</ele>
        <time>2020-01-19T13:26:14Z</time>
      </trkpt>
      <trkpt lat="43.45819" lon="6.44326">
        <ele>144.4</ele>
        <time>2020-01-19T13:26:22Z</time>
      </trkpt>
      <trkpt lat="43.45823" lon="6.44312">
        <ele>144.5</ele>
        <time>2020-01-19T13:26:29Z</time>
      </trkpt>
      <trkpt lat="43.45826" lon="6.443">
        <ele>144.6</ele>
        <time>2020-01-19T13:26:39Z</time>
      </trkpt>
      <trkpt lat="43.4583" lon="6.44289">
        <ele>144.7</ele>
        <time>2020-01-19T13:26:46Z</time>
      </trkpt>
      <trkpt lat="43.45835" lon="6.44279">
        <ele>144.7</ele>
        <time>2020-01-19T13:26:53Z</time>
      </trkpt>
      <trkpt lat="43.45839" lon="6.44267">
        <ele>144.7</ele>
        <time>2020-01-19T13:27:01Z</time>
      </trkpt>
      <trkpt lat="43.45842" lon="6.44255">
        <ele>144.7</ele>
        <time>2020-01-19T13:27:10Z</time>
      </trkpt>
      <trkpt lat="43.4584" lon="6.44242">
        <ele>144.7</ele>
        <time>2020-01-19T13:27:21Z</time>
      </trkpt>
      <trkpt lat="43.45833" lon="6.44233">
        <ele>144.7</ele>
        <time>2020-01-19T13:27:27Z</time>
      </trkpt>
      <trkpt lat="43.45825" lon="6.44228">
        <ele>144.7</ele>
        <time>2020-01-19T13:27:34Z</time>
      </trkpt>
      <trkpt lat="43.45817" lon="6.44221">
        <ele>144.9</ele>
        <time>2020-01-19T13:27:43Z</time>
      </trkpt>
      <trkpt lat="43.45808" lon="6.44217">
        <ele>145.4</ele>
        <time>2020-01-19T13:27:51Z</time>
      </trkpt>
      <trkpt lat="43.45799" lon="6.44214">
        <ele>145.7</ele>
        <time>2020-01-19T13:28:01Z</time>
      </trkpt>
      <trkpt lat="43.45789" lon="6.44212">
        <ele>146</ele>
        <time>2020-01-19T13:28:08Z</time>
      </trkpt>
      <trkpt lat="43.4578" lon="6.44209">
        <ele>146.8</ele>
        <time>2020-01-19T13:28:17Z</time>
      </trkpt>
      <trkpt lat="43.4577" lon="6.4421">
        <ele>147.6</ele>
        <time>2020-01-19T13:28:25Z</time>
      </trkpt>
      <trkpt lat="43.45761" lon="6.4421">
        <ele>148.4</ele>
        <time>2020-01-19T13:28:33Z</time>
      </trkpt>
      <trkpt lat="43.45751" lon="6.44209">
        <ele>149.5</ele>
        <time>2020-01-19T13:28:42Z</time>
      </trkpt>
      <trkpt lat="43.45742" lon="6.44205">
        <ele>150.3</ele>
        <time>2020-01-19T13:28:51Z</time>
      </trkpt>
      <trkpt lat="43.45733" lon="6.44199">
        <ele>150.8</ele>
        <time>2020-01-19T13:29:00Z</time>
      </trkpt>
      <trkpt lat="43.45729" lon="6.44188">
        <ele>152.6</ele>
        <time>2020-01-19T13:30:24Z</time>
      </trkpt>
      <trkpt lat="43.45725" lon="6.44177">
        <ele>152.6</ele>
        <time>2020-01-19T13:30:38Z</time>
      </trkpt>
      <trkpt lat="43.45722" lon="6.44165">
        <ele>152.8</ele>
        <time>2020-01-19T13:30:47Z</time>
      </trkpt>
      <trkpt lat="43.45716" lon="6.44154">
        <ele>153</ele>
        <time>2020-01-19T13:30:58Z</time>
      </trkpt>
      <trkpt lat="43.45711" lon="6.44143">
        <ele>153.2</ele>
        <time>2020-01-19T13:31:08Z</time>
      </trkpt>
      <trkpt lat="43.45703" lon="6.44133">
        <ele>153.4</ele>
        <time>2020-01-19T13:31:17Z</time>
      </trkpt>
      <trkpt lat="43.45697" lon="6.44124">
        <ele>153.7</ele>
        <time>2020-01-19T13:31:25Z</time>
      </trkpt>
      <trkpt lat="43.45689" lon="6.44115">
        <ele>154</ele>
        <time>2020-01-19T13:31:33Z</time>
      </trkpt>
      <trkpt lat="43.45682" lon="6.44106">
        <ele>154.3</ele>
        <time>2020-01-19T13:31:40Z</time>
      </trkpt>
      <trkpt lat="43.45673" lon="6.441">
        <ele>154.9</ele>
        <time>2020-01-19T13:31:49Z</time>
      </trkpt>
      <trkpt lat="43.45664" lon="6.44099">
        <ele>155.4</ele>
        <time>2020-01-19T13:31:55Z</time>
      </trkpt>
      <trkpt lat="43.45655" lon="6.44101">
        <ele>155.8</ele>
        <time>2020-01-19T13:32:02Z</time>
      </trkpt>
      <trkpt lat="43.45647" lon="6.44108">
        <ele>156.1</ele>
        <time>2020-01-19T13:32:11Z</time>
      </trkpt>
      <trkpt lat="43.45638" lon="6.44113">
        <ele>156.1</ele>
        <time>2020-01-19T13:32:19Z</time>
      </trkpt>
      <trkpt lat="43.45629" lon="6.44116">
        <ele>156.6</ele>
        <time>2020-01-19T13:32:29Z</time>
      </trkpt>
      <trkpt lat="43.45619" lon="6.44114">
        <ele>157.3</ele>
        <time>2020-01-19T13:32:39Z</time>
      </trkpt>
      <trkpt lat="43.4561" lon="6.44112">
        <ele>158.7</ele>
        <time>2020-01-19T13:32:51Z</time>
      </trkpt>
      <trkpt lat="43.45601" lon="6.44109">
        <ele>159.8</ele>
        <time>2020-01-19T13:33:01Z</time>
      </trkpt>
      <trkpt lat="43.45592" lon="6.44109">
        <ele>161.2</ele>
        <time>2020-01-19T13:33:13Z</time>
      </trkpt>
      <trkpt lat="43.45583" lon="6.44108">
        <ele>162.4</ele>
        <time>2020-01-19T13:33:23Z</time>
      </trkpt>
      <trkpt lat="43.45573" lon="6.44106">
        <ele>163.3</ele>
        <time>2020-01-19T13:33:31Z</time>
      </trkpt>
      <trkpt lat="43.45564" lon="6.44106">
        <ele>165</ele>
        <time>2020-01-19T13:33:44Z</time>
      </trkpt>
      <trkpt lat="43.45554" lon="6.44105">
        <ele>166.7</ele>
        <time>2020-01-19T13:33:58Z</time>
      </trkpt>
      <trkpt lat="43.45544" lon="6.44103">
        <ele>167.8</ele>
        <time>2020-01-19T13:34:07Z</time>
      </trkpt>
      <trkpt lat="43.45535" lon="6.44101">
        <ele>169.4</ele>
        <time>2020-01-19T13:34:19Z</time>
      </trkpt>
      <trkpt lat="43.45527" lon="6.44095">
        <ele>170.8</ele>
        <time>2020-01-19T13:34:30Z</time>
      </trkpt>
      <trkpt lat="43.45518" lon="6.4409">
        <ele>171.7</ele>
        <time>2020-01-19T13:34:40Z</time>
      </trkpt>
      <trkpt lat="43.45507" lon="6.44088">
        <ele>172.3</ele>
        <time>2020-01-19T13:34:51Z</time>
      </trkpt>
      <trkpt lat="43.45498" lon="6.44084">
        <ele>172.7</ele>
        <time>2020-01-19T13:35:01Z</time>
      </trkpt>
      <trkpt lat="43.45488" lon="6.44081">
        <ele>173</ele>
        <time>2020-01-19T13:35:11Z</time>
      </trkpt>
      <trkpt lat="43.45479" lon="6.44078">
        <ele>173.3</ele>
        <time>2020-01-19T13:35:20Z</time>
      </trkpt>
      <trkpt lat="43.4547" lon="6.44073">
        <ele>173.6</ele>
        <time>2020-01-19T13:35:52Z</time>
      </trkpt>
      <trkpt lat="43.45461" lon="6.4407">
        <ele>173.8</ele>
        <time>2020-01-19T13:36:04Z</time>
      </trkpt>
      <trkpt lat="43.45452" lon="6.44066">
        <ele>173.9</ele>
        <time>2020-01-19T13:36:16Z</time>
      </trkpt>
      <trkpt lat="43.45443" lon="6.44064">
        <ele>173.5</ele>
        <time>2020-01-19T13:36:24Z</time>
      </trkpt>
      <trkpt lat="43.45434" lon="6.44059">
        <ele>173.1</ele>
        <time>2020-01-19T13:36:32Z</time>
      </trkpt>
      <trkpt lat="43.45426" lon="6.44053">
        <ele>172.4</ele>
        <time>2020-01-19T13:36:41Z</time>
      </trkpt>
      <trkpt lat="43.45419" lon="6.44044">
        <ele>171.4</ele>
        <time>2020-01-19T13:36:52Z</time>
      </trkpt>
      <trkpt lat="43.45414" lon="6.44033">
        <ele>170.5</ele>
        <time>2020-01-19T13:37:02Z</time>
      </trkpt>
      <trkpt lat="43.45409" lon="6.44021">
        <ele>170</ele>
        <time>2020-01-19T13:37:12Z</time>
      </trkpt>
      <trkpt lat="43.45407" lon="6.44008">
        <ele>169.7</ele>
        <time>2020-01-19T13:37:21Z</time>
      </trkpt>
      <trkpt lat="43.45404" lon="6.43995">
        <ele>169.7</ele>
        <time>2020-01-19T13:37:31Z</time>
      </trkpt>
      <trkpt lat="43.45401" lon="6.43983">
        <ele>169.7</ele>
        <time>2020-01-19T13:37:41Z</time>
      </trkpt>
      <trkpt lat="43.45394" lon="6.43972">
        <ele>169.8</ele>
        <time>2020-01-19T13:37:49Z</time>
      </trkpt>
      <trkpt lat="43.4539" lon="6.43961">
        <ele>169.9</ele>
        <time>2020-01-19T13:37:57Z</time>
      </trkpt>
      <trkpt lat="43.45383" lon="6.43952">
        <ele>169.7</ele>
        <time>2020-01-19T13:38:05Z</time>
      </trkpt>
      <trkpt lat="43.45376" lon="6.43942">
        <ele>169.2</ele>
        <time>2020-01-19T13:38:15Z</time>
      </trkpt>
      <trkpt lat="43.4537" lon="6.43931">
        <ele>168.3</ele>
        <time>2020-01-19T13:38:24Z</time>
      </trkpt>
      <trkpt lat="43.45363" lon="6.43921">
        <ele>167.7</ele>
        <time>2020-01-19T13:38:31Z</time>
      </trkpt>
      <trkpt lat="43.45358" lon="6.43911">
        <ele>166.9</ele>
        <time>2020-01-19T13:38:41Z</time>
      </trkpt>
      <trkpt lat="43.45352" lon="6.43901">
        <ele>166</ele>
        <time>2020-01-19T13:38:50Z</time>
      </trkpt>
      <trkpt lat="43.45348" lon="6.43888">
        <ele>165.4</ele>
        <time>2020-01-19T13:38:58Z</time>
      </trkpt>
      <trkpt lat="43.45341" lon="6.43877">
        <ele>165.1</ele>
        <time>2020-01-19T13:39:05Z</time>
      </trkpt>
      <trkpt lat="43.45334" lon="6.43867">
        <ele>164.6</ele>
        <time>2020-01-19T13:39:13Z</time>
      </trkpt>
      <trkpt lat="43.4533" lon="6.43856">
        <ele>163.4</ele>
        <time>2020-01-19T13:39:25Z</time>
      </trkpt>
      <trkpt lat="43.45325" lon="6.43844">
        <ele>162.6</ele>
        <time>2020-01-19T13:39:33Z</time>
      </trkpt>
      <trkpt lat="43.45323" lon="6.43831">
        <ele>161.1</ele>
        <time>2020-01-19T13:39:42Z</time>
      </trkpt>
      <trkpt lat="43.45323" lon="6.43817">
        <ele>160.3</ele>
        <time>2020-01-19T13:39:49Z</time>
      </trkpt>
      <trkpt lat="43.45321" lon="6.43804">
        <ele>159.6</ele>
        <time>2020-01-19T13:39:57Z</time>
      </trkpt>
      <trkpt lat="43.45322" lon="6.43791">
        <ele>159</ele>
        <time>2020-01-19T13:40:05Z</time>
      </trkpt>
      <trkpt lat="43.45321" lon="6.43778">
        <ele>158.7</ele>
        <time>2020-01-19T13:40:14Z</time>
      </trkpt>
      <trkpt lat="43.45324" lon="6.43766">
        <ele>158.4</ele>
        <time>2020-01-19T13:40:22Z</time>
      </trkpt>
      <trkpt lat="43.45325" lon="6.43754">
        <ele>158.4</ele>
        <time>2020-01-19T13:40:30Z</time>
      </trkpt>
      <trkpt lat="43.45322" lon="6.43741">
        <ele>158.5</ele>
        <time>2020-01-19T13:40:39Z</time>
      </trkpt>
      <trkpt lat="43.45325" lon="6.43729">
        <ele>158.6</ele>
        <time>2020-01-19T13:40:49Z</time>
      </trkpt>
      <trkpt lat="43.45324" lon="6.43716">
        <ele>159.2</ele>
        <time>2020-01-19T13:41:00Z</time>
      </trkpt>
      <trkpt lat="43.45328" lon="6.43704">
        <ele>160</ele>
        <time>2020-01-19T13:41:08Z</time>
      </trkpt>
      <trkpt lat="43.4533" lon="6.4369">
        <ele>160.8</ele>
        <time>2020-01-19T13:41:17Z</time>
      </trkpt>
      <trkpt lat="43.45333" lon="6.43678">
        <ele>161.4</ele>
        <time>2020-01-19T13:41:26Z</time>
      </trkpt>
      <trkpt lat="43.45335" lon="6.43664">
        <ele>162.2</ele>
        <time>2020-01-19T13:41:36Z</time>
      </trkpt>
      <trkpt lat="43.45337" lon="6.43652">
        <ele>162.8</ele>
        <time>2020-01-19T13:41:43Z</time>
      </trkpt>
      <trkpt lat="43.4534" lon="6.43639">
        <ele>163.3</ele>
        <time>2020-01-19T13:41:51Z</time>
      </trkpt>
      <trkpt lat="43.45344" lon="6.43627">
        <ele>163.9</ele>
        <time>2020-01-19T13:42:01Z</time>
      </trkpt>
      <trkpt lat="43.45344" lon="6.43614">
        <ele>164.2</ele>
        <time>2020-01-19T13:42:09Z</time>
      </trkpt>
      <trkpt lat="43.45342" lon="6.436">
        <ele>164.5</ele>
        <time>2020-01-19T13:42:19Z</time>
      </trkpt>
      <trkpt lat="43.45345" lon="6.43588">
        <ele>165</ele>
        <time>2020-01-19T13:42:29Z</time>
      </trkpt>
      <trkpt lat="43.45346" lon="6.43575">
        <ele>165.8</ele>
        <time>2020-01-19T13:42:38Z</time>
      </trkpt>
      <trkpt lat="43.45341" lon="6.43564">
        <ele>166.1</ele>
        <time>2020-01-19T13:42:43Z</time>
      </trkpt>
      <trkpt lat="43.45342" lon="6.43551">
        <ele>166.8</ele>
        <time>2020-01-19T13:42:51Z</time>
      </trkpt>
      <trkpt lat="43.4534" lon="6.43538">
        <ele>167.4</ele>
        <time>2020-01-19T13:43:01Z</time>
      </trkpt>
      <trkpt lat="43.45339" lon="6.43524">
        <ele>167.8</ele>
        <time>2020-01-19T13:43:10Z</time>
      </trkpt>
      <trkpt lat="43.45338" lon="6.43511">
        <ele>167.9</ele>
        <time>2020-01-19T13:43:19Z</time>
      </trkpt>
      <trkpt lat="43.45334" lon="6.43499">
        <ele>167.8</ele>
        <time>2020-01-19T13:43:28Z</time>
      </trkpt>
      <trkpt lat="43.45328" lon="6.43488">
        <ele>167.5</ele>
        <time>2020-01-19T13:43:35Z</time>
      </trkpt>
      <trkpt lat="43.45327" lon="6.43474">
        <ele>167</ele>
        <time>2020-01-19T13:43:43Z</time>
      </trkpt>
      <trkpt lat="43.45327" lon="6.43461">
        <ele>166.2</ele>
        <time>2020-01-19T13:43:53Z</time>
      </trkpt>
      <trkpt lat="43.45333" lon="6.43451">
        <ele>164.6</ele>
        <time>2020-01-19T13:46:10Z</time>
      </trkpt>
      <trkpt lat="43.45329" lon="6.4344">
        <ele>164.2</ele>
        <time>2020-01-19T13:46:24Z</time>
      </trkpt>
      <trkpt lat="43.4533" lon="6.43427">
        <ele>163.7</ele>
        <time>2020-01-19T13:46:40Z</time>
      </trkpt>
      <trkpt lat="43.45328" lon="6.43414">
        <ele>163.3</ele>
        <time>2020-01-19T13:46:50Z</time>
      </trkpt>
      <trkpt lat="43.45329" lon="6.43401">
        <ele>163.4</ele>
        <time>2020-01-19T13:47:01Z</time>
      </trkpt>
      <trkpt lat="43.45332" lon="6.43388">
        <ele>163.4</ele>
        <time>2020-01-19T13:47:11Z</time>
      </trkpt>
      <trkpt lat="43.45338" lon="6.43377">
        <ele>163.6</ele>
        <time>2020-01-19T13:47:22Z</time>
      </trkpt>
      <trkpt lat="43.45342" lon="6.43366">
        <ele>164.3</ele>
        <time>2020-01-19T13:47:34Z</time>
      </trkpt>
      <trkpt lat="43.45344" lon="6.43353">
        <ele>165.5</ele>
        <time>2020-01-19T13:47:48Z</time>
      </trkpt>
      <trkpt lat="43.45346" lon="6.4334">
        <ele>167</ele>
        <time>2020-01-19T13:48:04Z</time>
      </trkpt>
      <trkpt lat="43.45354" lon="6.43333">
        <ele>168.5</ele>
        <time>2020-01-19T13:48:25Z</time>
      </trkpt>
      <trkpt lat="43.45362" lon="6.43327">
        <ele>170.4</ele>
        <time>2020-01-19T13:48:40Z</time>
      </trkpt>
      <trkpt lat="43.45363" lon="6.43314">
        <ele>172.4</ele>
        <time>2020-01-19T13:48:55Z</time>
      </trkpt>
      <trkpt lat="43.45361" lon="6.43302">
        <ele>173.6</ele>
        <time>2020-01-19T13:49:09Z</time>
      </trkpt>
      <trkpt lat="43.45367" lon="6.43293">
        <ele>174.7</ele>
        <time>2020-01-19T13:50:34Z</time>
      </trkpt>
      <trkpt lat="43.45374" lon="6.43283">
        <ele>173.8</ele>
        <time>2020-01-19T13:51:57Z</time>
      </trkpt>
      <trkpt lat="43.45379" lon="6.43272">
        <ele>173.3</ele>
        <time>2020-01-19T13:52:16Z</time>
      </trkpt>
      <trkpt lat="43.4537" lon="6.43275">
        <ele>172.8</ele>
        <time>2020-01-19T13:52:47Z</time>
      </trkpt>
      <trkpt lat="43.45365" lon="6.43286">
        <ele>172.9</ele>
        <time>2020-01-19T13:53:06Z</time>
      </trkpt>
      <trkpt lat="43.45362" lon="6.43298">
        <ele>173.2</ele>
        <time>2020-01-19T13:53:26Z</time>
      </trkpt>
      <trkpt lat="43.45359" lon="6.43286">
        <ele>173.2</ele>
        <time>2020-01-19T13:56:41Z</time>
      </trkpt>
      <trkpt lat="43.45353" lon="6.43295">
        <ele>173.5</ele>
        <time>2020-01-19T14:00:58Z</time>
      </trkpt>
      <trkpt lat="43.45352" lon="6.43308">
        <ele>172.6</ele>
        <time>2020-01-19T14:01:27Z</time>
      </trkpt>
      <trkpt lat="43.45349" lon="6.4332">
        <ele>171.3</ele>
        <time>2020-01-19T14:01:41Z</time>
      </trkpt>
      <trkpt lat="43.45345" lon="6.43331">
        <ele>170.2</ele>
        <time>2020-01-19T14:01:52Z</time>
      </trkpt>
      <trkpt lat="43.4534" lon="6.43343">
        <ele>168.5</ele>
        <time>2020-01-19T14:02:06Z</time>
      </trkpt>
      <trkpt lat="43.45337" lon="6.43354">
        <ele>166.8</ele>
        <time>2020-01-19T14:02:20Z</time>
      </trkpt>
      <trkpt lat="43.45334" lon="6.43366">
        <ele>165.6</ele>
        <time>2020-01-19T14:02:31Z</time>
      </trkpt>
      <trkpt lat="43.4533" lon="6.43379">
        <ele>164.5</ele>
        <time>2020-01-19T14:02:41Z</time>
      </trkpt>
      <trkpt lat="43.45329" lon="6.43391">
        <ele>163.3</ele>
        <time>2020-01-19T14:02:51Z</time>
      </trkpt>
      <trkpt lat="43.45327" lon="6.43404">
        <ele>162.7</ele>
        <time>2020-01-19T14:03:01Z</time>
      </trkpt>
      <trkpt lat="43.45329" lon="6.43416">
        <ele>162.3</ele>
        <time>2020-01-19T14:03:09Z</time>
      </trkpt>
      <trkpt lat="43.45334" lon="6.43427">
        <ele>162</ele>
        <time>2020-01-19T14:03:19Z</time>
      </trkpt>
      <trkpt lat="43.45342" lon="6.43432">
        <ele>161.2</ele>
        <time>2020-01-19T14:03:51Z</time>
      </trkpt>
      <trkpt lat="43.45351" lon="6.4343">
        <ele>161</ele>
        <time>2020-01-19T14:04:01Z</time>
      </trkpt>
      <trkpt lat="43.4536" lon="6.43425">
        <ele>160.6</ele>
        <time>2020-01-19T14:04:11Z</time>
      </trkpt>
      <trkpt lat="43.45368" lon="6.43418">
        <ele>160.3</ele>
        <time>2020-01-19T14:04:19Z</time>
      </trkpt>
      <trkpt lat="43.45377" lon="6.43412">
        <ele>159.8</ele>
        <time>2020-01-19T14:04:28Z</time>
      </trkpt>
      <trkpt lat="43.45386" lon="6.43405">
        <ele>159.4</ele>
        <time>2020-01-19T14:04:36Z</time>
      </trkpt>
      <trkpt lat="43.45391" lon="6.43395">
        <ele>158.8</ele>
        <time>2020-01-19T14:04:45Z</time>
      </trkpt>
      <trkpt lat="43.45399" lon="6.43388">
        <ele>158.1</ele>
        <time>2020-01-19T14:04:54Z</time>
      </trkpt>
      <trkpt lat="43.45407" lon="6.43379">
        <ele>157.2</ele>
        <time>2020-01-19T14:05:03Z</time>
      </trkpt>
      <trkpt lat="43.45413" lon="6.43369">
        <ele>156.2</ele>
        <time>2020-01-19T14:05:11Z</time>
      </trkpt>
      <trkpt lat="43.4542" lon="6.4336">
        <ele>155.2</ele>
        <time>2020-01-19T14:05:20Z</time>
      </trkpt>
      <trkpt lat="43.45425" lon="6.4335">
        <ele>154.2</ele>
        <time>2020-01-19T14:05:29Z</time>
      </trkpt>
      <trkpt lat="43.45425" lon="6.43337">
        <ele>153</ele>
        <time>2020-01-19T14:05:38Z</time>
      </trkpt>
      <trkpt lat="43.45433" lon="6.43328">
        <ele>152.1</ele>
        <time>2020-01-19T14:05:47Z</time>
      </trkpt>
      <trkpt lat="43.45441" lon="6.4332">
        <ele>151.2</ele>
        <time>2020-01-19T14:05:58Z</time>
      </trkpt>
      <trkpt lat="43.45443" lon="6.43307">
        <ele>149.8</ele>
        <time>2020-01-19T14:06:14Z</time>
      </trkpt>
      <trkpt lat="43.45442" lon="6.43294">
        <ele>148.9</ele>
        <time>2020-01-19T14:06:23Z</time>
      </trkpt>
      <trkpt lat="43.4544" lon="6.43281">
        <ele>147.4</ele>
        <time>2020-01-19T14:06:36Z</time>
      </trkpt>
      <trkpt lat="43.45444" lon="6.4327">
        <ele>145.7</ele>
        <time>2020-01-19T14:06:48Z</time>
      </trkpt>
      <trkpt lat="43.45452" lon="6.43263">
        <ele>143</ele>
        <time>2020-01-19T14:07:06Z</time>
      </trkpt>
      <trkpt lat="43.4546" lon="6.43257">
        <ele>141.7</ele>
        <time>2020-01-19T14:07:22Z</time>
      </trkpt>
      <trkpt lat="43.45468" lon="6.43251">
        <ele>140.6</ele>
        <time>2020-01-19T14:07:32Z</time>
      </trkpt>
      <trkpt lat="43.45477" lon="6.43243">
        <ele>139</ele>
        <time>2020-01-19T14:07:42Z</time>
      </trkpt>
      <trkpt lat="43.45485" lon="6.43236">
        <ele>137.5</ele>
        <time>2020-01-19T14:07:54Z</time>
      </trkpt>
      <trkpt lat="43.45489" lon="6.43225">
        <ele>135.9</ele>
        <time>2020-01-19T14:08:06Z</time>
      </trkpt>
      <trkpt lat="43.45495" lon="6.43214">
        <ele>134.7</ele>
        <time>2020-01-19T14:08:16Z</time>
      </trkpt>
      <trkpt lat="43.45497" lon="6.43202">
        <ele>133.1</ele>
        <time>2020-01-19T14:08:27Z</time>
      </trkpt>
      <trkpt lat="43.455" lon="6.43189">
        <ele>131.1</ele>
        <time>2020-01-19T14:08:42Z</time>
      </trkpt>
      <trkpt lat="43.45503" lon="6.43177">
        <ele>129.8</ele>
        <time>2020-01-19T14:08:54Z</time>
      </trkpt>
      <trkpt lat="43.45506" lon="6.43164">
        <ele>128.3</ele>
        <time>2020-01-19T14:09:06Z</time>
      </trkpt>
      <trkpt lat="43.45506" lon="6.43151">
        <ele>126.7</ele>
        <time>2020-01-19T14:09:18Z</time>
      </trkpt>
      <trkpt lat="43.45507" lon="6.43138">
        <ele>125.5</ele>
        <time>2020-01-19T14:09:29Z</time>
      </trkpt>
      <trkpt lat="43.45508" lon="6.43126">
        <ele>124.6</ele>
        <time>2020-01-19T14:09:39Z</time>
      </trkpt>
      <trkpt lat="43.45506" lon="6.43113">
        <ele>123.4</ele>
        <time>2020-01-19T14:09:49Z</time>
      </trkpt>
      <trkpt lat="43.45503" lon="6.431">
        <ele>121.9</ele>
        <time>2020-01-19T14:10:00Z</time>
      </trkpt>
      <trkpt lat="43.45499" lon="6.43088">
        <ele>120.9</ele>
        <time>2020-01-19T14:10:08Z</time>
      </trkpt>
      <trkpt lat="43.45498" lon="6.43076">
        <ele>119.3</ele>
        <time>2020-01-19T14:10:18Z</time>
      </trkpt>
      <trkpt lat="43.45497" lon="6.43063">
        <ele>117.4</ele>
        <time>2020-01-19T14:10:29Z</time>
      </trkpt>
      <trkpt lat="43.455" lon="6.4305">
        <ele>115.8</ele>
        <time>2020-01-19T14:10:40Z</time>
      </trkpt>
      <trkpt lat="43.45506" lon="6.43039">
        <ele>114.8</ele>
        <time>2020-01-19T14:10:48Z</time>
      </trkpt>
      <trkpt lat="43.45511" lon="6.43029">
        <ele>113.5</ele>
        <time>2020-01-19T14:10:58Z</time>
      </trkpt>
      <trkpt lat="43.45515" lon="6.43017">
        <ele>112.4</ele>
        <time>2020-01-19T14:11:08Z</time>
      </trkpt>
      <trkpt lat="43.45519" lon="6.43005">
        <ele>110.9</ele>
        <time>2020-01-19T14:11:20Z</time>
      </trkpt>
      <trkpt lat="43.45524" lon="6.42994">
        <ele>108.3</ele>
        <time>2020-01-19T14:11:35Z</time>
      </trkpt>
      <trkpt lat="43.45525" lon="6.42981">
        <ele>106.3</ele>
        <time>2020-01-19T14:11:47Z</time>
      </trkpt>
      <trkpt lat="43.45523" lon="6.42969">
        <ele>104.5</ele>
        <time>2020-01-19T14:11:57Z</time>
      </trkpt>
      <trkpt lat="43.45521" lon="6.42957">
        <ele>102.9</ele>
        <time>2020-01-19T14:12:07Z</time>
      </trkpt>
      <trkpt lat="43.4552" lon="6.42944">
        <ele>100.1</ele>
        <time>2020-01-19T14:12:23Z</time>
      </trkpt>
      <trkpt lat="43.45518" lon="6.42931">
        <ele>98.3</ele>
        <time>2020-01-19T14:12:32Z</time>
      </trkpt>
      <trkpt lat="43.45517" lon="6.42919">
        <ele>96.3</ele>
        <time>2020-01-19T14:12:43Z</time>
      </trkpt>
      <trkpt lat="43.45514" lon="6.42907">
        <ele>93.6</ele>
        <time>2020-01-19T14:13:05Z</time>
      </trkpt>
      <trkpt lat="43.4551" lon="6.42896">
        <ele>92.3</ele>
        <time>2020-01-19T14:13:13Z</time>
      </trkpt>
      <trkpt lat="43.45504" lon="6.42886">
        <ele>91.3</ele>
        <time>2020-01-19T14:13:19Z</time>
      </trkpt>
      <trkpt lat="43.45497" lon="6.42876">
        <ele>89.9</ele>
        <time>2020-01-19T14:13:28Z</time>
      </trkpt>
      <trkpt lat="43.4549" lon="6.42869">
        <ele>88.6</ele>
        <time>2020-01-19T14:13:36Z</time>
      </trkpt>
      <trkpt lat="43.45487" lon="6.42856">
        <ele>87.6</ele>
        <time>2020-01-19T14:13:44Z</time>
      </trkpt>
      <trkpt lat="43.45493" lon="6.42846">
        <ele>86.7</ele>
        <time>2020-01-19T14:13:51Z</time>
      </trkpt>
      <trkpt lat="43.45497" lon="6.42835">
        <ele>86.2</ele>
        <time>2020-01-19T14:13:59Z</time>
      </trkpt>
      <trkpt lat="43.45499" lon="6.42823">
        <ele>85</ele>
        <time>2020-01-19T14:14:09Z</time>
      </trkpt>
      <trkpt lat="43.45496" lon="6.42811">
        <ele>84.1</ele>
        <time>2020-01-19T14:14:16Z</time>
      </trkpt>
      <trkpt lat="43.45489" lon="6.42801">
        <ele>83.3</ele>
        <time>2020-01-19T14:14:24Z</time>
      </trkpt>
      <trkpt lat="43.45481" lon="6.42793">
        <ele>82.4</ele>
        <time>2020-01-19T14:14:40Z</time>
      </trkpt>
      <trkpt lat="43.45476" lon="6.42781">
        <ele>81.9</ele>
        <time>2020-01-19T14:14:49Z</time>
      </trkpt>
      <trkpt lat="43.45473" lon="6.4277">
        <ele>81.1</ele>
        <time>2020-01-19T14:14:57Z</time>
      </trkpt>
      <trkpt lat="43.45471" lon="6.42757">
        <ele>80.4</ele>
        <time>2020-01-19T14:15:04Z</time>
      </trkpt>
      <trkpt lat="43.45469" lon="6.42744">
        <ele>79.2</ele>
        <time>2020-01-19T14:15:16Z</time>
      </trkpt>
      <trkpt lat="43.45466" lon="6.42731">
        <ele>78.7</ele>
        <time>2020-01-19T14:15:23Z</time>
      </trkpt>
      <trkpt lat="43.45459" lon="6.42721">
        <ele>78.1</ele>
        <time>2020-01-19T14:15:29Z</time>
      </trkpt>
      <trkpt lat="43.45452" lon="6.42714">
        <ele>77.7</ele>
        <time>2020-01-19T14:15:35Z</time>
      </trkpt>
      <trkpt lat="43.45445" lon="6.42705">
        <ele>76.8</ele>
        <time>2020-01-19T14:15:46Z</time>
      </trkpt>
      <trkpt lat="43.45436" lon="6.427">
        <ele>75.7</ele>
        <time>2020-01-19T14:16:03Z</time>
      </trkpt>
      <trkpt lat="43.4543" lon="6.42691">
        <ele>75.4</ele>
        <time>2020-01-19T14:16:11Z</time>
      </trkpt>
      <trkpt lat="43.45425" lon="6.4268">
        <ele>75</ele>
        <time>2020-01-19T14:16:20Z</time>
      </trkpt>
      <trkpt lat="43.45421" lon="6.42668">
        <ele>74.5</ele>
        <time>2020-01-19T14:16:32Z</time>
      </trkpt>
      <trkpt lat="43.45413" lon="6.4266">
        <ele>74.1</ele>
        <time>2020-01-19T14:16:41Z</time>
      </trkpt>
      <trkpt lat="43.45406" lon="6.42652">
        <ele>73.5</ele>
        <time>2020-01-19T14:16:50Z</time>
      </trkpt>
      <trkpt lat="43.45397" lon="6.4265">
        <ele>72.6</ele>
        <time>2020-01-19T14:17:04Z</time>
      </trkpt>
      <trkpt lat="43.45392" lon="6.42661">
        <ele>72.3</ele>
        <time>2020-01-19T14:19:56Z</time>
      </trkpt>
      <trkpt lat="43.45387" lon="6.4265">
        <ele>72</ele>
        <time>2020-01-19T14:20:34Z</time>
      </trkpt>
      <trkpt lat="43.45395" lon="6.42643">
        <ele>71.8</ele>
        <time>2020-01-19T14:21:47Z</time>
      </trkpt>
      <trkpt lat="43.45388" lon="6.42651">
        <ele>71.6</ele>
        <time>2020-01-19T14:22:36Z</time>
      </trkpt>
    </trkseg>
  </trk>
</gpx>